Darstellungsparameter: Aktuell verwendete Einstellungen:
Skalierung der Graphiken ... ?
xyx+y,   Skalierungsfaktor:      Skalierung: Modus: x, Faktor: 1
Darstellungszeitraum ... ?
Vom - - bis: - -   Zeitraum: 15.04.2006 - 14.05.2006
Min/Max/Avg-Anzeige ... ?
Zeige MMA aktuell
Zeige MMA Monat
Zeige MMA alles
Zeige --A aktuell
Zeige --A Monat
Zeige --A alles
Keine MMA-Anzeige
MMA:
Keine MMA-Graphiken
MMA-Basis: 15.04.2006 - 14.05.2006
Quicknavigation für Darstellung... ?
Tage:      1T, 2T, 3T, 5T -1T -2T -3T -5T +1T +2T +3T +5T
Wochen: 1W, 2W, 3W -1W -2W -3W +1W +2W +3W
Monate: 1M, 3M, 6M -1M -3M -6M +1M +3M +6M
Jahre:    1J, 3J, 5J, 10J -1J -3J -5J -10J +1J +3J +5J +10J
Nutze für die Darstellung ... ?
Originaldaten oder Mittelwerte auf ...
Stundenbasis Tagesbasis Wochenbasis
Monatsbasis Jahresbasis      Datenbasis: Original-Daten
Darstellen als:
Statistik (Auto) Statistik J:M      Darstellung:
Zur Graphik,    zurück zur Übersicht aller Sensoren.
 
Tabellarische Datenbersicht: ?
 
Sensor: Nr:Datum:Temp:Feuchte:Taupunkt:
Aussen-T/F 1 15-04-2006 00:07:02 9.1 C 88 % 7.22 C
2 15-04-2006 00:17:02 9.1 C 88 % 7.22 C
3 15-04-2006 00:27:03 9 C 88 % 7.12 C
4 15-04-2006 00:37:03 9.1 C 88 % 7.22 C
5 15-04-2006 00:47:03 9.1 C 88 % 7.22 C
6 15-04-2006 00:57:03 8.9 C 88 % 7.02 C
7 15-04-2006 01:07:03 8.8 C 88 % 6.93 C
8 15-04-2006 01:17:03 8.8 C 88 % 6.93 C
9 15-04-2006 01:27:03 8.6 C 88 % 6.73 C
10 15-04-2006 01:37:03 8.7 C 89 % 6.99 C
11 15-04-2006 01:47:02 8.7 C 89 % 6.99 C
12 15-04-2006 01:57:02 8.7 C 89 % 6.99 C
13 15-04-2006 02:07:02 8.6 C 89 % 6.89 C
14 15-04-2006 02:17:02 8.7 C 89 % 6.99 C
15 15-04-2006 02:27:02 8.7 C 89 % 6.99 C
16 15-04-2006 02:37:03 8.7 C 89 % 6.99 C
17 15-04-2006 02:48:05 8.7 C 89 % 6.99 C
18 15-04-2006 02:58:05 8.6 C 88 % 6.73 C
19 15-04-2006 03:08:05 8.6 C 88 % 6.73 C
20 15-04-2006 03:18:04 8.7 C 89 % 6.99 C
21 15-04-2006 03:28:05 8.7 C 89 % 6.99 C
22 15-04-2006 03:38:02 8.8 C 89 % 7.09 C
23 15-04-2006 03:48:02 8.9 C 89 % 7.19 C
24 15-04-2006 03:58:02 8.8 C 88 % 6.93 C
25 15-04-2006 04:08:03 8.7 C 88 % 6.83 C
Sensor: Nr:Datum:Temp:Feuchte:Taupunkt:
Aussen-T/F 26 15-04-2006 04:18:02 8.7 C 88 % 6.83 C
27 15-04-2006 04:28:02 8.6 C 88 % 6.73 C
28 15-04-2006 04:38:02 8.5 C 88 % 6.63 C
29 15-04-2006 04:48:02 8.4 C 88 % 6.53 C
30 15-04-2006 04:58:02 8.2 C 88 % 6.33 C
31 15-04-2006 05:08:02 8.1 C 89 % 6.4 C
32 15-04-2006 05:18:02 8 C 89 % 6.3 C
33 15-04-2006 05:28:02 8 C 89 % 6.3 C
34 15-04-2006 05:38:02 7.9 C 89 % 6.2 C
35 15-04-2006 05:48:01 7.8 C 89 % 6.1 C
36 15-04-2006 05:58:01 7.6 C 89 % 5.91 C
37 15-04-2006 06:08:02 7.7 C 90 % 6.17 C
38 15-04-2006 06:18:02 7.5 C 89 % 5.81 C
39 15-04-2006 06:28:02 7.4 C 89 % 5.71 C
40 15-04-2006 06:38:02 7.5 C 90 % 5.97 C
41 15-04-2006 06:48:02 7.7 C 90 % 6.17 C
42 15-04-2006 06:58:03 7.7 C 90 % 6.17 C
43 15-04-2006 07:08:02 7.7 C 90 % 6.17 C
44 15-04-2006 07:18:02 7.8 C 90 % 6.27 C
45 15-04-2006 07:28:02 7.8 C 90 % 6.27 C
46 15-04-2006 07:38:02 7.9 C 90 % 6.36 C
47 15-04-2006 07:48:02 8.1 C 89 % 6.4 C
48 15-04-2006 07:58:03 8.3 C 89 % 6.6 C
49 15-04-2006 08:08:02 8.7 C 90 % 7.15 C
50 15-04-2006 08:18:02 9 C 88 % 7.12 C
Sensor: Nr:Datum:Temp:Feuchte:Taupunkt:
Aussen-T/F 51 15-04-2006 08:28:03 9.3 C 86 % 7.08 C
52 15-04-2006 08:38:02 9.4 C 85 % 7.01 C
53 15-04-2006 08:48:01 9.5 C 83 % 6.76 C
54 15-04-2006 08:58:01 9.7 C 81 % 6.6 C
55 15-04-2006 09:08:02 9.9 C 81 % 6.8 C
56 15-04-2006 09:18:02 10.2 C 77 % 6.35 C
57 15-04-2006 09:28:02 10.3 C 75 % 6.07 C
58 15-04-2006 09:38:02 10.7 C 74 % 6.26 C
59 15-04-2006 09:48:02 11.2 C 71 % 6.14 C
60 15-04-2006 09:58:02 11.3 C 71 % 6.24 C
61 15-04-2006 10:08:02 11.2 C 69 % 5.73 C
62 15-04-2006 10:18:02 11.4 C 68 % 5.71 C
63 15-04-2006 10:28:02 11.4 C 68 % 5.71 C
64 15-04-2006 10:38:02 11.3 C 67 % 5.4 C
65 15-04-2006 10:48:02 11.6 C 68 % 5.9 C
66 15-04-2006 10:58:02 12 C 67 % 6.07 C
67 15-04-2006 11:08:02 12.4 C 64 % 5.79 C
68 15-04-2006 11:18:02 12.9 C 64 % 6.26 C
69 15-04-2006 11:28:02 13 C 61 % 5.66 C
70 15-04-2006 11:38:02 13.2 C 61 % 5.85 C
71 15-04-2006 11:48:02 13.4 C 60 % 5.8 C
72 15-04-2006 11:58:02 13.7 C 59 % 5.84 C
73 15-04-2006 12:08:03 13.8 C 59 % 5.94 C
74 15-04-2006 12:18:02 14.1 C 56 % 5.46 C
75 15-04-2006 12:28:02 14.1 C 56 % 5.46 C
Sensor: Nr:Datum:Temp:Feuchte:Taupunkt:
Aussen-T/F 76 15-04-2006 12:38:02 14.5 C 55 % 5.58 C
77 15-04-2006 12:48:02 14.8 C 55 % 5.86 C
78 15-04-2006 12:58:02 15.3 C 53 % 5.79 C
79 15-04-2006 13:08:02 15.8 C 50 % 5.41 C
80 15-04-2006 13:18:02 16.1 C 46 % 4.49 C
81 15-04-2006 13:28:02 15.8 C 46 % 4.22 C
82 15-04-2006 13:38:01 16.2 C 44 % 3.95 C
83 15-04-2006 13:48:02 16.4 C 45 % 4.45 C
84 15-04-2006 13:58:02 16.4 C 45 % 4.45 C
85 15-04-2006 14:08:02 16.3 C 44 % 4.04 C
86 15-04-2006 14:18:02 15.8 C 46 % 4.22 C
87 15-04-2006 14:28:02 15.8 C 47 % 4.52 C
88 15-04-2006 14:38:02 15.8 C 46 % 4.22 C
89 15-04-2006 14:48:02 15.8 C 47 % 4.52 C
90 15-04-2006 14:58:02 15.6 C 47 % 4.34 C
91 15-04-2006 15:08:03 15.8 C 48 % 4.82 C
92 15-04-2006 15:18:03 16 C 46 % 4.4 C
93 15-04-2006 15:28:03 16.2 C 47 % 4.89 C
94 15-04-2006 15:38:02 16.6 C 46 % 4.95 C
95 15-04-2006 15:48:02 16.6 C 46 % 4.95 C
96 15-04-2006 15:58:03 16.9 C 45 % 4.9 C
97 15-04-2006 16:08:02 17.2 C 43 % 4.53 C
98 15-04-2006 16:18:01 17 C 44 % 4.67 C
99 15-04-2006 16:28:01 17.1 C 44 % 4.76 C
100 15-04-2006 16:38:02 16.8 C 45 % 4.81 C
Sensor: Nr:Datum:Temp:Feuchte:Taupunkt:
Aussen-T/F 101 15-04-2006 16:48:02 16.8 C 46 % 5.13 C
102 15-04-2006 16:58:03 16.6 C 46 % 4.95 C
103 15-04-2006 17:08:03 16.5 C 46 % 4.85 C
104 15-04-2006 17:18:02 16.3 C 47 % 4.98 C
105 15-04-2006 17:28:02 16.1 C 47 % 4.8 C
106 15-04-2006 17:38:02 16.1 C 48 % 5.1 C
107 15-04-2006 17:48:02 16 C 46 % 4.4 C
108 15-04-2006 17:58:02 16.2 C 46 % 4.58 C
109 15-04-2006 18:08:02 16.3 C 46 % 4.67 C
110 15-04-2006 18:18:02 16.3 C 46 % 4.67 C
111 15-04-2006 18:28:02 16.2 C 47 % 4.89 C
112 15-04-2006 18:38:02 16.1 C 47 % 4.8 C
113 15-04-2006 18:48:02 16 C 48 % 5.01 C
114 15-04-2006 18:58:02 15.9 C 50 % 5.5 C
115 15-04-2006 19:08:02 15.8 C 50 % 5.41 C
116 15-04-2006 19:18:01 15.6 C 51 % 5.51 C
117 15-04-2006 19:28:01 15.5 C 52 % 5.7 C
118 15-04-2006 19:38:02 15.1 C 53 % 5.6 C
119 15-04-2006 19:48:02 14.7 C 57 % 6.28 C
120 15-04-2006 19:58:03 14.7 C 58 % 6.53 C
121 15-04-2006 20:08:01 14.7 C 55 % 5.76 C
122 15-04-2006 20:18:01 14.6 C 56 % 5.93 C
123 15-04-2006 20:28:01 14.7 C 56 % 6.02 C
124 15-04-2006 20:38:02 14.6 C 56 % 5.93 C
125 15-04-2006 20:48:02 14.7 C 55 % 5.76 C
Sensor: Nr:Datum:Temp:Feuchte:Taupunkt:
Aussen-T/F 126 15-04-2006 20:58:02 13.8 C 64 % 7.12 C
127 15-04-2006 21:08:01 13.9 C 65 % 7.44 C
128 15-04-2006 21:18:01 14 C 62 % 6.84 C
129 15-04-2006 21:28:01 14 C 60 % 6.37 C
130 15-04-2006 21:38:01 14.2 C 59 % 6.31 C
131 15-04-2006 21:48:02 14 C 60 % 6.37 C
132 15-04-2006 21:58:02 14 C 61 % 6.61 C
133 15-04-2006 22:08:02 13.5 C 66 % 7.28 C
134 15-04-2006 22:18:02 13.5 C 67 % 7.5 C
135 15-04-2006 22:28:02 13.5 C 66 % 7.28 C
136 15-04-2006 22:38:01 13.3 C 68 % 7.53 C
137 15-04-2006 22:48:02 12.8 C 73 % 8.09 C
138 15-04-2006 22:58:03 12.4 C 75 % 8.1 C
139 15-04-2006 23:08:02 12.3 C 77 % 8.39 C
140 15-04-2006 23:18:01 12.3 C 77 % 8.39 C
141 15-04-2006 23:28:01 12.4 C 77 % 8.49 C
142 15-04-2006 23:38:02 12.6 C 76 % 8.49 C
143 15-04-2006 23:48:02 12.5 C 76 % 8.39 C
144 15-04-2006 23:58:02 12.4 C 76 % 8.29 C
145 16-04-2006 00:08:01 12.4 C 76 % 8.29 C
146 16-04-2006 00:18:04 12.5 C 75 % 8.19 C
147 16-04-2006 00:28:04 12.5 C 74 % 8 C
148 16-04-2006 00:38:02 12.2 C 78 % 8.48 C
149 16-04-2006 00:48:02 11.9 C 82 % 8.93 C
150 16-04-2006 00:58:02 11.8 C 84 % 9.19 C
Sensor: Nr:Datum:Temp:Feuchte:Taupunkt:
Aussen-T/F 151 16-04-2006 01:08:01 11.6 C 85 % 9.17 C
152 16-04-2006 01:18:02 11.6 C 85 % 9.17 C
153 16-04-2006 01:28:02 11.8 C 85 % 9.36 C
154 16-04-2006 01:38:02 12 C 83 % 9.21 C
155 16-04-2006 01:48:02 11.8 C 82 % 8.83 C
156 16-04-2006 01:58:02 12.2 C 81 % 9.04 C
157 16-04-2006 02:08:01 12.1 C 80 % 8.76 C
158 16-04-2006 02:18:01 12.2 C 76 % 8.1 C
159 16-04-2006 02:28:01 12 C 76 % 7.91 C
160 16-04-2006 02:38:02 12.1 C 76 % 8 C
161 16-04-2006 02:49:04 12.2 C 75 % 7.91 C
162 16-04-2006 02:59:04 12.2 C 75 % 7.91 C
163 16-04-2006 03:09:04 12.2 C 75 % 7.91 C
164 16-04-2006 03:19:05 12 C 76 % 7.91 C
165 16-04-2006 03:29:05 11.7 C 79 % 8.18 C
166 16-04-2006 03:39:02 11.5 C 81 % 8.36 C
167 16-04-2006 03:49:02 11.5 C 82 % 8.54 C
168 16-04-2006 03:59:02 11.7 C 80 % 8.37 C
169 16-04-2006 04:09:02 12.3 C 72 % 7.4 C
170 16-04-2006 04:19:02 12.4 C 70 % 7.09 C
171 16-04-2006 04:29:02 12.3 C 72 % 7.4 C
172 16-04-2006 04:39:02 11.8 C 76 % 7.71 C
173 16-04-2006 04:49:02 11.5 C 78 % 7.8 C
174 16-04-2006 04:59:03 11.4 C 78 % 7.71 C
175 16-04-2006 05:09:02 11.2 C 78 % 7.51 C
Sensor: Nr:Datum:Temp:Feuchte:Taupunkt:
Aussen-T/F 176 16-04-2006 05:19:02 11.2 C 79 % 7.7 C
177 16-04-2006 05:29:02 11 C 80 % 7.69 C
178 16-04-2006 05:39:03 11.1 C 80 % 7.79 C
179 16-04-2006 05:49:01 11.1 C 79 % 7.6 C
180 16-04-2006 05:59:02 11.4 C 77 % 7.52 C
181 16-04-2006 06:09:01 11.3 C 76 % 7.23 C
182 16-04-2006 06:19:01 11.1 C 76 % 7.04 C
183 16-04-2006 06:29:01 11.2 C 74 % 6.74 C
184 16-04-2006 06:39:02 11.3 C 73 % 6.64 C
185 16-04-2006 06:49:02 11.3 C 73 % 6.64 C
186 16-04-2006 06:59:02 11.4 C 72 % 6.54 C
187 16-04-2006 07:09:02 11.4 C 70 % 6.13 C
188 16-04-2006 07:19:02 11.4 C 70 % 6.13 C
189 16-04-2006 07:29:02 11.4 C 70 % 6.13 C
190 16-04-2006 07:39:02 11.4 C 70 % 6.13 C
191 16-04-2006 07:49:02 11.4 C 71 % 6.34 C
192 16-04-2006 07:59:02 11.4 C 70 % 6.13 C
193 16-04-2006 08:09:02 11.4 C 70 % 6.13 C
194 16-04-2006 08:19:02 11.5 C 70 % 6.23 C
195 16-04-2006 08:29:02 11.5 C 71 % 6.43 C
196 16-04-2006 08:39:02 11.5 C 70 % 6.23 C
197 16-04-2006 08:49:02 11.4 C 70 % 6.13 C
198 16-04-2006 08:59:02 11.2 C 72 % 6.35 C
199 16-04-2006 09:09:02 10.9 C 76 % 6.84 C
200 16-04-2006 09:19:02 10.9 C 75 % 6.65 C
Sensor: Nr:Datum:Temp:Feuchte:Taupunkt:
Aussen-T/F 201 16-04-2006 09:29:02 11.1 C 74 % 6.65 C
202 16-04-2006 09:39:02 11.1 C 74 % 6.65 C
203 16-04-2006 09:49:03 11.1 C 73 % 6.45 C
204 16-04-2006 09:59:03 11.4 C 71 % 6.34 C
205 16-04-2006 10:09:03 11.5 C 70 % 6.23 C
206 16-04-2006 10:19:02 11.6 C 70 % 6.32 C
207 16-04-2006 10:29:02 11.7 C 69 % 6.21 C
208 16-04-2006 10:39:02 11.7 C 69 % 6.21 C
209 16-04-2006 10:49:02 11.7 C 70 % 6.42 C
210 16-04-2006 10:59:02 11.7 C 69 % 6.21 C
211 16-04-2006 11:09:01 11.8 C 69 % 6.31 C
212 16-04-2006 11:19:02 11.7 C 70 % 6.42 C
213 16-04-2006 11:29:02 11.7 C 70 % 6.42 C
214 16-04-2006 11:39:03 11.4 C 73 % 6.74 C
215 16-04-2006 11:49:03 11.3 C 73 % 6.64 C
216 16-04-2006 11:59:03 11.4 C 73 % 6.74 C
217 16-04-2006 12:09:02 11.3 C 74 % 6.84 C
218 16-04-2006 12:19:02 11.3 C 74 % 6.84 C
219 16-04-2006 12:29:02 11.4 C 74 % 6.94 C
220 16-04-2006 12:39:01 11.5 C 73 % 6.84 C
221 16-04-2006 12:49:01 11.6 C 72 % 6.73 C
222 16-04-2006 12:59:01 11.5 C 72 % 6.63 C
223 16-04-2006 13:09:02 11.5 C 72 % 6.63 C
224 16-04-2006 13:19:02 11.7 C 71 % 6.62 C
225 16-04-2006 13:29:02 11.7 C 71 % 6.62 C
Sensor: Nr:Datum:Temp:Feuchte:Taupunkt:
Aussen-T/F 226 16-04-2006 13:39:02 11.8 C 70 % 6.51 C
227 16-04-2006 13:49:02 12.1 C 68 % 6.38 C
228 16-04-2006 13:59:02 12.2 C 67 % 6.26 C
229 16-04-2006 14:09:02 12.5 C 67 % 6.55 C
230 16-04-2006 14:19:02 13 C 65 % 6.58 C
231 16-04-2006 14:29:03 13.8 C 60 % 6.18 C
232 16-04-2006 14:39:01 13.5 C 61 % 6.14 C
233 16-04-2006 14:49:02 13.7 C 58 % 5.6 C
234 16-04-2006 14:59:02 13.9 C 54 % 4.76 C
235 16-04-2006 15:09:02 14.4 C 53 % 4.95 C
236 16-04-2006 15:19:02 14.8 C 51 % 4.77 C
237 16-04-2006 15:29:02 14.6 C 48 % 3.73 C
238 16-04-2006 15:39:02 14 C 51 % 4.04 C
239 16-04-2006 15:49:03 13.9 C 51 % 3.94 C
240 16-04-2006 15:59:03 14 C 49 % 3.47 C
241 16-04-2006 16:09:02 14.1 C 49 % 3.56 C
242 16-04-2006 16:19:02 13.9 C 51 % 3.94 C
243 16-04-2006 16:29:03 14 C 49 % 3.47 C
244 16-04-2006 16:39:02 13.8 C 52 % 4.13 C
245 16-04-2006 16:49:01 13.7 C 53 % 4.31 C
246 16-04-2006 16:59:01 13.9 C 52 % 4.22 C
247 16-04-2006 17:09:01 14 C 52 % 4.31 C
248 16-04-2006 17:19:01 14.2 C 50 % 3.94 C
249 16-04-2006 17:29:01 14.4 C 50 % 4.12 C
250 16-04-2006 17:39:02 14.6 C 48 % 3.73 C
Sensor: Nr:Datum:Temp:Feuchte:Taupunkt:
Aussen-T/F 251 16-04-2006 17:49:02 14.6 C 48 % 3.73 C
252 16-04-2006 17:59:02 14.6 C 48 % 3.73 C
253 16-04-2006 18:09:02 14.5 C 49 % 3.93 C
254 16-04-2006 18:19:02 14.7 C 49 % 4.11 C
255 16-04-2006 18:29:02 14.6 C 50 % 4.31 C
256 16-04-2006 18:39:03 14.5 C 51 % 4.5 C
257 16-04-2006 18:49:02 14.3 C 51 % 4.31 C
258 16-04-2006 18:59:02 14.2 C 51 % 4.22 C
259 16-04-2006 19:09:02 14.1 C 52 % 4.4 C
260 16-04-2006 19:19:02 14 C 52 % 4.31 C
261 16-04-2006 19:29:02 14 C 51 % 4.04 C
262 16-04-2006 19:39:02 13.9 C 54 % 4.76 C
263 16-04-2006 19:49:02 13.7 C 55 % 4.83 C
264 16-04-2006 19:59:02 13.6 C 57 % 5.25 C
265 16-04-2006 20:09:02 13.5 C 58 % 5.41 C
266 16-04-2006 20:19:02 13.3 C 59 % 5.47 C
267 16-04-2006 20:29:02 13.2 C 59 % 5.37 C
268 16-04-2006 20:39:03 13.1 C 60 % 5.52 C
269 16-04-2006 20:49:02 13 C 61 % 5.66 C
270 16-04-2006 20:59:03 12.9 C 63 % 6.04 C
271 16-04-2006 21:09:02 12.8 C 62 % 5.71 C
272 16-04-2006 21:19:02 12.8 C 61 % 5.48 C
273 16-04-2006 21:29:02 12.8 C 61 % 5.48 C
274 16-04-2006 21:39:02 12.6 C 62 % 5.52 C
275 16-04-2006 21:49:03 12.6 C 63 % 5.75 C
Sensor: Nr:Datum:Temp:Feuchte:Taupunkt:
Aussen-T/F 276 16-04-2006 21:59:03 12.5 C 63 % 5.66 C
277 16-04-2006 22:09:02 12.5 C 63 % 5.66 C
278 16-04-2006 22:19:02 12.5 C 63 % 5.66 C
279 16-04-2006 22:29:02 12.4 C 64 % 5.79 C
280 16-04-2006 22:39:02 12.3 C 65 % 5.92 C
281 16-04-2006 22:49:02 12.1 C 66 % 5.95 C
282 16-04-2006 22:59:02 12.1 C 66 % 5.95 C
283 16-04-2006 23:09:02 12.1 C 66 % 5.95 C
284 16-04-2006 23:19:01 12.1 C 66 % 5.95 C
285 16-04-2006 23:29:01 11.9 C 67 % 5.98 C
286 16-04-2006 23:39:01 11.9 C 67 % 5.98 C
287 16-04-2006 23:49:02 11.8 C 68 % 6.09 C
288 16-04-2006 23:59:02 11.7 C 68 % 6 C
289 17-04-2006 00:09:01 11.7 C 69 % 6.21 C
290 17-04-2006 00:19:03 11.5 C 69 % 6.02 C
291 17-04-2006 00:29:03 11.4 C 70 % 6.13 C
292 17-04-2006 00:39:02 11.4 C 70 % 6.13 C
293 17-04-2006 00:49:02 11.3 C 70 % 6.03 C
294 17-04-2006 00:59:02 11.3 C 70 % 6.03 C
295 17-04-2006 01:09:01 11.3 C 70 % 6.03 C
296 17-04-2006 01:19:02 11.2 C 70 % 5.94 C
297 17-04-2006 01:29:02 11.2 C 71 % 6.14 C
298 17-04-2006 01:39:02 11.1 C 71 % 6.05 C
299 17-04-2006 01:49:01 11.1 C 71 % 6.05 C
300 17-04-2006 01:59:01 11.1 C 71 % 6.05 C
Sensor: Nr:Datum:Temp:Feuchte:Taupunkt:
Aussen-T/F 301 17-04-2006 02:09:01 11.1 C 71 % 6.05 C
302 17-04-2006 02:19:01 11 C 73 % 6.35 C
303 17-04-2006 02:29:01 10.8 C 75 % 6.55 C
304 17-04-2006 02:39:02 10.8 C 76 % 6.75 C
305 17-04-2006 02:50:03 10.7 C 78 % 7.03 C
306 17-04-2006 03:00:03 10.6 C 79 % 7.11 C
307 17-04-2006 03:10:03 10.6 C 79 % 7.11 C
308 17-04-2006 03:20:03 10.5 C 80 % 7.2 C
309 17-04-2006 03:30:03 10.5 C 81 % 7.38 C
310 17-04-2006 03:40:01 10.5 C 81 % 7.38 C
311 17-04-2006 03:50:01 10.5 C 82 % 7.56 C
312 17-04-2006 04:00:01 10.5 C 82 % 7.56 C
313 17-04-2006 04:10:02 10.5 C 82 % 7.56 C
314 17-04-2006 04:20:02 10.6 C 81 % 7.48 C
315 17-04-2006 04:30:02 10.6 C 81 % 7.48 C
316 17-04-2006 04:40:02 10.5 C 80 % 7.2 C
317 17-04-2006 04:50:01 10.6 C 77 % 6.74 C
318 17-04-2006 05:00:01 10.7 C 76 % 6.65 C
319 17-04-2006 05:10:02 10.5 C 76 % 6.45 C
320 17-04-2006 05:20:02 10.4 C 76 % 6.36 C
321 17-04-2006 05:30:02 10.3 C 77 % 6.45 C
322 17-04-2006 05:40:01 10 C 77 % 6.16 C
323 17-04-2006 05:50:02 9.9 C 78 % 6.25 C
324 17-04-2006 06:00:02 10 C 77 % 6.16 C
325 17-04-2006 06:10:02 9.9 C 79 % 6.43 C
Sensor: Nr:Datum:Temp:Feuchte:Taupunkt:
Aussen-T/F 326 17-04-2006 06:20:02 9.8 C 79 % 6.34 C
327 17-04-2006 06:30:02 9.6 C 79 % 6.14 C
328 17-04-2006 06:40:03 9.5 C 80 % 6.23 C
329 17-04-2006 06:50:02 9.7 C 80 % 6.42 C
330 17-04-2006 07:00:02 9.7 C 79 % 6.24 C
331 17-04-2006 07:10:02 9.7 C 79 % 6.24 C
332 17-04-2006 07:20:02 10 C 77 % 6.16 C
333 17-04-2006 07:30:02 10.2 C 75 % 5.97 C
334 17-04-2006 07:40:02 10.4 C 73 % 5.78 C
335 17-04-2006 07:50:02 10.5 C 72 % 5.67 C
336 17-04-2006 08:00:02 10.5 C 72 % 5.67 C
337 17-04-2006 08:10:02 10.6 C 71 % 5.57 C
338 17-04-2006 08:20:02 10.6 C 71 % 5.57 C
339 17-04-2006 08:30:02 10.6 C 72 % 5.77 C
340 17-04-2006 08:40:02 10.6 C 72 % 5.77 C
341 17-04-2006 08:50:02 10.7 C 71 % 5.66 C
342 17-04-2006 09:00:02 11 C 70 % 5.75 C
343 17-04-2006 09:10:03 11.1 C 69 % 5.64 C
344 17-04-2006 09:20:02 11.3 C 68 % 5.62 C
345 17-04-2006 09:30:03 11.7 C 67 % 5.78 C
346 17-04-2006 09:40:03 11.9 C 65 % 5.54 C
347 17-04-2006 09:50:03 12.3 C 64 % 5.69 C
348 17-04-2006 10:00:03 12.5 C 62 % 5.43 C
349 17-04-2006 10:10:10 12.8 C 62 % 5.71 C
350 17-04-2006 10:20:02 13 C 59 % 5.19 C
Sensor: Nr:Datum:Temp:Feuchte:Taupunkt:
Aussen-T/F 351 17-04-2006 10:30:03 13 C 58 % 4.94 C
352 17-04-2006 10:40:03 13.4 C 56 % 4.81 C
353 17-04-2006 10:50:03 13.6 C 55 % 4.74 C
354 17-04-2006 11:00:03 13.9 C 53 % 4.49 C
355 17-04-2006 11:10:03 14.2 C 52 % 4.5 C
356 17-04-2006 11:20:03 14.3 C 51 % 4.31 C
357 17-04-2006 11:30:03 14.3 C 50 % 4.03 C
358 17-04-2006 11:40:03 14.5 C 49 % 3.93 C
359 17-04-2006 11:50:02 14.6 C 49 % 4.02 C
360 17-04-2006 12:00:02 14.9 C 48 % 4 C
361 17-04-2006 12:10:03 15 C 45 % 3.18 C
362 17-04-2006 12:20:03 14.9 C 47 % 3.7 C
363 17-04-2006 12:30:03 15.2 C 43 % 2.72 C
364 17-04-2006 12:40:02 15.3 C 41 % 2.14 C
365 17-04-2006 12:50:02 15.9 C 40 % 2.33 C
366 17-04-2006 13:00:02 16.4 C 38 % 2.06 C
367 17-04-2006 13:16:31 16 C 38 % 1.71 C
368 17-04-2006 13:19:57 15.6 C 40 % 2.06 C
369 17-04-2006 13:27:02 14.8 C 57 % 6.37 C
370 17-04-2006 13:34:02 14.8 C 57 % 6.37 C
371 17-04-2006 13:39:02 13.7 C 63 % 6.79 C
372 17-04-2006 13:44:02 12.8 C 71 % 7.68 C
373 17-04-2006 13:56:01 13 C 77 % 9.07 C
374 17-04-2006 14:06:02 12.7 C 78 % 8.97 C
375 17-04-2006 14:16:02 12.5 C 79 % 8.96 C
Sensor: Nr:Datum:Temp:Feuchte:Taupunkt:
Aussen-T/F 376 17-04-2006 14:26:02 12.8 C 80 % 9.44 C
377 17-04-2006 14:36:02 13.2 C 77 % 9.26 C
378 17-04-2006 14:46:01 13.7 C 77 % 9.75 C
379 17-04-2006 14:56:01 14.7 C 72 % 9.71 C
380 17-04-2006 15:06:02 15.2 C 63 % 8.21 C
381 17-04-2006 15:16:02 15 C 64 % 8.25 C
382 17-04-2006 15:26:02 14 C 63 % 7.08 C
383 17-04-2006 15:36:02 12.2 C 72 % 7.31 C
384 17-04-2006 15:46:02 11.3 C 79 % 7.8 C
385 17-04-2006 15:56:03 11 C 80 % 7.69 C
386 17-04-2006 16:06:03 11.3 C 83 % 8.52 C
387 17-04-2006 16:16:03 11.5 C 84 % 8.89 C
388 17-04-2006 16:26:03 11.9 C 83 % 9.11 C
389 17-04-2006 16:36:02 12.1 C 82 % 9.12 C
390 17-04-2006 16:46:02 11.9 C 82 % 8.93 C
391 17-04-2006 16:56:02 11.5 C 81 % 8.36 C
392 17-04-2006 17:06:02 11.3 C 82 % 8.34 C
393 17-04-2006 17:16:02 11.1 C 83 % 8.33 C
394 17-04-2006 17:26:02 11.4 C 85 % 8.97 C
395 17-04-2006 17:36:02 11.4 C 84 % 8.8 C
396 17-04-2006 17:46:02 11.4 C 84 % 8.8 C
397 17-04-2006 17:56:02 12.4 C 82 % 9.42 C
398 17-04-2006 18:06:02 12.4 C 77 % 8.49 C
399 17-04-2006 18:16:02 12.7 C 74 % 8.19 C
400 17-04-2006 18:26:02 13.1 C 70 % 7.76 C
Sensor: Nr:Datum:Temp:Feuchte:Taupunkt:
Aussen-T/F 401 17-04-2006 18:36:02 13.5 C 67 % 7.5 C
402 17-04-2006 18:46:02 12.5 C 68 % 6.76 C
403 17-04-2006 18:56:02 11.8 C 73 % 7.12 C
404 17-04-2006 19:06:02 10.8 C 76 % 6.75 C
405 17-04-2006 19:16:03 10.6 C 79 % 7.11 C
406 17-04-2006 19:26:03 10.7 C 82 % 7.76 C
407 17-04-2006 19:36:03 10.5 C 83 % 7.74 C
408 17-04-2006 19:46:02 10.5 C 84 % 7.91 C
409 17-04-2006 19:56:02 10.5 C 84 % 7.91 C
410 17-04-2006 20:06:03 10.5 C 84 % 7.91 C
411 17-04-2006 20:16:02 10.3 C 84 % 7.72 C
412 17-04-2006 20:26:02 10.2 C 85 % 7.79 C
413 17-04-2006 20:36:02 10.1 C 85 % 7.7 C
414 17-04-2006 20:46:02 9.9 C 86 % 7.67 C
415 17-04-2006 20:56:02 9.7 C 86 % 7.47 C
416 17-04-2006 21:06:02 9.2 C 86 % 6.98 C
417 17-04-2006 21:16:02 8.9 C 87 % 6.86 C
418 17-04-2006 21:26:02 8.9 C 88 % 7.02 C
419 17-04-2006 21:36:01 9 C 87 % 6.96 C
420 17-04-2006 21:46:02 9 C 87 % 6.96 C
421 17-04-2006 21:56:02 8.7 C 87 % 6.66 C
422 17-04-2006 22:06:01 8.6 C 87 % 6.56 C
423 17-04-2006 22:16:02 8.4 C 87 % 6.37 C
424 17-04-2006 22:26:02 8.2 C 87 % 6.17 C
425 17-04-2006 22:36:02 8.2 C 87 % 6.17 C
Sensor: Nr:Datum:Temp:Feuchte:Taupunkt:
Aussen-T/F 426 17-04-2006 22:46:02 8.3 C 88 % 6.43 C
427 17-04-2006 22:56:02 8.3 C 89 % 6.6 C
428 17-04-2006 23:06:02 8.3 C 89 % 6.6 C
429 17-04-2006 23:16:02 8.1 C 88 % 6.24 C
430 17-04-2006 23:26:02 8 C 89 % 6.3 C
431 17-04-2006 23:36:03 8.2 C 90 % 6.66 C
432 17-04-2006 23:46:02 8.2 C 90 % 6.66 C
433 17-04-2006 23:56:02 8.1 C 89 % 6.4 C
434 18-04-2006 00:06:02 8 C 89 % 6.3 C
435 18-04-2006 00:16:03 7.9 C 90 % 6.36 C
436 18-04-2006 00:26:03 7.9 C 91 % 6.52 C
437 18-04-2006 00:36:03 7.9 C 91 % 6.52 C
438 18-04-2006 00:46:01 7.8 C 91 % 6.43 C
439 18-04-2006 00:56:01 7.6 C 91 % 6.23 C
440 18-04-2006 01:06:02 7.6 C 91 % 6.23 C
441 18-04-2006 01:16:02 7.4 C 91 % 6.03 C
442 18-04-2006 01:26:02 7.4 C 91 % 6.03 C
443 18-04-2006 01:36:02 7.3 C 91 % 5.93 C
444 18-04-2006 01:46:02 6.9 C 92 % 5.69 C
445 18-04-2006 01:56:02 6.7 C 91 % 5.34 C
446 18-04-2006 02:06:02 6.5 C 91 % 5.14 C
447 18-04-2006 02:16:02 6.5 C 91 % 5.14 C
448 18-04-2006 02:26:03 6.4 C 91 % 5.04 C
449 18-04-2006 02:36:02 6.2 C 91 % 4.84 C
450 18-04-2006 02:47:04 6.1 C 91 % 4.74 C
Sensor: Nr:Datum:Temp:Feuchte:Taupunkt:
Aussen-T/F 451 18-04-2006 02:57:04 5.9 C 92 % 4.7 C
452 18-04-2006 03:07:04 5.7 C 91 % 4.35 C
453 18-04-2006 03:17:03 5.6 C 92 % 4.41 C
454 18-04-2006 03:27:03 5.5 C 91 % 4.15 C
455 18-04-2006 03:37:02 5.4 C 91 % 4.05 C
456 18-04-2006 03:47:02 5.3 C 91 % 3.95 C
457 18-04-2006 03:57:02 5.4 C 92 % 4.21 C
458 18-04-2006 04:07:01 5.4 C 92 % 4.21 C
459 18-04-2006 04:17:01 5.5 C 92 % 4.31 C
460 18-04-2006 04:27:01 5.4 C 92 % 4.21 C
461 18-04-2006 04:37:01 5.4 C 92 % 4.21 C
462 18-04-2006 04:47:02 5.4 C 92 % 4.21 C
463 18-04-2006 04:57:02 5.3 C 93 % 4.26 C
464 18-04-2006 05:07:02 5.2 C 92 % 4.01 C
465 18-04-2006 05:17:02 5.2 C 92 % 4.01 C
466 18-04-2006 05:27:02 5.2 C 93 % 4.16 C
467 18-04-2006 05:37:02 5.1 C 92 % 3.91 C
468 18-04-2006 05:47:02 5.1 C 92 % 3.91 C
469 18-04-2006 05:57:03 5.1 C 93 % 4.06 C
470 18-04-2006 06:07:02 5.2 C 93 % 4.16 C
471 18-04-2006 06:17:02 5.3 C 93 % 4.26 C
472 18-04-2006 06:27:02 5.5 C 94 % 4.61 C
473 18-04-2006 06:37:02 5.6 C 94 % 4.71 C
474 18-04-2006 06:47:02 5.3 C 94 % 4.41 C
475 18-04-2006 06:57:02 5.4 C 94 % 4.51 C
Sensor: Nr:Datum:Temp:Feuchte:Taupunkt:
Aussen-T/F 476 18-04-2006 07:07:02 5.5 C 94 % 4.61 C
477 18-04-2006 07:17:02 5.6 C 94 % 4.71 C
478 18-04-2006 07:27:02 5.7 C 94 % 4.81 C
479 18-04-2006 07:37:01 5.7 C 94 % 4.81 C
480 18-04-2006 07:47:02 5.7 C 94 % 4.81 C
481 18-04-2006 07:57:02 5.8 C 94 % 4.91 C
482 18-04-2006 08:07:02 5.7 C 94 % 4.81 C
483 18-04-2006 08:17:02 5.9 C 94 % 5.01 C
484 18-04-2006 08:27:02 5.7 C 93 % 4.66 C
485 18-04-2006 08:37:02 5.8 C 93 % 4.76 C
486 18-04-2006 08:47:02 6.1 C 92 % 4.9 C
487 18-04-2006 08:57:02 6.3 C 92 % 5.1 C
488 18-04-2006 09:07:02 6.6 C 92 % 5.4 C
489 18-04-2006 09:17:02 7 C 91 % 5.63 C
490 18-04-2006 09:27:02 7.4 C 90 % 5.87 C
491 18-04-2006 09:37:02 7.9 C 89 % 6.2 C
492 18-04-2006 09:47:02 8.1 C 84 % 5.56 C
493 18-04-2006 09:57:02 7.7 C 84 % 5.17 C
494 18-04-2006 10:07:02 7.9 C 85 % 5.54 C
495 18-04-2006 10:17:02 8.4 C 84 % 5.86 C
496 18-04-2006 10:27:02 8.8 C 83 % 6.08 C
497 18-04-2006 10:37:02 9.9 C 70 % 4.69 C
498 18-04-2006 10:47:02 10.6 C 59 % 2.93 C
499 18-04-2006 10:57:02 11 C 56 % 2.57 C
500 18-04-2006 11:07:02 11.3 C 50 % 1.27 C
Sensor: Nr:Datum:Temp:Feuchte:Taupunkt:
Aussen-T/F 501 18-04-2006 11:17:02 11.5 C 50 % 1.45 C
502 18-04-2006 11:27:02 11.9 C 48 % 1.25 C
503 18-04-2006 11:37:01 12.2 C 47 % 1.24 C
504 18-04-2006 11:47:02 12.2 C 47 % 1.24 C
505 18-04-2006 11:57:03 12.9 C 46 % 1.57 C
506 18-04-2006 12:07:02 13 C 45 % 1.36 C
507 18-04-2006 12:17:02 13.1 C 42 % 0.5 C
508 18-04-2006 12:27:02 13.5 C 43 % 1.18 C
509 18-04-2006 12:37:02 13.6 C 42 % 0.95 C
510 18-04-2006 12:47:02 13.9 C 37 % -0.53 C
511 18-04-2006 12:57:02 14.2 C 38 % 0.1 C
512 18-04-2006 13:07:02 14.7 C 39 % 0.91 C
513 18-04-2006 13:17:02 14.8 C 36 % -0.11 C
514 18-04-2006 13:27:02 15.5 C 35 % 0.12 C
515 18-04-2006 13:37:01 16.2 C 33 % -0.07 C
516 18-04-2006 13:47:02 16.4 C 30 % -1.2 C
517 18-04-2006 13:57:02 15.7 C 32 % -0.93 C
518 18-04-2006 14:07:02 15.1 C 32 % -1.45 C
519 18-04-2006 14:17:02 15 C 35 % -0.32 C
520 18-04-2006 14:27:02 14.8 C 35 % -0.49 C
521 18-04-2006 14:37:02 15.9 C 34 % 0.08 C
522 18-04-2006 14:47:02 16.1 C 30 % -1.46 C
523 18-04-2006 14:57:03 16.2 C 32 % -0.49 C
524 18-04-2006 15:07:02 15.6 C 34 % -0.19 C
525 18-04-2006 15:17:02 15.2 C 34 % -0.54 C
Sensor: Nr:Datum:Temp:Feuchte:Taupunkt:
Aussen-T/F 526 18-04-2006 15:27:02 14.9 C 36 % -0.02 C
527 18-04-2006 15:37:02 14.8 C 36 % -0.11 C
528 18-04-2006 15:47:02 14.7 C 36 % -0.2 C
529 18-04-2006 15:57:03 14.5 C 38 % 0.37 C
530 18-04-2006 16:07:02 14.1 C 37 % -0.35 C
531 18-04-2006 16:17:01 13.7 C 42 % 1.04 C
532 18-04-2006 16:27:01 14 C 42 % 1.31 C
533 18-04-2006 16:37:02 14.2 C 40 % 0.81 C
534 18-04-2006 16:47:02 14.5 C 39 % 0.73 C
535 18-04-2006 16:57:02 14.6 C 39 % 0.82 C
536 18-04-2006 17:07:02 15.3 C 39 % 1.44 C
537 18-04-2006 17:17:01 15.6 C 38 % 1.35 C
538 18-04-2006 17:27:01 15.6 C 37 % 0.98 C
539 18-04-2006 17:37:02 16.4 C 35 % 0.92 C
540 18-04-2006 17:47:02 16 C 36 % 0.95 C
541 18-04-2006 17:57:02 16.1 C 36 % 1.04 C
542 18-04-2006 18:07:01 15.9 C 36 % 0.87 C
543 18-04-2006 18:17:01 15.4 C 37 % 0.8 C
544 18-04-2006 18:27:01 14.9 C 38 % 0.73 C
545 18-04-2006 18:37:02 14.6 C 41 % 1.51 C
546 18-04-2006 18:47:02 14.6 C 41 % 1.51 C
547 18-04-2006 18:57:02 15 C 39 % 1.18 C
548 18-04-2006 19:07:02 15.2 C 37 % 0.62 C
549 18-04-2006 19:17:02 14.8 C 39 % 1 C
550 18-04-2006 19:27:02 14.6 C 40 % 1.17 C
Sensor: Nr:Datum:Temp:Feuchte:Taupunkt:
Aussen-T/F 551 18-04-2006 19:37:03 14.2 C 42 % 1.49 C
552 18-04-2006 19:47:02 14.1 C 43 % 1.72 C
553 18-04-2006 19:57:02 13.7 C 45 % 2 C
554 18-04-2006 20:07:02 13.7 C 47 % 2.61 C
555 18-04-2006 20:17:02 13.5 C 49 % 3.01 C
556 18-04-2006 20:27:02 13.3 C 51 % 3.39 C
557 18-04-2006 20:37:03 13.1 C 51 % 3.2 C
558 18-04-2006 20:47:02 12.9 C 51 % 3.02 C
559 18-04-2006 20:57:02 12.8 C 50 % 2.65 C
560 18-04-2006 21:07:02 12.8 C 48 % 2.08 C
561 18-04-2006 21:17:02 12.6 C 52 % 3.02 C
562 18-04-2006 21:27:03 12.4 C 51 % 2.56 C
563 18-04-2006 21:37:02 12.2 C 52 % 2.65 C
564 18-04-2006 21:47:02 12 C 54 % 2.99 C
565 18-04-2006 21:57:02 12 C 55 % 3.25 C
566 18-04-2006 22:07:02 11.6 C 57 % 3.38 C
567 18-04-2006 22:17:02 11.5 C 56 % 3.04 C
568 18-04-2006 22:27:03 11.3 C 54 % 2.34 C
569 18-04-2006 22:37:02 11.3 C 54 % 2.34 C
570 18-04-2006 22:47:02 11.2 C 54 % 2.25 C
571 18-04-2006 22:57:02 11 C 55 % 2.32 C
572 18-04-2006 23:07:02 10.6 C 56 % 2.2 C
573 18-04-2006 23:17:02 10.4 C 56 % 2.01 C
574 18-04-2006 23:27:02 9.9 C 59 % 2.27 C
575 18-04-2006 23:37:02 9.7 C 59 % 2.09 C
Sensor: Nr:Datum:Temp:Feuchte:Taupunkt:
Aussen-T/F 576 18-04-2006 23:47:01 9.7 C 59 % 2.09 C
577 18-04-2006 23:57:01 9.4 C 60 % 2.04 C
578 19-04-2006 00:07:01 9.2 C 60 % 1.85 C
579 19-04-2006 00:17:02 9 C 62 % 2.12 C
580 19-04-2006 00:27:02 8.9 C 61 % 1.8 C
581 19-04-2006 00:37:02 8.7 C 62 % 1.84 C
582 19-04-2006 00:47:02 8.4 C 64 % 2 C
583 19-04-2006 00:57:02 8.2 C 64 % 1.81 C
584 19-04-2006 01:07:02 8 C 66 % 2.05 C
585 19-04-2006 01:17:01 7.8 C 67 % 2.07 C
586 19-04-2006 01:27:01 7.6 C 69 % 2.29 C
587 19-04-2006 01:37:02 7.4 C 69 % 2.1 C
588 19-04-2006 01:47:02 7.2 C 70 % 2.11 C
589 19-04-2006 01:57:02 7.3 C 69 % 2 C
590 19-04-2006 02:07:02 7.6 C 68 % 2.08 C
591 19-04-2006 02:17:02 7.7 C 68 % 2.18 C
592 19-04-2006 02:27:02 7.8 C 67 % 2.07 C
593 19-04-2006 02:37:02 7.7 C 68 % 2.18 C
594 19-04-2006 02:48:03 7.5 C 68 % 1.99 C
595 19-04-2006 02:58:04 7.3 C 68 % 1.8 C
596 19-04-2006 03:08:04 7.2 C 69 % 1.9 C
597 19-04-2006 03:18:04 7 C 69 % 1.71 C
598 19-04-2006 03:28:04 6.9 C 69 % 1.62 C
599 19-04-2006 03:38:02 6.7 C 70 % 1.63 C
600 19-04-2006 03:48:02 6.5 C 70 % 1.43 C
Sensor: Nr:Datum:Temp:Feuchte:Taupunkt:
Aussen-T/F 601 19-04-2006 03:58:02 6.2 C 72 % 1.54 C
602 19-04-2006 04:08:02 6 C 73 % 1.54 C
603 19-04-2006 04:18:02 5.8 C 75 % 1.72 C
604 19-04-2006 04:28:02 5.7 C 75 % 1.62 C
605 19-04-2006 04:38:02 5.5 C 76 % 1.62 C
606 19-04-2006 04:48:02 5.3 C 77 % 1.6 C
607 19-04-2006 04:58:02 5.2 C 78 % 1.69 C
608 19-04-2006 05:08:02 5 C 78 % 1.49 C
609 19-04-2006 05:18:02 4.8 C 79 % 1.47 C
610 19-04-2006 05:28:02 4.8 C 80 % 1.65 C
611 19-04-2006 05:38:02 4.8 C 80 % 1.65 C
612 19-04-2006 05:48:02 4.7 C 81 % 1.73 C
613 19-04-2006 05:58:02 4.5 C 81 % 1.53 C
614 19-04-2006 06:08:01 4.3 C 81 % 1.34 C
615 19-04-2006 06:18:02 4.2 C 82 % 1.41 C
616 19-04-2006 06:28:02 4.1 C 82 % 1.31 C
617 19-04-2006 06:38:02 4.2 C 82 % 1.41 C
618 19-04-2006 06:48:01 4.2 C 83 % 1.58 C
619 19-04-2006 06:58:01 4.3 C 83 % 1.67 C
620 19-04-2006 07:08:02 4.3 C 83 % 1.67 C
621 19-04-2006 07:18:02 4.4 C 83 % 1.77 C
622 19-04-2006 07:28:02 4.6 C 83 % 1.97 C
623 19-04-2006 07:38:02 4.8 C 83 % 2.16 C
624 19-04-2006 07:48:02 5 C 82 % 2.19 C
625 19-04-2006 07:58:02 5.2 C 82 % 2.39 C
Sensor: Nr:Datum:Temp:Feuchte:Taupunkt:
Aussen-T/F 626 19-04-2006 08:08:02 5.3 C 81 % 2.31 C
627 19-04-2006 08:18:02 5.6 C 78 % 2.07 C
628 19-04-2006 08:28:02 5.7 C 76 % 1.81 C
629 19-04-2006 08:38:02 5.8 C 75 % 1.72 C
630 19-04-2006 08:48:02 5.9 C 75 % 1.82 C
631 19-04-2006 08:58:02 6.1 C 74 % 1.82 C
632 19-04-2006 09:08:02 6.5 C 73 % 2.02 C
633 19-04-2006 09:18:02 6.9 C 72 % 2.21 C
634 19-04-2006 09:28:02 7.3 C 70 % 2.2 C
635 19-04-2006 09:38:02 7.9 C 68 % 2.37 C
636 19-04-2006 09:48:02 8.2 C 65 % 2.02 C
637 19-04-2006 09:58:02 8.8 C 63 % 2.16 C
638 19-04-2006 10:08:02 9.4 C 62 % 2.5 C
639 19-04-2006 10:18:02 9.7 C 60 % 2.32 C
640 19-04-2006 10:28:02 10.2 C 58 % 2.32 C
641 19-04-2006 10:38:03 10.4 C 57 % 2.26 C
642 19-04-2006 10:48:02 10.7 C 56 % 2.29 C
643 19-04-2006 10:58:02 11.5 C 52 % 2 C
644 19-04-2006 11:08:02 12 C 50 % 1.91 C
645 19-04-2006 11:18:02 12.8 C 45 % 1.18 C
646 19-04-2006 11:28:02 12.9 C 41 % -0.02 C
647 19-04-2006 11:38:02 12.8 C 42 % 0.22 C
648 19-04-2006 11:48:02 13.2 C 40 % -0.09 C
649 19-04-2006 11:58:02 13.1 C 39 % -0.52 C
650 19-04-2006 12:08:02 13.7 C 37 % -0.71 C
Sensor: Nr:Datum:Temp:Feuchte:Taupunkt:
Aussen-T/F 651 19-04-2006 12:18:02 13.9 C 36 % -0.9 C
652 19-04-2006 12:28:02 14 C 35 % -1.2 C
653 19-04-2006 12:38:02 14.1 C 35 % -1.11 C
654 19-04-2006 12:48:03 13.8 C 36 % -0.99 C
655 19-04-2006 12:58:03 14.6 C 33 % -1.47 C
656 19-04-2006 13:08:02 14.3 C 31 % -2.58 C
657 19-04-2006 13:18:02 14.9 C 31 % -2.06 C
658 19-04-2006 13:28:02 14.9 C 32 % -1.63 C
659 19-04-2006 13:38:02 15 C 31 % -1.97 C
660 19-04-2006 13:48:02 15.4 C 32 % -1.19 C
661 19-04-2006 13:58:02 15.5 C 33 % -0.68 C
662 19-04-2006 14:08:01 16.2 C 33 % -0.07 C
663 19-04-2006 14:18:01 16.2 C 30 % -1.37 C
664 19-04-2006 14:28:01 16.6 C 31 % -0.58 C
665 19-04-2006 14:38:01 16.6 C 30 % -1.02 C
666 19-04-2006 14:48:02 16.9 C 32 % 0.12 C
667 19-04-2006 14:58:03 16.8 C 30 % -0.85 C
668 19-04-2006 15:08:01 17.2 C 30 % -0.51 C
669 19-04-2006 15:18:01 16.9 C 31 % -0.32 C
670 19-04-2006 15:28:01 16.6 C 31 % -0.58 C
671 19-04-2006 15:38:02 16.9 C 30 % -0.76 C
672 19-04-2006 15:48:02 17.4 C 29 % -0.8 C
673 19-04-2006 15:58:03 17.2 C 30 % -0.51 C
674 19-04-2006 16:08:01 17 C 29 % -1.14 C
675 19-04-2006 16:18:01 17.4 C 29 % -0.8 C
Sensor: Nr:Datum:Temp:Feuchte:Taupunkt:
Aussen-T/F 676 19-04-2006 16:28:01 17.8 C 31 % 0.47 C
677 19-04-2006 16:38:02 17.7 C 28 % -1.02 C
678 19-04-2006 16:48:02 18.6 C 27 % -0.74 C
679 19-04-2006 16:58:03 19.4 C 26 % -0.57 C
680 19-04-2006 17:08:02 18.8 C 27 % -0.57 C
681 19-04-2006 17:18:02 18.8 C 28 % -0.07 C
682 19-04-2006 17:28:02 19.8 C 26 % -0.23 C
683 19-04-2006 17:38:03 19.7 C 25 % -0.86 C
684 19-04-2006 17:48:02 18.6 C 27 % -0.74 C
685 19-04-2006 17:58:02 18.4 C 27 % -0.91 C
686 19-04-2006 18:08:02 18.6 C 27 % -0.74 C
687 19-04-2006 18:18:02 18.3 C 27 % -1 C
688 19-04-2006 18:28:02 17.9 C 27 % -1.34 C
689 19-04-2006 18:38:02 17.3 C 30 % -0.42 C
690 19-04-2006 18:48:02 17.5 C 30 % -0.25 C
691 19-04-2006 18:58:02 16.8 C 30 % -0.85 C
692 19-04-2006 19:08:02 17 C 30 % -0.68 C
693 19-04-2006 19:18:02 17 C 30 % -0.68 C
694 19-04-2006 19:28:02 16.7 C 32 % -0.06 C
695 19-04-2006 19:38:03 16.4 C 32 % -0.32 C
696 19-04-2006 19:48:02 16.1 C 35 % 0.65 C
697 19-04-2006 19:58:02 15.9 C 36 % 0.87 C
698 19-04-2006 20:08:02 15.7 C 38 % 1.44 C
699 19-04-2006 20:18:02 15.2 C 40 % 1.71 C
700 19-04-2006 20:28:02 14.7 C 42 % 1.94 C
Sensor: Nr:Datum:Temp:Feuchte:Taupunkt:
Aussen-T/F 701 19-04-2006 20:38:03 14.3 C 42 % 1.58 C
702 19-04-2006 20:48:02 13.6 C 44 % 1.59 C
703 19-04-2006 20:58:02 13.4 C 46 % 2.03 C
704 19-04-2006 21:08:02 13.1 C 49 % 2.64 C
705 19-04-2006 21:18:02 12.8 C 51 % 2.93 C
706 19-04-2006 21:28:02 12.7 C 50 % 2.56 C
707 19-04-2006 21:38:02 12.4 C 53 % 3.1 C
708 19-04-2006 21:48:02 12.3 C 52 % 2.74 C
709 19-04-2006 21:58:02 12 C 51 % 2.19 C
710 19-04-2006 22:08:01 12 C 51 % 2.19 C
711 19-04-2006 22:18:01 11.4 C 54 % 2.44 C
712 19-04-2006 22:28:01 11.1 C 57 % 2.92 C
713 19-04-2006 22:38:01 11 C 56 % 2.57 C
714 19-04-2006 22:48:02 10.8 C 57 % 2.63 C
715 19-04-2006 22:58:02 10.7 C 58 % 2.79 C
716 19-04-2006 23:08:01 10.5 C 59 % 2.84 C
717 19-04-2006 23:18:01 10.2 C 59 % 2.56 C
718 19-04-2006 23:28:01 10.1 C 59 % 2.46 C
719 19-04-2006 23:38:02 9.8 C 61 % 2.65 C
720 19-04-2006 23:48:02 9.7 C 62 % 2.78 C
721 19-04-2006 23:58:02 9.5 C 62 % 2.59 C
722 20-04-2006 00:08:02 9.3 C 63 % 2.63 C
723 20-04-2006 00:18:02 9 C 64 % 2.57 C
724 20-04-2006 00:28:02 8.9 C 65 % 2.69 C
725 20-04-2006 00:38:02 8.6 C 67 % 2.83 C
Sensor: Nr:Datum:Temp:Feuchte:Taupunkt:
Aussen-T/F 726 20-04-2006 00:48:02 8.5 C 67 % 2.73 C
727 20-04-2006 00:58:02 8.3 C 67 % 2.54 C
728 20-04-2006 01:08:02 8.2 C 68 % 2.66 C
729 20-04-2006 01:18:02 8 C 68 % 2.47 C
730 20-04-2006 01:28:03 8 C 69 % 2.67 C
731 20-04-2006 01:38:02 7.8 C 70 % 2.68 C
732 20-04-2006 01:48:02 7.7 C 70 % 2.58 C
733 20-04-2006 01:58:03 7.6 C 71 % 2.69 C
734 20-04-2006 02:08:02 7.5 C 71 % 2.59 C
735 20-04-2006 02:18:02 7.4 C 71 % 2.5 C
736 20-04-2006 02:28:02 7.3 C 71 % 2.4 C
737 20-04-2006 02:38:01 7.1 C 72 % 2.4 C
738 20-04-2006 02:49:03 6.7 C 74 % 2.4 C
739 20-04-2006 02:59:03 6.5 C 75 % 2.4 C
740 20-04-2006 03:09:03 6.4 C 76 % 2.49 C
741 20-04-2006 03:19:04 6.3 C 76 % 2.39 C
742 20-04-2006 03:29:04 6.2 C 77 % 2.48 C
743 20-04-2006 03:39:02 6.1 C 76 % 2.2 C
744 20-04-2006 03:49:02 6 C 78 % 2.46 C
745 20-04-2006 03:59:02 5.9 C 79 % 2.54 C
746 20-04-2006 04:09:03 5.8 C 79 % 2.45 C
747 20-04-2006 04:19:03 5.8 C 79 % 2.45 C
748 20-04-2006 04:29:03 5.7 C 79 % 2.35 C
749 20-04-2006 04:39:03 5.4 C 79 % 2.06 C
750 20-04-2006 04:49:03 5.4 C 80 % 2.23 C
Sensor: Nr:Datum:Temp:Feuchte:Taupunkt:
Aussen-T/F 751 20-04-2006 04:59:03 5.2 C 80 % 2.04 C
752 20-04-2006 05:09:02 5.1 C 81 % 2.12 C
753 20-04-2006 05:19:02 5 C 82 % 2.19 C
754 20-04-2006 05:29:02 4.9 C 83 % 2.26 C
755 20-04-2006 05:39:02 4.8 C 83 % 2.16 C
756 20-04-2006 05:49:02 4.7 C 83 % 2.07 C
757 20-04-2006 05:59:02 4.4 C 84 % 1.94 C
758 20-04-2006 06:09:03 4.4 C 84 % 1.94 C
759 20-04-2006 06:19:02 4.3 C 84 % 1.84 C
760 20-04-2006 06:29:02 4.2 C 84 % 1.74 C
761 20-04-2006 06:39:02 4.3 C 85 % 2.01 C
762 20-04-2006 06:49:02 4.3 C 85 % 2.01 C
763 20-04-2006 06:59:02 4.4 C 85 % 2.11 C
764 20-04-2006 07:09:02 4.7 C 85 % 2.4 C
765 20-04-2006 07:19:02 4.8 C 84 % 2.33 C
766 20-04-2006 07:29:02 4.7 C 83 % 2.07 C
767 20-04-2006 07:39:01 5.1 C 82 % 2.29 C
768 20-04-2006 07:49:02 5.3 C 82 % 2.48 C
769 20-04-2006 07:59:02 5.7 C 80 % 2.53 C
770 20-04-2006 08:09:02 5.9 C 79 % 2.54 C
771 20-04-2006 08:19:02 5.7 C 79 % 2.35 C
772 20-04-2006 08:29:02 5.9 C 79 % 2.54 C
773 20-04-2006 08:39:02 6.2 C 78 % 2.66 C
774 20-04-2006 08:49:02 6.4 C 77 % 2.67 C
775 20-04-2006 08:59:02 6.7 C 76 % 2.78 C
Sensor: Nr:Datum:Temp:Feuchte:Taupunkt:
Aussen-T/F 776 20-04-2006 09:09:02 6.8 C 76 % 2.87 C
777 20-04-2006 09:19:02 7.1 C 74 % 2.79 C
778 20-04-2006 09:29:02 7.5 C 72 % 2.79 C
779 20-04-2006 09:39:02 7.9 C 72 % 3.17 C
780 20-04-2006 09:49:02 8.3 C 70 % 3.16 C
781 20-04-2006 09:59:02 8.7 C 68 % 3.13 C
782 20-04-2006 10:09:02 9.2 C 67 % 3.4 C
783 20-04-2006 10:19:02 9.9 C 63 % 3.2 C
784 20-04-2006 10:29:02 10.4 C 62 % 3.44 C
785 20-04-2006 10:39:03 11 C 59 % 3.31 C
786 20-04-2006 10:49:02 11.5 C 59 % 3.78 C
787 20-04-2006 10:59:02 12.1 C 57 % 3.85 C
788 20-04-2006 11:09:02 12.7 C 56 % 4.16 C
789 20-04-2006 11:19:02 13.2 C 53 % 3.84 C
790 20-04-2006 11:29:02 13.9 C 51 % 3.94 C
791 20-04-2006 11:39:03 14.1 C 48 % 3.27 C
792 20-04-2006 11:49:02 14.8 C 47 % 3.61 C
793 20-04-2006 11:59:02 15.4 C 44 % 3.22 C
794 20-04-2006 12:09:02 15.7 C 40 % 2.15 C
795 20-04-2006 12:19:02 15.8 C 37 % 1.16 C
796 20-04-2006 12:29:02 15.9 C 34 % 0.08 C
797 20-04-2006 12:39:02 16.1 C 31 % -1.01 C
798 20-04-2006 12:49:02 16.2 C 30 % -1.37 C
799 20-04-2006 12:59:02 16.5 C 29 % -1.57 C
800 20-04-2006 13:09:02 16.4 C 30 % -1.2 C
Sensor: Nr:Datum:Temp:Feuchte:Taupunkt:
Aussen-T/F 801 20-04-2006 13:19:02 16.7 C 36 % 1.57 C
802 20-04-2006 13:29:02 17.2 C 34 % 1.22 C
803 20-04-2006 13:39:01 17.6 C 33 % 1.16 C
804 20-04-2006 13:49:02 18 C 33 % 1.51 C
805 20-04-2006 13:59:02 18 C 33 % 1.51 C
806 20-04-2006 14:09:02 18.7 C 32 % 1.69 C
807 20-04-2006 14:19:01 19.3 C 30 % 1.31 C
808 20-04-2006 14:29:01 19.3 C 30 % 1.31 C
809 20-04-2006 14:39:02 19.7 C 29 % 1.19 C
810 20-04-2006 14:49:02 19.8 C 29 % 1.27 C
811 20-04-2006 14:59:02 20.7 C 28 % 1.56 C
812 20-04-2006 15:09:02 20.4 C 28 % 1.3 C
813 20-04-2006 15:19:01 20.4 C 27 % 0.8 C
814 20-04-2006 15:29:01 20.2 C 27 % 0.63 C
815 20-04-2006 15:39:02 20.1 C 28 % 1.04 C
816 20-04-2006 15:49:02 19.7 C 25 % -0.86 C
817 20-04-2006 15:59:02 19.9 C 25 % -0.69 C
818 20-04-2006 16:09:02 19.3 C 25 % -1.19 C
819 20-04-2006 16:19:01 19 C 26 % -0.92 C
820 20-04-2006 16:29:01 19.1 C 26 % -0.83 C
821 20-04-2006 16:39:02 19.5 C 25 % -1.03 C
822 20-04-2006 16:49:02 19.4 C 25 % -1.11 C
823 20-04-2006 16:59:02 20.8 C 25 % 0.07 C
824 20-04-2006 17:09:02 20.9 C 23 % -0.98 C
825 20-04-2006 17:19:02 20.9 C 22 % -1.59 C
Sensor: Nr:Datum:Temp:Feuchte:Taupunkt:
Aussen-T/F 826 20-04-2006 17:29:03 21.1 C 21 % -2.05 C
827 20-04-2006 17:39:02 20.5 C 22 % -1.92 C
828 20-04-2006 17:49:02 21.1 C 21 % -2.05 C
829 20-04-2006 17:59:02 20.6 C 22 % -1.84 C
830 20-04-2006 18:09:01 20.3 C 23 % -1.49 C
831 20-04-2006 18:19:01 20.2 C 23 % -1.57 C
832 20-04-2006 18:29:01 19.9 C 24 % -1.24 C
833 20-04-2006 18:39:01 19.9 C 25 % -0.69 C
834 20-04-2006 18:49:02 19.6 C 25 % -0.94 C
835 20-04-2006 18:59:02 18.9 C 27 % -0.48 C
836 20-04-2006 19:09:01 18.9 C 27 % -0.48 C
837 20-04-2006 19:19:01 18.7 C 27 % -0.66 C
838 20-04-2006 19:29:01 18.7 C 30 % 0.79 C
839 20-04-2006 19:39:02 18.1 C 35 % 2.42 C
840 20-04-2006 19:49:02 17.7 C 36 % 2.46 C
841 20-04-2006 19:59:02 17.2 C 35 % 1.62 C
842 20-04-2006 20:09:02 16.5 C 36 % 1.4 C
843 20-04-2006 20:19:01 15.9 C 37 % 1.25 C
844 20-04-2006 20:29:01 15.2 C 38 % 0.99 C
845 20-04-2006 20:39:01 14.9 C 42 % 2.12 C
846 20-04-2006 20:49:02 14.4 C 42 % 1.67 C
847 20-04-2006 20:59:03 14.2 C 44 % 2.14 C
848 20-04-2006 21:09:02 14 C 45 % 2.27 C
849 20-04-2006 21:19:01 13.7 C 46 % 2.3 C
850 20-04-2006 21:29:01 13.5 C 47 % 2.42 C
Sensor: Nr:Datum:Temp:Feuchte:Taupunkt:
Aussen-T/F 851 20-04-2006 21:39:02 13.3 C 46 % 1.94 C
852 20-04-2006 21:49:02 13.3 C 47 % 2.24 C
853 20-04-2006 21:59:02 13.1 C 48 % 2.35 C
854 20-04-2006 22:09:02 13 C 47 % 1.97 C
855 20-04-2006 22:19:02 12.6 C 50 % 2.47 C
856 20-04-2006 22:29:02 12.4 C 51 % 2.56 C
857 20-04-2006 22:39:01 12.3 C 52 % 2.74 C
858 20-04-2006 22:49:02 12.1 C 51 % 2.28 C
859 20-04-2006 22:59:02 12 C 52 % 2.46 C
860 20-04-2006 23:09:02 11.8 C 53 % 2.54 C
861 20-04-2006 23:19:02 11.6 C 53 % 2.36 C
862 20-04-2006 23:29:02 11.4 C 55 % 2.69 C
863 20-04-2006 23:39:02 11.2 C 56 % 2.76 C
864 20-04-2006 23:49:02 11.1 C 57 % 2.92 C
865 20-04-2006 23:59:02 10.7 C 58 % 2.79 C
866 21-04-2006 00:09:01 10.5 C 59 % 2.84 C
867 21-04-2006 00:19:02 10.5 C 59 % 2.84 C
868 21-04-2006 00:29:02 10.3 C 60 % 2.89 C
869 21-04-2006 00:39:02 10.2 C 60 % 2.79 C
870 21-04-2006 00:49:02 10 C 61 % 2.84 C
871 21-04-2006 00:59:02 9.9 C 62 % 2.97 C
872 21-04-2006 01:09:02 9.7 C 63 % 3.01 C
873 21-04-2006 01:19:02 9.5 C 64 % 3.04 C
874 21-04-2006 01:29:02 9.5 C 67 % 3.69 C
875 21-04-2006 01:39:02 9.2 C 68 % 3.61 C
Sensor: Nr:Datum:Temp:Feuchte:Taupunkt:
Aussen-T/F 876 21-04-2006 01:49:02 9.1 C 67 % 3.31 C
877 21-04-2006 01:59:02 8.9 C 69 % 3.53 C
878 21-04-2006 02:09:02 8.7 C 69 % 3.34 C
879 21-04-2006 02:19:02 8.6 C 69 % 3.24 C
880 21-04-2006 02:29:02 8.4 C 70 % 3.26 C
881 21-04-2006 02:39:02 8.3 C 70 % 3.16 C
882 21-04-2006 02:50:04 8.2 C 70 % 3.06 C
883 21-04-2006 03:00:04 8.1 C 70 % 2.97 C
884 21-04-2006 03:10:03 8 C 71 % 3.07 C
885 21-04-2006 03:20:04 7.9 C 73 % 3.37 C
886 21-04-2006 03:30:04 7.8 C 73 % 3.27 C
887 21-04-2006 03:40:02 7.6 C 73 % 3.08 C
888 21-04-2006 03:50:02 7.4 C 74 % 3.08 C
889 21-04-2006 04:00:02 7.3 C 74 % 2.98 C
890 21-04-2006 04:10:02 7.2 C 74 % 2.89 C
891 21-04-2006 04:20:02 7.2 C 75 % 3.07 C
892 21-04-2006 04:30:02 7.1 C 75 % 2.98 C
893 21-04-2006 04:40:02 7 C 75 % 2.88 C
894 21-04-2006 04:50:03 6.9 C 77 % 3.16 C
895 21-04-2006 05:00:03 6.8 C 77 % 3.06 C
896 21-04-2006 05:10:02 6.6 C 77 % 2.86 C
897 21-04-2006 05:20:02 6.5 C 79 % 3.13 C
898 21-04-2006 05:30:03 6.4 C 79 % 3.03 C
899 21-04-2006 05:40:02 6.4 C 80 % 3.21 C
900 21-04-2006 05:50:02 6.2 C 80 % 3.01 C
Sensor: Nr:Datum:Temp:Feuchte:Taupunkt:
Aussen-T/F 901 21-04-2006 06:00:02 6.1 C 80 % 2.92 C
902 21-04-2006 06:10:02 6.1 C 81 % 3.09 C
903 21-04-2006 06:20:02 6 C 80 % 2.82 C
904 21-04-2006 06:30:02 5.9 C 82 % 3.07 C
905 21-04-2006 06:40:02 5.8 C 82 % 2.97 C
906 21-04-2006 06:50:03 5.9 C 83 % 3.24 C
907 21-04-2006 07:00:03 5.9 C 83 % 3.24 C
908 21-04-2006 07:10:02 5.9 C 83 % 3.24 C
909 21-04-2006 07:20:02 6 C 82 % 3.17 C
910 21-04-2006 07:30:02 6.1 C 82 % 3.26 C
911 21-04-2006 07:40:02 6.3 C 82 % 3.46 C
912 21-04-2006 07:50:02 6.5 C 81 % 3.48 C
913 21-04-2006 08:00:02 6.8 C 80 % 3.6 C
914 21-04-2006 08:10:02 6.8 C 79 % 3.42 C
915 21-04-2006 08:20:01 7.1 C 78 % 3.53 C
916 21-04-2006 08:30:01 7.3 C 77 % 3.54 C
917 21-04-2006 08:40:02 7.5 C 76 % 3.55 C
918 21-04-2006 08:50:02 7.8 C 74 % 3.46 C
919 21-04-2006 09:00:02 8.1 C 73 % 3.56 C
920 21-04-2006 09:10:01 8.5 C 72 % 3.75 C
921 21-04-2006 09:20:01 8.7 C 72 % 3.94 C
922 21-04-2006 09:30:01 8.7 C 72 % 3.94 C
923 21-04-2006 09:40:02 9.1 C 70 % 3.93 C
924 21-04-2006 09:50:02 9.3 C 69 % 3.91 C
925 21-04-2006 10:00:02 9.8 C 67 % 3.97 C
Sensor: Nr:Datum:Temp:Feuchte:Taupunkt:
Aussen-T/F 926 21-04-2006 10:10:01 10.5 C 64 % 3.99 C
927 21-04-2006 10:20:01 11.2 C 62 % 4.2 C
928 21-04-2006 10:30:01 11.7 C 60 % 4.2 C
929 21-04-2006 10:40:01 12.1 C 58 % 4.1 C
930 21-04-2006 10:50:02 12.5 C 58 % 4.47 C
931 21-04-2006 11:00:03 13.4 C 56 % 4.81 C
932 21-04-2006 11:10:01 14 C 52 % 4.31 C
933 21-04-2006 11:20:01 14.6 C 52 % 4.87 C
934 21-04-2006 11:30:01 15 C 49 % 4.39 C
935 21-04-2006 11:40:01 15.3 C 47 % 4.07 C
936 21-04-2006 11:50:01 16 C 46 % 4.4 C
937 21-04-2006 12:00:01 16.6 C 45 % 4.63 C
938 21-04-2006 12:10:01 17.4 C 42 % 4.37 C
939 21-04-2006 12:20:01 18.2 C 41 % 4.75 C
940 21-04-2006 12:30:01 18.8 C 40 % 4.93 C
941 21-04-2006 12:40:02 18.9 C 39 % 4.66 C
942 21-04-2006 12:50:02 18.9 C 35 % 3.12 C
943 21-04-2006 13:00:02 19.4 C 32 % 2.3 C
944 21-04-2006 13:10:02 20.2 C 32 % 3 C
945 21-04-2006 13:20:02 20.4 C 30 % 2.26 C
946 21-04-2006 13:30:02 20.7 C 30 % 2.52 C
947 21-04-2006 13:40:02 21 C 28 % 1.81 C
948 21-04-2006 13:50:02 20.8 C 29 % 2.13 C
949 21-04-2006 14:00:02 21.2 C 27 % 1.48 C
950 21-04-2006 14:10:02 21.6 C 27 % 1.82 C
Sensor: Nr:Datum:Temp:Feuchte:Taupunkt:
Aussen-T/F 951 21-04-2006 14:20:02 22.3 C 25 % 1.34 C
952 21-04-2006 14:30:02 22.1 C 20 % -1.88 C
953 21-04-2006 14:40:02 22.4 C 20 % -1.64 C
954 21-04-2006 14:50:02 22.8 C 21 % -0.64 C
955 21-04-2006 15:00:02 23.7 C 20 % -0.57 C
956 21-04-2006 15:10:01 24.2 C 20 % -0.15 C
957 21-04-2006 15:20:01 23.5 C 20 % -0.73 C
958 21-04-2006 15:30:01 23.3 C 20 % -0.9 C
959 21-04-2006 15:40:01 23.3 C 20 % -0.9 C
960 21-04-2006 15:50:01 23.7 C 20 % -0.57 C
961 21-04-2006 16:00:01 23.8 C 20 % -0.48 C
962 21-04-2006 16:10:01 23.5 C 20 % -0.73 C
963 21-04-2006 16:20:01 23.1 C 20 % -1.06 C
964 21-04-2006 16:30:01 23.6 C 20 % -0.65 C
965 21-04-2006 16:40:02 24.2 C 20 % -0.15 C
966 21-04-2006 16:50:02 24.1 C 20 % -0.24 C
967 21-04-2006 17:00:03 24.1 C 20 % -0.24 C
968 21-04-2006 17:10:02 23.9 C 20 % -0.4 C
969 21-04-2006 17:20:02 23.8 C 20 % -0.48 C
970 21-04-2006 17:30:02 23.7 C 20 % -0.57 C
971 21-04-2006 17:40:03 23.2 C 20 % -0.98 C
972 21-04-2006 17:50:02 23.2 C 20 % -0.98 C
973 21-04-2006 18:00:02 22.9 C 20 % -1.22 C
974 21-04-2006 18:10:02 23 C 20 % -1.14 C
975 21-04-2006 18:20:02 22.9 C 20 % -1.22 C
Sensor: Nr:Datum:Temp:Feuchte:Taupunkt:
Aussen-T/F 976 21-04-2006 18:30:02 23.1 C 20 % -1.06 C
977 21-04-2006 18:40:03 23.2 C 20 % -0.98 C
978 21-04-2006 18:50:02 23 C 21 % -0.48 C
979 21-04-2006 19:00:02 22.7 C 23 % 0.52 C
980 21-04-2006 19:10:02 22.2 C 25 % 1.26 C
981 21-04-2006 19:20:02 21.8 C 30 % 3.47 C
982 21-04-2006 19:30:02 21.1 C 30 % 2.87 C
983 21-04-2006 19:40:02 20.6 C 33 % 3.78 C
984 21-04-2006 19:50:02 20.2 C 33 % 3.43 C
985 21-04-2006 20:00:02 19.7 C 34 % 3.41 C
986 21-04-2006 20:10:02 19.3 C 36 % 3.87 C
987 21-04-2006 20:20:02 18.9 C 37 % 3.91 C
988 21-04-2006 20:30:02 18.7 C 37 % 3.73 C
989 21-04-2006 20:40:02 18.2 C 39 % 4.03 C
990 21-04-2006 20:50:02 17.8 C 40 % 4.03 C
991 21-04-2006 21:00:02 17.7 C 41 % 4.3 C
992 21-04-2006 21:10:02 17.2 C 42 % 4.19 C
993 21-04-2006 21:20:02 17.1 C 43 % 4.43 C
994 21-04-2006 21:30:02 16.8 C 44 % 4.49 C
995 21-04-2006 21:40:02 16.7 C 45 % 4.72 C
996 21-04-2006 21:50:02 16.7 C 45 % 4.72 C
997 21-04-2006 22:00:02 16.5 C 47 % 5.16 C
998 21-04-2006 22:10:02 16.5 C 46 % 4.85 C
999 21-04-2006 22:20:02 16.4 C 47 % 5.07 C
1000 21-04-2006 22:30:02 16.3 C 48 % 5.28 C
Sensor: Nr:Datum:Temp:Feuchte:Taupunkt:
Aussen-T/F 1001 21-04-2006 22:40:02 16.1 C 48 % 5.1 C
1002 21-04-2006 22:50:02 15.8 C 51 % 5.69 C
1003 21-04-2006 23:00:03 15.6 C 51 % 5.51 C
1004 21-04-2006 23:10:02 15.3 C 52 % 5.51 C
1005 21-04-2006 23:20:01 14.9 C 54 % 5.69 C
1006 21-04-2006 23:30:01 14.7 C 55 % 5.76 C
1007 21-04-2006 23:40:02 14.5 C 56 % 5.84 C
1008 21-04-2006 23:50:02 14.2 C 56 % 5.56 C
1009 22-04-2006 00:00:03 13.8 C 58 % 5.69 C
1010 22-04-2006 00:10:02 13.5 C 61 % 6.14 C
1011 22-04-2006 00:20:02 13.2 C 62 % 6.09 C
1012 22-04-2006 00:30:02 13.3 C 62 % 6.18 C
1013 22-04-2006 00:40:02 13.4 C 62 % 6.28 C
1014 22-04-2006 00:50:02 13.6 C 60 % 5.99 C
1015 22-04-2006 01:00:02 13.7 C 62 % 6.56 C
1016 22-04-2006 01:10:02 13.6 C 60 % 5.99 C
1017 22-04-2006 01:20:02 13.6 C 60 % 5.99 C
1018 22-04-2006 01:30:02 13.2 C 61 % 5.85 C
1019 22-04-2006 01:40:01 12.9 C 63 % 6.04 C
1020 22-04-2006 01:50:03 12.9 C 63 % 6.04 C
1021 22-04-2006 02:00:03 13.2 C 58 % 5.13 C
1022 22-04-2006 02:10:03 13.1 C 60 % 5.52 C
1023 22-04-2006 02:20:02 12.9 C 62 % 5.8 C
1024 22-04-2006 02:30:02 13 C 60 % 5.43 C
1025 22-04-2006 02:40:02 12.9 C 61 % 5.57 C
Sensor: Nr:Datum:Temp:Feuchte:Taupunkt:
Aussen-T/F 1026 22-04-2006 02:51:03 12.7 C 62 % 5.62 C
1027 22-04-2006 03:01:03 12.4 C 63 % 5.56 C
1028 22-04-2006 03:11:03 12.1 C 63 % 5.28 C
1029 22-04-2006 03:21:03 12 C 65 % 5.63 C
1030 22-04-2006 03:31:02 11.4 C 66 % 5.28 C
1031 22-04-2006 03:41:02 11.4 C 67 % 5.5 C
1032 22-04-2006 03:51:02 11.5 C 67 % 5.59 C
1033 22-04-2006 04:01:02 12.2 C 68 % 6.48 C
1034 22-04-2006 04:11:02 12.2 C 67 % 6.26 C
1035 22-04-2006 04:21:02 12.2 C 68 % 6.48 C
1036 22-04-2006 04:31:02 11.6 C 76 % 7.52 C
1037 22-04-2006 04:41:03 11.3 C 82 % 8.34 C
1038 22-04-2006 04:51:03 10.8 C 87 % 8.73 C
1039 22-04-2006 05:01:03 10.7 C 88 % 8.8 C
1040 22-04-2006 05:11:03 10.6 C 89 % 8.86 C
1041 22-04-2006 05:21:03 10.7 C 90 % 9.13 C
1042 22-04-2006 05:31:03 10.7 C 90 % 9.13 C
1043 22-04-2006 05:41:03 10.9 C 90 % 9.33 C
1044 22-04-2006 05:51:03 11 C 90 % 9.42 C
1045 22-04-2006 06:01:03 11 C 89 % 9.26 C
1046 22-04-2006 06:11:03 10.9 C 89 % 9.16 C
1047 22-04-2006 06:21:02 10.8 C 89 % 9.06 C
1048 22-04-2006 06:31:02 10.8 C 89 % 9.06 C
1049 22-04-2006 06:41:02 10.8 C 89 % 9.06 C
1050 22-04-2006 06:51:02 10.8 C 89 % 9.06 C
Sensor: Nr:Datum:Temp:Feuchte:Taupunkt:
Aussen-T/F 1051 22-04-2006 07:01:01 10.8 C 89 % 9.06 C
1052 22-04-2006 07:11:01 10.8 C 89 % 9.06 C
1053 22-04-2006 07:21:01 10.9 C 89 % 9.16 C
1054 22-04-2006 07:31:02 11.1 C 88 % 9.19 C
1055 22-04-2006 07:41:02 11.2 C 88 % 9.29 C
1056 22-04-2006 07:51:02 11.4 C 86 % 9.14 C
1057 22-04-2006 08:01:01 11.4 C 85 % 8.97 C
1058 22-04-2006 08:11:01 11.4 C 84 % 8.8 C
1059 22-04-2006 08:21:01 11.4 C 83 % 8.62 C
1060 22-04-2006 08:31:02 11.6 C 83 % 8.81 C
1061 22-04-2006 08:41:02 11.8 C 82 % 8.83 C
1062 22-04-2006 08:51:02 11.9 C 82 % 8.93 C
1063 22-04-2006 09:01:02 12 C 81 % 8.84 C
1064 22-04-2006 09:11:02 12.1 C 79 % 8.57 C
1065 22-04-2006 09:21:02 12.2 C 78 % 8.48 C
1066 22-04-2006 09:31:01 12.2 C 78 % 8.48 C
1067 22-04-2006 09:41:01 12.2 C 77 % 8.29 C
1068 22-04-2006 09:51:02 12.5 C 76 % 8.39 C
1069 22-04-2006 10:01:03 12.5 C 74 % 8 C
1070 22-04-2006 10:11:03 12.2 C 74 % 7.71 C
1071 22-04-2006 10:21:02 12.4 C 74 % 7.9 C
1072 22-04-2006 10:31:02 12.5 C 73 % 7.8 C
1073 22-04-2006 10:41:02 12.5 C 71 % 7.39 C
1074 22-04-2006 10:51:02 12.7 C 70 % 7.38 C
1075 22-04-2006 11:01:02 12.7 C 69 % 7.17 C
Sensor: Nr:Datum:Temp:Feuchte:Taupunkt:
Aussen-T/F 1076 22-04-2006 11:11:02 13.3 C 66 % 7.09 C
1077 22-04-2006 11:21:02 13.7 C 65 % 7.25 C
1078 22-04-2006 11:31:02 14.2 C 62 % 7.03 C
1079 22-04-2006 11:41:02 14.5 C 59 % 6.59 C
1080 22-04-2006 11:51:03 15 C 58 % 6.81 C
1081 22-04-2006 12:01:02 15 C 55 % 6.04 C
1082 22-04-2006 12:11:02 15.3 C 54 % 6.06 C
1083 22-04-2006 12:21:02 15.5 C 50 % 5.13 C
1084 22-04-2006 12:31:03 15.5 C 50 % 5.13 C
1085 22-04-2006 12:41:03 15.7 C 49 % 5.03 C
1086 22-04-2006 12:51:01 15.1 C 51 % 5.05 C
1087 22-04-2006 13:01:01 15 C 50 % 4.67 C
1088 22-04-2006 13:11:01 15.4 C 48 % 4.46 C
1089 22-04-2006 13:21:01 16 C 45 % 4.09 C
1090 22-04-2006 13:31:02 16.5 C 42 % 3.56 C
1091 22-04-2006 13:41:02 16.7 C 42 % 3.74 C
1092 22-04-2006 13:51:02 16.6 C 40 % 2.96 C
1093 22-04-2006 14:01:02 16.4 C 40 % 2.78 C
1094 22-04-2006 14:11:02 17.3 C 36 % 2.1 C
1095 22-04-2006 14:21:02 17.9 C 36 % 2.63 C
1096 22-04-2006 14:31:03 17.9 C 36 % 2.63 C
1097 22-04-2006 14:41:03 17.9 C 36 % 2.63 C
1098 22-04-2006 14:51:02 17.6 C 37 % 2.75 C
1099 22-04-2006 15:01:02 19 C 35 % 3.21 C
1100 22-04-2006 15:11:02 19.4 C 32 % 2.3 C
Sensor: Nr:Datum:Temp:Feuchte:Taupunkt:
Aussen-T/F 1101 22-04-2006 15:21:02 19.8 C 34 % 3.5 C
1102 22-04-2006 15:31:03 18.8 C 33 % 2.21 C
1103 22-04-2006 15:41:03 18.7 C 35 % 2.94 C
1104 22-04-2006 15:51:02 20 C 34 % 3.68 C
1105 22-04-2006 16:01:02 19.2 C 31 % 1.68 C
1106 22-04-2006 16:11:02 18.7 C 33 % 2.12 C
1107 22-04-2006 16:21:02 19.8 C 32 % 2.65 C
1108 22-04-2006 16:31:03 20.2 C 30 % 2.09 C
1109 22-04-2006 16:41:03 19.7 C 32 % 2.56 C
1110 22-04-2006 16:51:02 19.7 C 32 % 2.56 C
1111 22-04-2006 17:01:02 19.4 C 33 % 2.73 C
1112 22-04-2006 17:11:02 18.5 C 36 % 3.17 C
1113 22-04-2006 17:21:02 18.7 C 37 % 3.73 C
1114 22-04-2006 17:31:03 18.3 C 37 % 3.38 C
1115 22-04-2006 17:41:03 18.7 C 37 % 3.73 C
1116 22-04-2006 17:51:02 18 C 37 % 3.11 C
1117 22-04-2006 18:01:03 17.8 C 39 % 3.68 C
1118 22-04-2006 18:11:03 18 C 37 % 3.11 C
1119 22-04-2006 18:21:02 17.8 C 38 % 3.31 C
1120 22-04-2006 18:31:02 17.7 C 38 % 3.22 C
1121 22-04-2006 18:41:02 17.3 C 38 % 2.86 C
1122 22-04-2006 18:51:02 16.6 C 38 % 2.24 C
1123 22-04-2006 19:01:02 16.8 C 38 % 2.42 C
1124 22-04-2006 19:11:02 16 C 37 % 1.33 C
1125 22-04-2006 19:21:02 15.8 C 39 % 1.89 C
Sensor: Nr:Datum:Temp:Feuchte:Taupunkt:
Aussen-T/F 1126 22-04-2006 19:31:01 15.6 C 38 % 1.35 C
1127 22-04-2006 19:41:01 14.9 C 40 % 1.44 C
1128 22-04-2006 19:51:02 14.2 C 42 % 1.49 C
1129 22-04-2006 20:01:02 14 C 44 % 1.95 C
1130 22-04-2006 20:11:02 13 C 47 % 1.97 C
1131 22-04-2006 20:21:02 12.8 C 50 % 2.65 C
1132 22-04-2006 20:31:02 12.4 C 50 % 2.28 C
1133 22-04-2006 20:41:02 11.9 C 53 % 2.64 C
1134 22-04-2006 20:51:02 11.5 C 54 % 2.53 C
1135 22-04-2006 21:01:02 11.4 C 55 % 2.69 C
1136 22-04-2006 21:11:02 11 C 56 % 2.57 C
1137 22-04-2006 21:21:01 10.7 C 58 % 2.79 C
1138 22-04-2006 21:31:02 10.5 C 59 % 2.84 C
1139 22-04-2006 21:41:02 10.4 C 59 % 2.74 C
1140 22-04-2006 21:51:02 10.1 C 60 % 2.7 C
1141 22-04-2006 22:01:02 10 C 60 % 2.6 C
1142 22-04-2006 22:11:02 9.8 C 62 % 2.88 C
1143 22-04-2006 22:21:01 9.6 C 63 % 2.91 C
1144 22-04-2006 22:31:02 9.5 C 63 % 2.82 C
1145 22-04-2006 22:41:02 9.2 C 64 % 2.76 C
1146 22-04-2006 22:51:02 9.2 C 64 % 2.76 C
1147 22-04-2006 23:01:01 9.1 C 64 % 2.66 C
1148 22-04-2006 23:11:01 8.9 C 66 % 2.9 C
1149 22-04-2006 23:21:01 8.7 C 66 % 2.71 C
1150 22-04-2006 23:31:02 8.6 C 67 % 2.83 C
Sensor: Nr:Datum:Temp:Feuchte:Taupunkt:
Aussen-T/F 1151 22-04-2006 23:41:02 8.2 C 67 % 2.45 C
1152 22-04-2006 23:51:02 8 C 68 % 2.47 C
1153 23-04-2006 00:01:02 7.9 C 70 % 2.78 C
1154 23-04-2006 00:11:02 7.8 C 71 % 2.88 C
1155 23-04-2006 00:21:02 7.6 C 71 % 2.69 C
1156 23-04-2006 00:31:02 7.5 C 72 % 2.79 C
1157 23-04-2006 00:41:02 7.5 C 72 % 2.79 C
1158 23-04-2006 00:51:02 7.5 C 73 % 2.98 C
1159 23-04-2006 01:01:02 7.3 C 73 % 2.79 C
1160 23-04-2006 01:11:02 7.1 C 74 % 2.79 C
1161 23-04-2006 01:21:02 6.9 C 75 % 2.78 C
1162 23-04-2006 01:31:02 6.8 C 75 % 2.69 C
1163 23-04-2006 01:41:02 6.6 C 77 % 2.86 C
1164 23-04-2006 01:51:02 6.3 C 78 % 2.75 C
1165 23-04-2006 02:01:02 6.2 C 78 % 2.66 C
1166 23-04-2006 02:11:02 6.1 C 79 % 2.74 C
1167 23-04-2006 02:21:02 6 C 79 % 2.64 C
1168 23-04-2006 02:31:02 5.9 C 80 % 2.72 C
1169 23-04-2006 02:41:02 5.8 C 81 % 2.8 C
1170 23-04-2006 02:52:04 5.4 C 81 % 2.41 C
1171 23-04-2006 03:02:04 5.4 C 81 % 2.41 C
1172 23-04-2006 03:12:04 5.4 C 81 % 2.41 C
1173 23-04-2006 03:22:04 5.3 C 81 % 2.31 C
1174 23-04-2006 03:32:02 5.2 C 82 % 2.39 C
1175 23-04-2006 03:42:02 5 C 82 % 2.19 C
Sensor: Nr:Datum:Temp:Feuchte:Taupunkt:
Aussen-T/F 1176 23-04-2006 03:52:02 4.9 C 84 % 2.43 C
1177 23-04-2006 04:02:02 4.7 C 84 % 2.23 C
1178 23-04-2006 04:12:02 4.6 C 85 % 2.3 C
1179 23-04-2006 04:22:02 4.5 C 85 % 2.2 C
1180 23-04-2006 04:32:02 4.4 C 86 % 2.27 C
1181 23-04-2006 04:42:02 4.2 C 86 % 2.07 C
1182 23-04-2006 04:52:03 4.1 C 86 % 1.97 C
1183 23-04-2006 05:02:03 3.9 C 87 % 1.94 C
1184 23-04-2006 05:12:03 3.9 C 87 % 1.94 C
1185 23-04-2006 05:22:03 3.9 C 87 % 1.94 C
1186 23-04-2006 05:32:03 3.9 C 88 % 2.1 C
1187 23-04-2006 05:42:03 3.8 C 88 % 2 C
1188 23-04-2006 05:52:02 3.7 C 88 % 1.9 C
1189 23-04-2006 06:02:01 3.5 C 88 % 1.7 C
1190 23-04-2006 06:12:01 3.4 C 88 % 1.61 C
1191 23-04-2006 06:22:02 3.3 C 88 % 1.51 C
1192 23-04-2006 06:32:02 3.2 C 88 % 1.41 C
1193 23-04-2006 06:42:02 3.4 C 88 % 1.61 C
1194 23-04-2006 06:52:02 3.4 C 88 % 1.61 C
1195 23-04-2006 07:02:02 3.5 C 89 % 1.86 C
1196 23-04-2006 07:12:02 3.6 C 88 % 1.8 C
1197 23-04-2006 07:22:02 3.5 C 88 % 1.7 C
1198 23-04-2006 07:32:03 3.8 C 88 % 2 C
1199 23-04-2006 07:42:03 3.9 C 88 % 2.1 C
1200 23-04-2006 07:52:02 4.2 C 87 % 2.23 C
Sensor: Nr:Datum:Temp:Feuchte:Taupunkt:
Aussen-T/F 1201 23-04-2006 08:02:02 4.5 C 86 % 2.37 C
1202 23-04-2006 08:12:02 4.4 C 85 % 2.11 C
1203 23-04-2006 08:22:02 4.6 C 85 % 2.3 C
1204 23-04-2006 08:32:03 4.8 C 85 % 2.5 C
1205 23-04-2006 08:42:03 5 C 84 % 2.53 C
1206 23-04-2006 08:52:02 5.1 C 83 % 2.46 C
1207 23-04-2006 09:02:02 5.2 C 83 % 2.56 C
1208 23-04-2006 09:12:02 5.5 C 82 % 2.68 C
1209 23-04-2006 09:22:02 5.7 C 82 % 2.87 C
1210 23-04-2006 09:32:02 5.8 C 81 % 2.8 C
1211 23-04-2006 09:42:02 6 C 79 % 2.64 C
1212 23-04-2006 09:52:02 6.6 C 78 % 3.05 C
1213 23-04-2006 10:02:02 7 C 76 % 3.07 C
1214 23-04-2006 10:12:03 7.7 C 73 % 3.18 C
1215 23-04-2006 10:22:02 7.9 C 72 % 3.17 C
1216 23-04-2006 10:32:02 8.5 C 69 % 3.15 C
1217 23-04-2006 10:42:02 9.1 C 66 % 3.09 C
1218 23-04-2006 10:52:02 9.9 C 64 % 3.42 C
1219 23-04-2006 11:02:02 10.6 C 61 % 3.4 C
1220 23-04-2006 11:12:02 10.7 C 60 % 3.26 C
1221 23-04-2006 11:22:02 11 C 60 % 3.55 C
1222 23-04-2006 11:32:03 11.4 C 58 % 3.44 C
1223 23-04-2006 11:42:03 12.5 C 54 % 3.46 C
1224 23-04-2006 11:52:02 12.9 C 51 % 3.02 C
1225 23-04-2006 12:02:02 12.7 C 49 % 2.27 C
Sensor: Nr:Datum:Temp:Feuchte:Taupunkt:
Aussen-T/F 1226 23-04-2006 12:12:02 13.1 C 48 % 2.35 C
1227 23-04-2006 12:22:02 13.8 C 46 % 2.4 C
1228 23-04-2006 12:32:02 14.7 C 43 % 2.27 C
1229 23-04-2006 12:42:02 13.5 C 45 % 1.81 C
1230 23-04-2006 12:52:02 13.1 C 47 % 2.06 C
1231 23-04-2006 13:02:01 13.3 C 47 % 2.24 C
1232 23-04-2006 13:12:01 13.8 C 46 % 2.4 C
1233 23-04-2006 13:22:01 13.6 C 46 % 2.21 C
1234 23-04-2006 13:32:02 14.7 C 43 % 2.27 C
1235 23-04-2006 13:42:02 15.3 C 40 % 1.8 C
1236 23-04-2006 13:52:01 16.2 C 40 % 2.6 C
1237 23-04-2006 14:02:02 16.2 C 39 % 2.25 C
1238 23-04-2006 14:12:02 15.9 C 39 % 1.98 C
1239 23-04-2006 14:22:01 16.3 C 37 % 1.6 C
1240 23-04-2006 14:32:02 16.5 C 38 % 2.15 C
1241 23-04-2006 14:42:02 16.7 C 37 % 1.96 C
1242 23-04-2006 14:52:02 17.6 C 36 % 2.37 C
1243 23-04-2006 15:02:02 18.2 C 35 % 2.5 C
1244 23-04-2006 15:12:02 18.4 C 33 % 1.86 C
1245 23-04-2006 15:22:02 19.1 C 33 % 2.47 C
1246 23-04-2006 15:32:01 19.5 C 32 % 2.39 C
1247 23-04-2006 15:42:01 19.5 C 32 % 2.39 C
1248 23-04-2006 15:52:02 20.1 C 31 % 2.46 C
1249 23-04-2006 16:02:02 20.4 C 31 % 2.72 C
1250 23-04-2006 16:12:02 19.9 C 31 % 2.29 C
Sensor: Nr:Datum:Temp:Feuchte:Taupunkt:
Aussen-T/F 1251 23-04-2006 16:22:01 20.4 C 31 % 2.72 C
1252 23-04-2006 16:32:02 20.8 C 30 % 2.61 C
1253 23-04-2006 16:42:02 20.6 C 31 % 2.9 C
1254 23-04-2006 16:52:02 19.7 C 31 % 2.12 C
1255 23-04-2006 17:02:01 19.6 C 32 % 2.47 C
1256 23-04-2006 17:12:01 19.5 C 32 % 2.39 C
1257 23-04-2006 17:22:01 20.1 C 30 % 2 C
1258 23-04-2006 17:32:02 19.9 C 31 % 2.29 C
1259 23-04-2006 17:42:02 19.7 C 30 % 1.66 C
1260 23-04-2006 17:52:02 19.4 C 31 % 1.85 C
1261 23-04-2006 18:02:01 19.3 C 33 % 2.64 C
1262 23-04-2006 18:12:01 19.8 C 32 % 2.65 C
1263 23-04-2006 18:22:01 19.4 C 30 % 1.4 C
1264 23-04-2006 18:32:02 18.8 C 32 % 1.78 C
1265 23-04-2006 18:42:02 18.9 C 33 % 2.29 C
1266 23-04-2006 18:52:02 18.7 C 32 % 1.69 C
1267 23-04-2006 19:02:01 18.4 C 31 % 0.99 C
1268 23-04-2006 19:12:01 17.3 C 32 % 0.47 C
1269 23-04-2006 19:22:01 17.2 C 35 % 1.62 C
1270 23-04-2006 19:32:02 17.1 C 33 % 0.72 C
1271 23-04-2006 19:42:02 17.1 C 34 % 1.13 C
1272 23-04-2006 19:52:02 17 C 35 % 1.45 C
1273 23-04-2006 20:02:02 16.6 C 36 % 1.49 C
1274 23-04-2006 20:12:02 16.3 C 38 % 1.97 C
1275 23-04-2006 20:22:02 15.7 C 41 % 2.5 C
Sensor: Nr:Datum:Temp:Feuchte:Taupunkt:
Aussen-T/F 1276 23-04-2006 20:32:03 15 C 42 % 2.21 C
1277 23-04-2006 20:42:03 14.5 C 45 % 2.72 C
1278 23-04-2006 20:52:02 13.8 C 47 % 2.7 C
1279 23-04-2006 21:02:02 13.4 C 48 % 2.63 C
1280 23-04-2006 21:12:02 13.1 C 50 % 2.93 C
1281 23-04-2006 21:22:02 12.7 C 51 % 2.84 C
1282 23-04-2006 21:32:03 12.5 C 52 % 2.92 C
1283 23-04-2006 21:42:03 12.1 C 54 % 3.09 C
1284 23-04-2006 21:52:02 12 C 56 % 3.51 C
1285 23-04-2006 22:02:02 11.8 C 57 % 3.57 C
1286 23-04-2006 22:12:02 11.5 C 58 % 3.54 C
1287 23-04-2006 22:22:02 11.4 C 57 % 3.2 C
1288 23-04-2006 22:32:03 11.3 C 59 % 3.59 C
1289 23-04-2006 22:42:03 11.2 C 59 % 3.5 C
1290 23-04-2006 22:52:02 11 C 59 % 3.31 C
1291 23-04-2006 23:02:02 10.8 C 62 % 3.82 C
1292 23-04-2006 23:12:02 10.5 C 62 % 3.54 C
1293 23-04-2006 23:22:02 10.3 C 63 % 3.58 C
1294 23-04-2006 23:32:03 10.2 C 63 % 3.48 C
1295 23-04-2006 23:42:03 9.9 C 65 % 3.64 C
1296 23-04-2006 23:52:02 9.7 C 66 % 3.67 C
1297 24-04-2006 00:02:02 9.5 C 67 % 3.69 C
1298 24-04-2006 00:12:02 9.3 C 68 % 3.71 C
1299 24-04-2006 00:22:02 9.2 C 68 % 3.61 C
1300 24-04-2006 00:32:02 9 C 68 % 3.42 C
Sensor: Nr:Datum:Temp:Feuchte:Taupunkt:
Aussen-T/F 1301 24-04-2006 00:42:02 8.7 C 69 % 3.34 C
1302 24-04-2006 00:52:02 8.5 C 71 % 3.55 C
1303 24-04-2006 01:02:02 8.3 C 72 % 3.56 C
1304 24-04-2006 01:12:02 8.1 C 72 % 3.37 C
1305 24-04-2006 01:22:02 8.1 C 73 % 3.56 C
1306 24-04-2006 01:32:02 8 C 73 % 3.46 C
1307 24-04-2006 01:42:02 7.8 C 75 % 3.65 C
1308 24-04-2006 01:52:02 7.7 C 74 % 3.37 C
1309 24-04-2006 02:02:02 7.6 C 75 % 3.46 C
1310 24-04-2006 02:12:02 7.5 C 76 % 3.55 C
1311 24-04-2006 02:22:02 7.4 C 76 % 3.45 C
1312 24-04-2006 02:32:02 7.4 C 77 % 3.64 C
1313 24-04-2006 02:42:03 7.3 C 77 % 3.54 C
1314 24-04-2006 02:53:03 7.3 C 77 % 3.54 C
1315 24-04-2006 03:03:04 7.2 C 77 % 3.45 C
1316 24-04-2006 03:13:03 7.1 C 78 % 3.53 C
1317 24-04-2006 03:23:03 7 C 78 % 3.43 C
1318 24-04-2006 03:33:03 7.4 C 78 % 3.82 C
1319 24-04-2006 03:43:03 7.3 C 78 % 3.73 C
1320 24-04-2006 03:53:03 7.5 C 78 % 3.92 C
1321 24-04-2006 04:03:03 7.6 C 77 % 3.83 C
1322 24-04-2006 04:13:03 7.6 C 76 % 3.65 C
1323 24-04-2006 04:23:02 7.6 C 77 % 3.83 C
1324 24-04-2006 04:33:02 7.6 C 77 % 3.83 C
1325 24-04-2006 04:43:02 7.5 C 77 % 3.74 C
Sensor: Nr:Datum:Temp:Feuchte:Taupunkt:
Aussen-T/F 1326 24-04-2006 04:53:02 7.4 C 78 % 3.82 C
1327 24-04-2006 05:03:01 7.5 C 78 % 3.92 C
1328 24-04-2006 05:13:01 7.5 C 77 % 3.74 C
1329 24-04-2006 05:23:02 7.6 C 77 % 3.83 C
1330 24-04-2006 05:33:02 7.6 C 77 % 3.83 C
1331 24-04-2006 05:43:02 7.5 C 77 % 3.74 C
1332 24-04-2006 05:53:02 7.5 C 77 % 3.74 C
1333 24-04-2006 06:03:02 7.5 C 77 % 3.74 C
1334 24-04-2006 06:13:02 7.4 C 78 % 3.82 C
1335 24-04-2006 06:23:03 7.4 C 78 % 3.82 C
1336 24-04-2006 06:33:02 7.4 C 78 % 3.82 C
1337 24-04-2006 06:43:02 7.5 C 78 % 3.92 C
1338 24-04-2006 06:53:02 7.5 C 78 % 3.92 C
1339 24-04-2006 07:03:02 7.6 C 78 % 4.02 C
1340 24-04-2006 07:13:02 7.5 C 78 % 3.92 C
1341 24-04-2006 07:23:02 7.8 C 79 % 4.39 C
1342 24-04-2006 07:33:02 8.1 C 77 % 4.32 C
1343 24-04-2006 07:43:02 8 C 77 % 4.22 C
1344 24-04-2006 07:53:02 8 C 77 % 4.22 C
1345 24-04-2006 08:03:02 7.9 C 79 % 4.49 C
1346 24-04-2006 08:13:02 8.4 C 78 % 4.79 C
1347 24-04-2006 08:23:02 9 C 73 % 4.43 C
1348 24-04-2006 08:33:03 9.3 C 72 % 4.52 C
1349 24-04-2006 08:43:03 9.6 C 71 % 4.61 C
1350 24-04-2006 08:53:02 9.9 C 71 % 4.9 C
Sensor: Nr:Datum:Temp:Feuchte:Taupunkt:
Aussen-T/F 1351 24-04-2006 09:03:02 10.2 C 69 % 4.78 C
1352 24-04-2006 09:13:02 10.7 C 68 % 5.04 C
1353 24-04-2006 09:23:02 11 C 67 % 5.12 C
1354 24-04-2006 09:33:02 11.7 C 65 % 5.35 C
1355 24-04-2006 09:43:02 12.3 C 62 % 5.24 C
1356 24-04-2006 09:53:02 12.9 C 62 % 5.8 C
1357 24-04-2006 10:03:02 12.9 C 60 % 5.33 C
1358 24-04-2006 10:13:02 12.8 C 60 % 5.24 C
1359 24-04-2006 10:23:02 13.4 C 57 % 5.07 C
1360 24-04-2006 10:33:02 13.8 C 55 % 4.93 C
1361 24-04-2006 10:43:02 14.2 C 53 % 4.77 C
1362 24-04-2006 10:53:02 14.8 C 52 % 5.05 C
1363 24-04-2006 11:03:02 15.3 C 50 % 4.95 C
1364 24-04-2006 11:13:02 15.9 C 47 % 4.61 C
1365 24-04-2006 11:23:01 16.4 C 44 % 4.13 C
1366 24-04-2006 11:33:02 17 C 43 % 4.34 C
1367 24-04-2006 11:43:02 17.7 C 40 % 3.95 C
1368 24-04-2006 11:53:02 18 C 37 % 3.11 C
1369 24-04-2006 12:03:02 18.2 C 36 % 2.9 C
1370 24-04-2006 12:13:02 17.9 C 37 % 3.02 C
1371 24-04-2006 12:23:02 18.5 C 35 % 2.77 C
1372 24-04-2006 12:33:01 18.5 C 32 % 1.51 C
1373 24-04-2006 12:43:01 19.2 C 32 % 2.12 C
1374 24-04-2006 12:53:02 19.4 C 28 % 0.44 C
1375 24-04-2006 13:03:02 19.9 C 30 % 1.83 C
Sensor: Nr:Datum:Temp:Feuchte:Taupunkt:
Aussen-T/F 1376 24-04-2006 13:13:02 20.1 C 27 % 0.54 C
1377 24-04-2006 13:23:01 19.8 C 26 % -0.23 C
1378 24-04-2006 13:33:02 20.5 C 25 % -0.18 C
1379 24-04-2006 13:43:02 20.3 C 25 % -0.35 C
1380 24-04-2006 13:53:02 20.8 C 25 % 0.07 C
1381 24-04-2006 14:03:02 21.2 C 25 % 0.41 C
1382 24-04-2006 14:13:02 21.5 C 25 % 0.67 C
1383 24-04-2006 14:23:01 21.5 C 25 % 0.67 C
1384 24-04-2006 14:33:02 22.1 C 25 % 1.17 C
1385 24-04-2006 14:43:02 23.4 C 22 % 0.49 C
1386 24-04-2006 14:53:02 23.3 C 23 % 1.03 C
1387 24-04-2006 15:03:02 23.2 C 21 % -0.31 C
1388 24-04-2006 15:13:02 23.6 C 20 % -0.65 C
1389 24-04-2006 15:23:01 24.1 C 20 % -0.24 C
1390 24-04-2006 15:33:02 24.6 C 20 % 0.17 C
1391 24-04-2006 15:43:02 25.1 C 20 % 0.59 C
1392 24-04-2006 15:53:02 25.7 C 20 % 1.08 C
1393 24-04-2006 16:03:01 25.5 C 20 % 0.91 C
1394 24-04-2006 16:13:01 25.7 C 20 % 1.08 C
1395 24-04-2006 16:23:01 25 C 20 % 0.5 C
1396 24-04-2006 16:33:02 25.5 C 20 % 0.91 C
1397 24-04-2006 16:43:02 26.4 C 20 % 1.65 C
1398 24-04-2006 16:53:02 26.8 C 20 % 1.98 C
1399 24-04-2006 17:03:01 26.1 C 20 % 1.41 C
1400 24-04-2006 17:13:01 26.5 C 20 % 1.74 C
Sensor: Nr:Datum:Temp:Feuchte:Taupunkt:
Aussen-T/F 1401 24-04-2006 17:23:01 26.8 C 20 % 1.98 C
1402 24-04-2006 17:33:02 27.1 C 20 % 2.23 C
1403 24-04-2006 17:43:02 26.9 C 20 % 2.06 C
1404 24-04-2006 17:53:02 26.7 C 20 % 1.9 C
1405 24-04-2006 18:03:02 26.9 C 20 % 2.06 C
1406 24-04-2006 18:13:02 27.2 C 20 % 2.31 C
1407 24-04-2006 18:23:01 26.4 C 20 % 1.65 C
1408 24-04-2006 18:33:02 25.9 C 20 % 1.24 C
1409 24-04-2006 18:43:02 25.4 C 20 % 0.83 C
1410 24-04-2006 18:53:02 25.4 C 20 % 0.83 C
1411 24-04-2006 19:03:02 24.8 C 21 % 1.01 C
1412 24-04-2006 19:13:02 24.2 C 21 % 0.52 C
1413 24-04-2006 19:23:01 24.5 C 23 % 2.03 C
1414 24-04-2006 19:33:02 24.8 C 23 % 2.28 C
1415 24-04-2006 19:43:02 24.4 C 23 % 1.95 C
1416 24-04-2006 19:53:02 23.1 C 27 % 3.1 C
1417 24-04-2006 20:03:02 22.4 C 29 % 3.51 C
1418 24-04-2006 20:13:02 21.1 C 31 % 3.33 C
1419 24-04-2006 20:23:02 20.3 C 34 % 3.94 C
1420 24-04-2006 20:33:01 19.6 C 36 % 4.14 C
1421 24-04-2006 20:43:01 19.1 C 36 % 3.7 C
1422 24-04-2006 20:53:02 18.5 C 38 % 3.93 C
1423 24-04-2006 21:03:03 18.1 C 37 % 3.2 C
1424 24-04-2006 21:13:03 17.9 C 39 % 3.76 C
1425 24-04-2006 21:23:02 17.7 C 39 % 3.59 C
Sensor: Nr:Datum:Temp:Feuchte:Taupunkt:
Aussen-T/F 1426 24-04-2006 21:33:02 17.3 C 39 % 3.23 C
1427 24-04-2006 21:43:02 17.1 C 39 % 3.05 C
1428 24-04-2006 21:53:02 16.7 C 40 % 3.05 C
1429 24-04-2006 22:03:02 16.5 C 41 % 3.22 C
1430 24-04-2006 22:13:02 16.3 C 41 % 3.04 C
1431 24-04-2006 22:23:02 15.9 C 42 % 3.02 C
1432 24-04-2006 22:33:02 15.8 C 42 % 2.93 C
1433 24-04-2006 22:43:03 15.7 C 42 % 2.84 C
1434 24-04-2006 22:53:03 15.4 C 42 % 2.57 C
1435 24-04-2006 23:03:02 15.2 C 44 % 3.04 C
1436 24-04-2006 23:13:02 14.9 C 47 % 3.7 C
1437 24-04-2006 23:23:02 15 C 45 % 3.18 C
1438 24-04-2006 23:33:03 14.9 C 47 % 3.7 C
1439 24-04-2006 23:43:03 14.8 C 47 % 3.61 C
1440 24-04-2006 23:53:02 14.7 C 47 % 3.52 C
1441 25-04-2006 00:03:01 14.6 C 49 % 4.02 C
1442 25-04-2006 00:13:01 14.3 C 50 % 4.03 C
1443 25-04-2006 00:23:02 14 C 51 % 4.04 C
1444 25-04-2006 00:33:02 14 C 52 % 4.31 C
1445 25-04-2006 00:43:02 14.1 C 51 % 4.13 C
1446 25-04-2006 00:53:02 14 C 52 % 4.31 C
1447 25-04-2006 01:03:02 14.1 C 51 % 4.13 C
1448 25-04-2006 01:13:02 14.1 C 49 % 3.56 C
1449 25-04-2006 01:23:03 14.2 C 52 % 4.5 C
1450 25-04-2006 01:33:02 14.2 C 51 % 4.22 C
Sensor: Nr:Datum:Temp:Feuchte:Taupunkt:
Aussen-T/F 1451 25-04-2006 01:43:02 14.2 C 50 % 3.94 C
1452 25-04-2006 01:53:02 14.2 C 50 % 3.94 C
1453 25-04-2006 02:03:02 14 C 51 % 4.04 C
1454 25-04-2006 02:13:02 14 C 51 % 4.04 C
1455 25-04-2006 02:23:03 13.8 C 54 % 4.66 C
1456 25-04-2006 02:33:02 13.7 C 55 % 4.83 C
1457 25-04-2006 02:43:02 13.7 C 55 % 4.83 C
1458 25-04-2006 02:54:04 13.7 C 56 % 5.09 C
1459 25-04-2006 03:04:04 13.4 C 57 % 5.07 C
1460 25-04-2006 03:14:03 13.2 C 55 % 4.37 C
1461 25-04-2006 03:24:03 13.1 C 55 % 4.28 C
1462 25-04-2006 03:34:02 13 C 56 % 4.44 C
1463 25-04-2006 03:44:02 12.9 C 56 % 4.35 C
1464 25-04-2006 03:54:02 12.8 C 56 % 4.25 C
1465 25-04-2006 04:04:02 12.7 C 57 % 4.41 C
1466 25-04-2006 04:14:02 12.2 C 60 % 4.67 C
1467 25-04-2006 04:24:02 12 C 61 % 4.72 C
1468 25-04-2006 04:34:02 11.7 C 62 % 4.67 C
1469 25-04-2006 04:44:02 11.7 C 61 % 4.44 C
1470 25-04-2006 04:54:02 11.7 C 61 % 4.44 C
1471 25-04-2006 05:04:02 11.6 C 63 % 4.81 C
1472 25-04-2006 05:14:02 11.5 C 63 % 4.71 C
1473 25-04-2006 05:24:02 11.4 C 63 % 4.62 C
1474 25-04-2006 05:34:02 11.3 C 64 % 4.75 C
1475 25-04-2006 05:44:02 11 C 63 % 4.24 C
Sensor: Nr:Datum:Temp:Feuchte:Taupunkt:
Aussen-T/F 1476 25-04-2006 05:54:02 10.7 C 63 % 3.95 C
1477 25-04-2006 06:04:02 10.7 C 64 % 4.18 C
1478 25-04-2006 06:14:02 10.7 C 63 % 3.95 C
1479 25-04-2006 06:24:02 10.6 C 63 % 3.86 C
1480 25-04-2006 06:34:02 10.7 C 65 % 4.4 C
1481 25-04-2006 06:44:02 10.9 C 65 % 4.59 C
1482 25-04-2006 06:54:01 11.3 C 62 % 4.29 C
1483 25-04-2006 07:04:02 11.4 C 64 % 4.84 C
1484 25-04-2006 07:14:02 11.5 C 66 % 5.38 C
1485 25-04-2006 07:24:02 11.7 C 65 % 5.35 C
1486 25-04-2006 07:34:02 11.8 C 66 % 5.66 C
1487 25-04-2006 07:44:02 12 C 66 % 5.85 C
1488 25-04-2006 07:54:03 11.9 C 67 % 5.98 C
1489 25-04-2006 08:04:02 12.1 C 66 % 5.95 C
1490 25-04-2006 08:14:02 12.3 C 65 % 5.92 C
1491 25-04-2006 08:24:02 12.2 C 66 % 6.04 C
1492 25-04-2006 08:34:02 12.2 C 65 % 5.82 C
1493 25-04-2006 08:44:02 12.1 C 66 % 5.95 C
1494 25-04-2006 08:54:02 12.5 C 64 % 5.88 C
1495 25-04-2006 09:04:01 12.7 C 64 % 6.07 C
1496 25-04-2006 09:14:01 12.8 C 64 % 6.17 C
1497 25-04-2006 09:24:01 12.9 C 63 % 6.04 C
1498 25-04-2006 09:34:03 13.4 C 61 % 6.04 C
1499 25-04-2006 09:44:03 14 C 58 % 5.88 C
1500 25-04-2006 09:54:01 14.5 C 55 % 5.58 C
Sensor: Nr:Datum:Temp:Feuchte:Taupunkt:
Aussen-T/F 1501 25-04-2006 10:04:02 15 C 52 % 5.24 C
1502 25-04-2006 10:14:02 15.6 C 52 % 5.79 C
1503 25-04-2006 10:24:02 16 C 49 % 5.3 C
1504 25-04-2006 10:34:02 16.2 C 48 % 5.19 C
1505 25-04-2006 10:44:03 16.7 C 46 % 5.04 C
1506 25-04-2006 10:54:02 17.6 C 44 % 5.22 C
1507 25-04-2006 11:04:02 18.9 C 42 % 5.72 C
1508 25-04-2006 11:14:02 19.6 C 40 % 5.64 C
1509 25-04-2006 11:24:02 20.2 C 38 % 5.44 C
1510 25-04-2006 11:34:03 21.2 C 35 % 5.14 C
1511 25-04-2006 11:44:03 21.3 C 36 % 5.64 C
1512 25-04-2006 11:54:02 21.1 C 35 % 5.06 C
1513 25-04-2006 12:04:02 20.5 C 38 % 5.71 C
1514 25-04-2006 12:14:02 20.6 C 39 % 6.17 C
1515 25-04-2006 12:24:02 21 C 35 % 4.97 C
1516 25-04-2006 12:34:02 20.9 C 35 % 4.88 C
1517 25-04-2006 12:44:02 20.5 C 35 % 4.53 C
1518 25-04-2006 12:54:02 21.4 C 33 % 4.48 C
1519 25-04-2006 13:04:02 21.2 C 32 % 3.87 C
1520 25-04-2006 13:14:02 21.1 C 33 % 4.22 C
1521 25-04-2006 13:24:02 21.3 C 32 % 3.95 C
1522 25-04-2006 13:34:03 21.2 C 31 % 3.42 C
1523 25-04-2006 13:44:03 21.7 C 30 % 3.39 C
1524 25-04-2006 13:54:02 21.9 C 30 % 3.56 C
1525 25-04-2006 14:04:02 22.3 C 30 % 3.9 C
Sensor: Nr:Datum:Temp:Feuchte:Taupunkt:
Aussen-T/F 1526 25-04-2006 14:14:02 22.8 C 29 % 3.85 C
1527 25-04-2006 14:24:02 23.2 C 26 % 2.65 C
1528 25-04-2006 14:34:03 23.5 C 28 % 3.96 C
1529 25-04-2006 14:44:03 23.8 C 28 % 4.21 C
1530 25-04-2006 14:54:02 24.4 C 27 % 4.21 C
1531 25-04-2006 15:04:02 24.6 C 26 % 3.84 C
1532 25-04-2006 15:14:02 24.4 C 26 % 3.67 C
1533 25-04-2006 15:24:02 24.1 C 28 % 4.47 C
1534 25-04-2006 15:34:03 23.9 C 30 % 5.28 C
1535 25-04-2006 15:44:03 23.9 C 30 % 5.28 C
1536 25-04-2006 15:54:02 24 C 27 % 3.87 C
1537 25-04-2006 16:04:02 23.9 C 27 % 3.78 C
1538 25-04-2006 16:14:02 26.1 C 23 % 3.37 C
1539 25-04-2006 16:24:02 27 C 22 % 3.49 C
1540 25-04-2006 16:34:03 27.3 C 21 % 3.08 C
1541 25-04-2006 16:44:03 27.7 C 22 % 4.07 C
1542 25-04-2006 16:54:02 27.7 C 22 % 4.07 C
1543 25-04-2006 17:04:02 27.7 C 24 % 5.31 C
1544 25-04-2006 17:14:02 27.4 C 24 % 5.06 C
1545 25-04-2006 17:24:02 27.2 C 24 % 4.89 C
1546 25-04-2006 17:34:02 26.5 C 26 % 5.45 C
1547 25-04-2006 17:44:02 25 C 29 % 5.74 C
1548 25-04-2006 17:54:02 23.9 C 34 % 7.1 C
1549 25-04-2006 18:04:01 23.1 C 36 % 7.23 C
1550 25-04-2006 18:14:01 23 C 37 % 7.54 C
Sensor: Nr:Datum:Temp:Feuchte:Taupunkt:
Aussen-T/F 1551 25-04-2006 18:24:01 22.7 C 39 % 8.04 C
1552 25-04-2006 18:34:02 22.5 C 40 % 8.24 C
1553 25-04-2006 18:44:02 22 C 41 % 8.15 C
1554 25-04-2006 18:54:02 22.1 C 42 % 8.6 C
1555 25-04-2006 19:04:01 22.1 C 44 % 9.29 C
1556 25-04-2006 19:14:01 21.7 C 46 % 9.58 C
1557 25-04-2006 19:24:01 21.5 C 46 % 9.4 C
1558 25-04-2006 19:34:02 21.2 C 46 % 9.13 C
1559 25-04-2006 19:44:02 20.7 C 48 % 9.3 C
1560 25-04-2006 19:54:02 20.5 C 49 % 9.43 C
1561 25-04-2006 20:04:01 19.8 C 51 % 9.38 C
1562 25-04-2006 20:14:01 19.7 C 52 % 9.58 C
1563 25-04-2006 20:24:01 19.7 C 50 % 8.99 C
1564 25-04-2006 20:34:02 19.6 C 52 % 9.48 C
1565 25-04-2006 20:44:02 19.2 C 52 % 9.11 C
1566 25-04-2006 20:54:02 19.2 C 51 % 8.83 C
1567 25-04-2006 21:04:02 19.1 C 52 % 9.02 C
1568 25-04-2006 21:14:02 18.9 C 53 % 9.12 C
1569 25-04-2006 21:24:02 18.7 C 55 % 9.48 C
1570 25-04-2006 21:34:03 18.3 C 57 % 9.64 C
1571 25-04-2006 21:44:03 18.2 C 57 % 9.55 C
1572 25-04-2006 21:54:03 18 C 58 % 9.62 C
1573 25-04-2006 22:04:02 18 C 58 % 9.62 C
1574 25-04-2006 22:14:02 18 C 58 % 9.62 C
1575 25-04-2006 22:24:02 17.9 C 60 % 10.03 C
Sensor: Nr:Datum:Temp:Feuchte:Taupunkt:
Aussen-T/F 1576 25-04-2006 22:34:02 17.5 C 60 % 9.66 C
1577 25-04-2006 22:44:02 17.6 C 60 % 9.75 C
1578 25-04-2006 22:54:01 17.5 C 60 % 9.66 C
1579 25-04-2006 23:04:01 17.4 C 60 % 9.56 C
1580 25-04-2006 23:14:01 17.4 C 61 % 9.81 C
1581 25-04-2006 23:24:01 17.3 C 61 % 9.71 C
1582 25-04-2006 23:34:02 17 C 62 % 9.67 C
1583 25-04-2006 23:44:02 17 C 62 % 9.67 C
1584 25-04-2006 23:54:02 17 C 63 % 9.91 C
1585 26-04-2006 00:04:02 16.9 C 64 % 10.05 C
1586 26-04-2006 00:14:02 16.9 C 65 % 10.28 C
1587 26-04-2006 00:24:03 16.8 C 66 % 10.42 C
1588 26-04-2006 00:34:02 16.6 C 68 % 10.67 C
1589 26-04-2006 00:44:02 16.3 C 69 % 10.61 C
1590 26-04-2006 00:54:03 16.2 C 70 % 10.73 C
1591 26-04-2006 01:04:03 16 C 71 % 10.75 C
1592 26-04-2006 01:14:03 15.7 C 73 % 10.88 C
1593 26-04-2006 01:24:02 15.7 C 74 % 11.08 C
1594 26-04-2006 01:34:02 15.8 C 74 % 11.18 C
1595 26-04-2006 01:44:02 15.9 C 74 % 11.28 C
1596 26-04-2006 01:54:02 15.8 C 74 % 11.18 C
1597 26-04-2006 02:04:02 15.6 C 75 % 11.19 C
1598 26-04-2006 02:14:02 15.5 C 76 % 11.29 C
1599 26-04-2006 02:24:01 15.5 C 76 % 11.29 C
1600 26-04-2006 02:34:01 15.6 C 75 % 11.19 C
Sensor: Nr:Datum:Temp:Feuchte:Taupunkt:
Aussen-T/F 1601 26-04-2006 02:44:01 15.4 C 76 % 11.19 C
1602 26-04-2006 02:55:04 15.2 C 77 % 11.2 C
1603 26-04-2006 03:05:04 15.4 C 77 % 11.39 C
1604 26-04-2006 03:15:04 15.4 C 76 % 11.19 C
1605 26-04-2006 03:25:04 15.4 C 76 % 11.19 C
1606 26-04-2006 03:35:03 15.4 C 76 % 11.19 C
1607 26-04-2006 03:45:03 15.3 C 76 % 11.1 C
1608 26-04-2006 03:55:03 15.2 C 77 % 11.2 C
1609 26-04-2006 04:05:02 15.2 C 76 % 11 C
1610 26-04-2006 04:15:02 15.1 C 77 % 11.1 C
1611 26-04-2006 04:25:03 15 C 78 % 11.2 C
1612 26-04-2006 04:35:02 14.8 C 79 % 11.2 C
1613 26-04-2006 04:45:02 14.8 C 79 % 11.2 C
1614 26-04-2006 04:55:03 14.8 C 80 % 11.39 C
1615 26-04-2006 05:05:02 14.8 C 79 % 11.2 C
1616 26-04-2006 05:15:02 14.8 C 79 % 11.2 C
1617 26-04-2006 05:25:03 14.7 C 80 % 11.29 C
1618 26-04-2006 05:35:02 14.7 C 80 % 11.29 C
1619 26-04-2006 05:45:01 14.7 C 80 % 11.29 C
1620 26-04-2006 05:55:01 14.7 C 80 % 11.29 C
1621 26-04-2006 06:05:01 14.7 C 80 % 11.29 C
1622 26-04-2006 06:15:02 14.5 C 80 % 11.09 C
1623 26-04-2006 06:25:02 14.5 C 80 % 11.09 C
1624 26-04-2006 06:35:02 14.5 C 81 % 11.28 C
1625 26-04-2006 06:45:02 14.5 C 81 % 11.28 C
Sensor: Nr:Datum:Temp:Feuchte:Taupunkt:
Aussen-T/F 1626 26-04-2006 06:55:02 14.7 C 81 % 11.48 C
1627 26-04-2006 07:05:02 14.4 C 80 % 11 C
1628 26-04-2006 07:15:02 14.3 C 79 % 10.71 C
1629 26-04-2006 07:25:02 14.4 C 78 % 10.62 C
1630 26-04-2006 07:35:02 14.2 C 80 % 10.8 C
1631 26-04-2006 07:45:02 13.9 C 83 % 11.06 C
1632 26-04-2006 07:55:02 13.7 C 85 % 11.23 C
1633 26-04-2006 08:05:02 13.5 C 87 % 11.38 C
1634 26-04-2006 08:15:02 13.3 C 88 % 11.36 C
1635 26-04-2006 08:25:02 13.3 C 89 % 11.53 C
1636 26-04-2006 08:35:02 13.4 C 90 % 11.79 C
1637 26-04-2006 08:45:02 13.5 C 91 % 12.06 C
1638 26-04-2006 08:55:03 13.5 C 91 % 12.06 C
1639 26-04-2006 09:05:02 13.6 C 91 % 12.16 C
1640 26-04-2006 09:15:02 13.7 C 91 % 12.26 C
1641 26-04-2006 09:25:02 13.5 C 91 % 12.06 C
1642 26-04-2006 09:35:02 13.7 C 91 % 12.26 C
1643 26-04-2006 09:45:02 13.4 C 91 % 11.96 C
1644 26-04-2006 09:55:03 13.6 C 91 % 12.16 C
1645 26-04-2006 10:05:02 13.4 C 91 % 11.96 C
1646 26-04-2006 10:15:02 13.8 C 92 % 12.52 C
1647 26-04-2006 10:25:02 14 C 91 % 12.56 C
1648 26-04-2006 10:35:03 14 C 91 % 12.56 C
1649 26-04-2006 10:45:02 14 C 91 % 12.56 C
1650 26-04-2006 10:55:02 14 C 91 % 12.56 C
Sensor: Nr:Datum:Temp:Feuchte:Taupunkt:
Aussen-T/F 1651 26-04-2006 11:05:02 14 C 91 % 12.56 C
1652 26-04-2006 11:15:02 14 C 90 % 12.39 C
1653 26-04-2006 11:25:02 14 C 89 % 12.22 C
1654 26-04-2006 11:35:02 14 C 89 % 12.22 C
1655 26-04-2006 11:45:02 14.5 C 90 % 12.88 C
1656 26-04-2006 11:55:03 14.8 C 88 % 12.83 C
1657 26-04-2006 12:05:02 15 C 86 % 12.68 C
1658 26-04-2006 12:15:01 15.1 C 85 % 12.6 C
1659 26-04-2006 12:25:01 15 C 84 % 12.32 C
1660 26-04-2006 12:35:02 15.1 C 84 % 12.42 C
1661 26-04-2006 12:45:02 15.6 C 84 % 12.91 C
1662 26-04-2006 12:55:02 15.7 C 81 % 12.45 C
1663 26-04-2006 13:05:02 15.9 C 82 % 12.83 C
1664 26-04-2006 13:15:01 15.9 C 81 % 12.65 C
1665 26-04-2006 13:25:01 16 C 80 % 12.55 C
1666 26-04-2006 13:35:02 16.1 C 79 % 12.46 C
1667 26-04-2006 13:45:02 16.1 C 79 % 12.46 C
1668 26-04-2006 13:55:02 16.5 C 78 % 12.65 C
1669 26-04-2006 14:05:02 16.7 C 78 % 12.85 C
1670 26-04-2006 14:15:01 17 C 76 % 12.74 C
1671 26-04-2006 14:25:01 17.2 C 74 % 12.53 C
1672 26-04-2006 14:35:02 17.6 C 72 % 12.5 C
1673 26-04-2006 14:45:02 18 C 68 % 12.01 C
1674 26-04-2006 14:55:03 18.2 C 65 % 11.52 C
1675 26-04-2006 15:05:02 18.3 C 63 % 11.14 C
Sensor: Nr:Datum:Temp:Feuchte:Taupunkt:
Aussen-T/F 1676 26-04-2006 15:15:01 17.9 C 62 % 10.52 C
1677 26-04-2006 15:25:01 17.7 C 64 % 10.81 C
1678 26-04-2006 15:35:02 17.5 C 65 % 10.85 C
1679 26-04-2006 15:45:02 18 C 63 % 10.86 C
1680 26-04-2006 15:55:02 18 C 62 % 10.62 C
1681 26-04-2006 16:05:01 17.7 C 62 % 10.33 C
1682 26-04-2006 16:15:01 17.2 C 63 % 10.1 C
1683 26-04-2006 16:25:01 17.3 C 65 % 10.66 C
1684 26-04-2006 16:35:02 17.2 C 64 % 10.34 C
1685 26-04-2006 16:45:02 17.2 C 62 % 9.86 C
1686 26-04-2006 16:55:02 17.5 C 62 % 10.15 C
1687 26-04-2006 17:05:02 17.7 C 61 % 10.09 C
1688 26-04-2006 17:15:02 17.3 C 60 % 9.47 C
1689 26-04-2006 17:25:02 17.3 C 60 % 9.47 C
1690 26-04-2006 17:35:02 17.4 C 60 % 9.56 C
1691 26-04-2006 17:45:01 17.5 C 60 % 9.66 C
1692 26-04-2006 17:55:01 17.1 C 60 % 9.28 C
1693 26-04-2006 18:05:02 16.9 C 61 % 9.34 C
1694 26-04-2006 18:15:02 16.6 C 63 % 9.53 C
1695 26-04-2006 18:25:03 16.2 C 65 % 9.62 C
1696 26-04-2006 18:35:02 15.4 C 73 % 10.59 C
1697 26-04-2006 18:45:02 15 C 75 % 10.61 C
1698 26-04-2006 18:55:03 14.8 C 79 % 11.2 C
1699 26-04-2006 19:05:02 14.7 C 79 % 11.1 C
1700 26-04-2006 19:15:02 14.5 C 78 % 10.71 C
Sensor: Nr:Datum:Temp:Feuchte:Taupunkt:
Aussen-T/F 1701 26-04-2006 19:25:02 14.2 C 78 % 10.42 C
1702 26-04-2006 19:35:03 14.2 C 77 % 10.23 C
1703 26-04-2006 19:45:02 14.3 C 76 % 10.13 C
1704 26-04-2006 19:55:03 14.5 C 75 % 10.13 C
1705 26-04-2006 20:05:02 14.8 C 75 % 10.42 C
1706 26-04-2006 20:15:02 14.8 C 75 % 10.42 C
1707 26-04-2006 20:25:02 14.8 C 75 % 10.42 C
1708 26-04-2006 20:35:02 14.8 C 77 % 10.81 C
1709 26-04-2006 20:45:03 14.6 C 78 % 10.81 C
1710 26-04-2006 20:55:03 14.4 C 78 % 10.62 C
1711 26-04-2006 21:05:03 14.2 C 76 % 10.03 C
1712 26-04-2006 21:15:02 14.2 C 76 % 10.03 C
1713 26-04-2006 21:25:02 14.5 C 76 % 10.32 C
1714 26-04-2006 21:35:02 14.4 C 76 % 10.23 C
1715 26-04-2006 21:45:02 14.4 C 76 % 10.23 C
1716 26-04-2006 21:55:03 14.4 C 77 % 10.42 C
1717 26-04-2006 22:05:01 14.3 C 77 % 10.33 C
1718 26-04-2006 22:15:01 14.2 C 78 % 10.42 C
1719 26-04-2006 22:25:01 14.1 C 79 % 10.52 C
1720 26-04-2006 22:35:02 14.1 C 78 % 10.33 C
1721 26-04-2006 22:45:01 14.1 C 78 % 10.33 C
1722 26-04-2006 22:55:01 14.1 C 80 % 10.71 C
1723 26-04-2006 23:05:01 14 C 80 % 10.61 C
1724 26-04-2006 23:15:01 13.9 C 80 % 10.51 C
1725 26-04-2006 23:25:01 13.9 C 80 % 10.51 C
Sensor: Nr:Datum:Temp:Feuchte:Taupunkt:
Aussen-T/F 1726 26-04-2006 23:35:02 13.9 C 81 % 10.7 C
1727 26-04-2006 23:45:02 13.9 C 81 % 10.7 C
1728 26-04-2006 23:55:02 13.8 C 81 % 10.6 C
1729 27-04-2006 00:05:02 13.8 C 82 % 10.78 C
1730 27-04-2006 00:15:03 13.7 C 83 % 10.87 C
1731 27-04-2006 00:25:03 13.7 C 83 % 10.87 C
1732 27-04-2006 00:35:03 13.6 C 82 % 10.59 C
1733 27-04-2006 00:45:02 13.6 C 82 % 10.59 C
1734 27-04-2006 00:55:02 13.6 C 81 % 10.4 C
1735 27-04-2006 01:05:01 13.7 C 81 % 10.5 C
1736 27-04-2006 01:15:02 13.7 C 81 % 10.5 C
1737 27-04-2006 01:25:03 13.7 C 80 % 10.32 C
1738 27-04-2006 01:35:02 13.7 C 80 % 10.32 C
1739 27-04-2006 01:45:02 13.7 C 80 % 10.32 C
1740 27-04-2006 01:55:02 13.6 C 80 % 10.22 C
1741 27-04-2006 02:05:02 13.6 C 80 % 10.22 C
1742 27-04-2006 02:15:02 13.6 C 80 % 10.22 C
1743 27-04-2006 02:25:02 13.6 C 80 % 10.22 C
1744 27-04-2006 02:35:02 13.6 C 80 % 10.22 C
1745 27-04-2006 02:46:03 13.5 C 80 % 10.12 C
1746 27-04-2006 02:56:03 13.5 C 80 % 10.12 C
1747 27-04-2006 03:06:03 13.4 C 81 % 10.21 C
1748 27-04-2006 03:16:04 13.5 C 80 % 10.12 C
1749 27-04-2006 03:26:04 13.4 C 80 % 10.02 C
1750 27-04-2006 03:36:02 13.4 C 80 % 10.02 C
Sensor: Nr:Datum:Temp:Feuchte:Taupunkt:
Aussen-T/F 1751 27-04-2006 03:46:02 13.3 C 80 % 9.93 C
1752 27-04-2006 03:56:02 13.1 C 79 % 9.54 C
1753 27-04-2006 04:06:02 13.1 C 79 % 9.54 C
1754 27-04-2006 04:16:01 13 C 79 % 9.45 C
1755 27-04-2006 04:26:01 12.9 C 79 % 9.35 C
1756 27-04-2006 04:36:01 12.8 C 78 % 9.06 C
1757 27-04-2006 04:46:02 12.7 C 78 % 8.97 C
1758 27-04-2006 04:56:02 12.5 C 78 % 8.77 C
1759 27-04-2006 05:06:02 12.5 C 77 % 8.58 C
1760 27-04-2006 05:16:02 12.5 C 76 % 8.39 C
1761 27-04-2006 05:26:02 12.5 C 76 % 8.39 C
1762 27-04-2006 05:36:02 12.3 C 76 % 8.2 C
1763 27-04-2006 05:46:02 12.3 C 76 % 8.2 C
1764 27-04-2006 05:56:02 12.3 C 76 % 8.2 C
1765 27-04-2006 06:06:01 12.2 C 76 % 8.1 C
1766 27-04-2006 06:16:02 12.3 C 77 % 8.39 C
1767 27-04-2006 06:26:02 12.4 C 76 % 8.29 C
1768 27-04-2006 06:36:02 12.3 C 76 % 8.2 C
1769 27-04-2006 06:46:02 12.3 C 76 % 8.2 C
1770 27-04-2006 06:56:02 12.4 C 76 % 8.29 C
1771 27-04-2006 07:06:02 12.3 C 76 % 8.2 C
1772 27-04-2006 07:16:01 12.2 C 77 % 8.29 C
1773 27-04-2006 07:26:01 12.4 C 77 % 8.49 C
1774 27-04-2006 07:36:01 12.3 C 77 % 8.39 C
1775 27-04-2006 07:46:02 12.3 C 77 % 8.39 C
Sensor: Nr:Datum:Temp:Feuchte:Taupunkt:
Aussen-T/F 1776 27-04-2006 07:56:03 12.4 C 78 % 8.68 C
1777 27-04-2006 08:06:02 12.4 C 77 % 8.49 C
1778 27-04-2006 08:16:01 12.3 C 77 % 8.39 C
1779 27-04-2006 08:26:01 12.2 C 78 % 8.48 C
1780 27-04-2006 08:36:01 12.3 C 78 % 8.58 C
1781 27-04-2006 08:46:02 12.3 C 78 % 8.58 C
1782 27-04-2006 08:56:03 12.4 C 78 % 8.68 C
1783 27-04-2006 09:06:02 12.2 C 78 % 8.48 C
1784 27-04-2006 09:16:01 12 C 79 % 8.48 C
1785 27-04-2006 09:26:01 12 C 80 % 8.66 C
1786 27-04-2006 09:36:01 12.2 C 80 % 8.86 C
1787 27-04-2006 09:46:02 12.4 C 79 % 8.86 C
1788 27-04-2006 09:56:02 12.4 C 79 % 8.86 C
1789 27-04-2006 10:06:02 12.2 C 79 % 8.67 C
1790 27-04-2006 10:16:01 12.2 C 80 % 8.86 C
1791 27-04-2006 10:26:01 12.4 C 81 % 9.23 C
1792 27-04-2006 10:36:01 12.3 C 81 % 9.14 C
1793 27-04-2006 10:46:02 12.3 C 81 % 9.14 C
1794 27-04-2006 10:56:02 12.3 C 81 % 9.14 C
1795 27-04-2006 11:06:02 12.3 C 81 % 9.14 C
1796 27-04-2006 11:16:01 12.3 C 81 % 9.14 C
1797 27-04-2006 11:26:01 12.4 C 80 % 9.05 C
1798 27-04-2006 11:36:01 12.5 C 81 % 9.33 C
1799 27-04-2006 11:46:02 12.4 C 81 % 9.23 C
1800 27-04-2006 11:56:02 12.3 C 82 % 9.32 C
Sensor: Nr:Datum:Temp:Feuchte:Taupunkt:
Aussen-T/F 1801 27-04-2006 12:06:02 12.3 C 82 % 9.32 C
1802 27-04-2006 12:16:01 12.3 C 84 % 9.68 C
1803 27-04-2006 12:26:01 12.1 C 84 % 9.48 C
1804 27-04-2006 12:36:01 12 C 85 % 9.56 C
1805 27-04-2006 12:46:02 12.1 C 86 % 9.83 C
1806 27-04-2006 12:56:03 12 C 86 % 9.73 C
1807 27-04-2006 13:06:01 12.4 C 85 % 9.95 C
1808 27-04-2006 13:16:01 12 C 85 % 9.56 C
1809 27-04-2006 13:26:01 12 C 84 % 9.38 C
1810 27-04-2006 13:36:02 12.1 C 84 % 9.48 C
1811 27-04-2006 13:46:02 12.1 C 83 % 9.3 C
1812 27-04-2006 13:56:03 12.2 C 84 % 9.58 C
1813 27-04-2006 14:06:01 12.3 C 82 % 9.32 C
1814 27-04-2006 14:16:01 12.5 C 82 % 9.51 C
1815 27-04-2006 14:26:01 12.6 C 80 % 9.25 C
1816 27-04-2006 14:36:02 12.7 C 78 % 8.97 C
1817 27-04-2006 14:46:02 12.8 C 78 % 9.06 C
1818 27-04-2006 14:56:03 13 C 77 % 9.07 C
1819 27-04-2006 15:06:01 13.1 C 76 % 8.97 C
1820 27-04-2006 15:16:01 12.9 C 77 % 8.97 C
1821 27-04-2006 15:26:01 12.5 C 80 % 9.15 C
1822 27-04-2006 15:36:02 12.4 C 82 % 9.42 C
1823 27-04-2006 15:46:01 12.1 C 81 % 8.94 C
1824 27-04-2006 15:56:02 12.1 C 78 % 8.38 C
1825 27-04-2006 16:06:01 12.1 C 75 % 7.81 C
Sensor: Nr:Datum:Temp:Feuchte:Taupunkt:
Aussen-T/F 1826 27-04-2006 16:16:01 12.4 C 75 % 8.1 C
1827 27-04-2006 16:26:01 12.6 C 73 % 7.89 C
1828 27-04-2006 16:36:02 12.8 C 70 % 7.47 C
1829 27-04-2006 16:46:01 13.1 C 72 % 8.17 C
1830 27-04-2006 16:56:02 13.1 C 72 % 8.17 C
1831 27-04-2006 17:06:01 13 C 73 % 8.28 C
1832 27-04-2006 17:16:01 12.9 C 74 % 8.38 C
1833 27-04-2006 17:26:01 13 C 73 % 8.28 C
1834 27-04-2006 17:36:02 12.9 C 74 % 8.38 C
1835 27-04-2006 17:46:02 12.9 C 74 % 8.38 C
1836 27-04-2006 17:56:02 12.9 C 73 % 8.18 C
1837 27-04-2006 18:06:03 12.6 C 73 % 7.89 C
1838 27-04-2006 18:16:03 12.5 C 74 % 8 C
1839 27-04-2006 18:26:03 12.5 C 72 % 7.6 C
1840 27-04-2006 18:36:04 12.7 C 71 % 7.58 C
1841 27-04-2006 18:46:01 12.8 C 71 % 7.68 C
1842 27-04-2006 18:56:01 12.8 C 70 % 7.47 C
1843 27-04-2006 19:06:02 12.8 C 69 % 7.26 C
1844 27-04-2006 19:16:01 12.9 C 70 % 7.57 C
1845 27-04-2006 19:26:01 12.8 C 70 % 7.47 C
1846 27-04-2006 19:36:01 12.8 C 70 % 7.47 C
1847 27-04-2006 19:46:02 12.6 C 71 % 7.49 C
1848 27-04-2006 19:56:03 12.5 C 71 % 7.39 C
1849 27-04-2006 20:06:02 12.4 C 71 % 7.3 C
1850 27-04-2006 20:16:01 12.4 C 71 % 7.3 C
Sensor: Nr:Datum:Temp:Feuchte:Taupunkt:
Aussen-T/F 1851 27-04-2006 20:26:01 12.3 C 73 % 7.61 C
1852 27-04-2006 20:36:02 12.3 C 75 % 8 C
1853 27-04-2006 20:46:02 12.1 C 74 % 7.61 C
1854 27-04-2006 20:56:03 12 C 74 % 7.52 C
1855 27-04-2006 21:06:02 11.9 C 75 % 7.62 C
1856 27-04-2006 21:16:02 11.8 C 75 % 7.52 C
1857 27-04-2006 21:26:02 11.8 C 76 % 7.71 C
1858 27-04-2006 21:36:02 11.8 C 76 % 7.71 C
1859 27-04-2006 21:46:02 11.8 C 76 % 7.71 C
1860 27-04-2006 21:56:02 11.8 C 77 % 7.9 C
1861 27-04-2006 22:06:03 11.8 C 77 % 7.9 C
1862 27-04-2006 22:16:03 11.8 C 77 % 7.9 C
1863 27-04-2006 22:26:03 11.7 C 78 % 8 C
1864 27-04-2006 22:36:02 11.7 C 78 % 8 C
1865 27-04-2006 22:46:02 11.6 C 78 % 7.9 C
1866 27-04-2006 22:56:03 11.6 C 78 % 7.9 C
1867 27-04-2006 23:06:02 11.5 C 78 % 7.8 C
1868 27-04-2006 23:16:02 11.4 C 78 % 7.71 C
1869 27-04-2006 23:26:02 11.4 C 78 % 7.71 C
1870 27-04-2006 23:36:02 11.4 C 79 % 7.89 C
1871 27-04-2006 23:46:02 11.3 C 79 % 7.8 C
1872 27-04-2006 23:56:02 11.2 C 80 % 7.88 C
1873 28-04-2006 00:06:02 11.1 C 80 % 7.79 C
1874 28-04-2006 00:16:02 11.1 C 80 % 7.79 C
1875 28-04-2006 00:26:02 10.9 C 81 % 7.77 C
Sensor: Nr:Datum:Temp:Feuchte:Taupunkt:
Aussen-T/F 1876 28-04-2006 00:36:02 10.7 C 79 % 7.21 C
1877 28-04-2006 00:46:02 10.7 C 75 % 6.46 C
1878 28-04-2006 00:56:02 10.7 C 73 % 6.07 C
1879 28-04-2006 01:06:02 10.5 C 74 % 6.07 C
1880 28-04-2006 01:16:02 10.3 C 73 % 5.68 C
1881 28-04-2006 01:26:02 10.1 C 74 % 5.68 C
1882 28-04-2006 01:36:01 9.9 C 75 % 5.68 C
1883 28-04-2006 01:46:02 9.6 C 76 % 5.58 C
1884 28-04-2006 01:56:02 9.3 C 77 % 5.48 C
1885 28-04-2006 02:06:03 9 C 77 % 5.19 C
1886 28-04-2006 02:16:02 8.8 C 78 % 5.18 C
1887 28-04-2006 02:26:02 8.6 C 78 % 4.99 C
1888 28-04-2006 02:36:02 8.4 C 80 % 5.16 C
1889 28-04-2006 02:47:04 8.2 C 81 % 5.14 C
1890 28-04-2006 02:57:04 8 C 81 % 4.94 C
1891 28-04-2006 03:07:04 8 C 82 % 5.12 C
1892 28-04-2006 03:17:03 7.9 C 83 % 5.2 C
1893 28-04-2006 03:27:03 7.7 C 83 % 5 C
1894 28-04-2006 03:37:02 7.8 C 83 % 5.1 C
1895 28-04-2006 03:47:02 7.7 C 82 % 4.83 C
1896 28-04-2006 03:57:02 7.7 C 82 % 4.83 C
1897 28-04-2006 04:07:02 7.8 C 81 % 4.75 C
1898 28-04-2006 04:17:03 7.8 C 81 % 4.75 C
1899 28-04-2006 04:27:03 7.8 C 80 % 4.57 C
1900 28-04-2006 04:37:02 7.8 C 80 % 4.57 C
Sensor: Nr:Datum:Temp:Feuchte:Taupunkt:
Aussen-T/F 1901 28-04-2006 04:47:02 7.6 C 81 % 4.55 C
1902 28-04-2006 04:57:02 7.4 C 81 % 4.36 C
1903 28-04-2006 05:07:02 7.3 C 82 % 4.44 C
1904 28-04-2006 05:17:02 7.3 C 82 % 4.44 C
1905 28-04-2006 05:27:02 7 C 83 % 4.32 C
1906 28-04-2006 05:37:02 6.9 C 83 % 4.22 C
1907 28-04-2006 05:47:02 6.8 C 84 % 4.29 C
1908 28-04-2006 05:57:02 6.6 C 84 % 4.1 C
1909 28-04-2006 06:07:02 6.5 C 84 % 4 C
1910 28-04-2006 06:17:02 6.7 C 82 % 3.85 C
1911 28-04-2006 06:27:02 6.8 C 80 % 3.6 C
1912 28-04-2006 06:37:02 6.7 C 80 % 3.5 C
1913 28-04-2006 06:47:03 6.6 C 80 % 3.4 C
1914 28-04-2006 06:57:03 6.6 C 80 % 3.4 C
1915 28-04-2006 07:07:02 6.6 C 80 % 3.4 C
1916 28-04-2006 07:17:02 6.7 C 80 % 3.5 C
1917 28-04-2006 07:27:02 6.8 C 80 % 3.6 C
1918 28-04-2006 07:37:02 7 C 76 % 3.07 C
1919 28-04-2006 07:47:02 7.2 C 75 % 3.07 C
1920 28-04-2006 07:57:02 7.4 C 74 % 3.08 C
1921 28-04-2006 08:07:01 7.4 C 73 % 2.89 C
1922 28-04-2006 08:17:01 7.5 C 73 % 2.98 C
1923 28-04-2006 08:27:01 7.6 C 72 % 2.88 C
1924 28-04-2006 08:37:01 7.7 C 73 % 3.18 C
1925 28-04-2006 08:47:02 7.9 C 74 % 3.56 C
Sensor: Nr:Datum:Temp:Feuchte:Taupunkt:
Aussen-T/F 1926 28-04-2006 08:57:02 8 C 72 % 3.27 C
1927 28-04-2006 09:07:01 8.1 C 73 % 3.56 C
1928 28-04-2006 09:17:01 8.6 C 72 % 3.85 C
1929 28-04-2006 09:27:01 8.7 C 71 % 3.74 C
1930 28-04-2006 09:37:01 8.4 C 70 % 3.26 C
1931 28-04-2006 09:47:02 8.6 C 69 % 3.24 C
1932 28-04-2006 09:57:02 8.2 C 70 % 3.06 C
1933 28-04-2006 10:07:01 8.2 C 70 % 3.06 C
1934 28-04-2006 10:17:01 8.4 C 70 % 3.26 C
1935 28-04-2006 10:27:01 8.5 C 69 % 3.15 C
1936 28-04-2006 10:37:01 8.7 C 68 % 3.13 C
1937 28-04-2006 10:47:01 9.3 C 65 % 3.07 C
1938 28-04-2006 10:57:01 9.2 C 64 % 2.76 C
1939 28-04-2006 11:07:01 9.7 C 64 % 3.23 C
1940 28-04-2006 11:17:01 9.7 C 63 % 3.01 C
1941 28-04-2006 11:27:01 10.1 C 61 % 2.93 C
1942 28-04-2006 11:37:01 10.6 C 59 % 2.93 C
1943 28-04-2006 11:47:02 10.9 C 59 % 3.21 C
1944 28-04-2006 11:57:02 11.4 C 56 % 2.95 C
1945 28-04-2006 12:07:02 11.7 C 54 % 2.71 C
1946 28-04-2006 12:17:02 11.9 C 53 % 2.64 C
1947 28-04-2006 12:27:02 12.3 C 52 % 2.74 C
1948 28-04-2006 12:37:02 12.5 C 48 % 1.8 C
1949 28-04-2006 12:47:02 13.1 C 46 % 1.76 C
1950 28-04-2006 12:57:02 13.1 C 45 % 1.45 C
Sensor: Nr:Datum:Temp:Feuchte:Taupunkt:
Aussen-T/F 1951 28-04-2006 13:07:02 13.2 C 45 % 1.54 C
1952 28-04-2006 13:17:02 13.1 C 45 % 1.45 C
1953 28-04-2006 13:27:02 13 C 46 % 1.67 C
1954 28-04-2006 13:37:03 12.9 C 47 % 1.87 C
1955 28-04-2006 13:47:02 13.4 C 44 % 1.41 C
1956 28-04-2006 13:57:03 14.3 C 43 % 1.91 C
1957 28-04-2006 14:07:02 14.6 C 41 % 1.51 C
1958 28-04-2006 14:17:02 14.7 C 42 % 1.94 C
1959 28-04-2006 14:27:02 15.2 C 40 % 1.71 C
1960 28-04-2006 14:37:03 14.7 C 41 % 1.6 C
1961 28-04-2006 14:47:02 15 C 38 % 0.82 C
1962 28-04-2006 14:57:02 16.3 C 37 % 1.6 C
1963 28-04-2006 15:07:02 15.7 C 37 % 1.07 C
1964 28-04-2006 15:17:02 15.3 C 37 % 0.71 C
1965 28-04-2006 15:27:02 14.7 C 39 % 0.91 C
1966 28-04-2006 15:37:02 14.9 C 36 % -0.02 C
1967 28-04-2006 15:47:01 15.4 C 36 % 0.42 C
1968 28-04-2006 15:57:01 15.3 C 37 % 0.71 C
1969 28-04-2006 16:07:02 15.9 C 35 % 0.48 C
1970 28-04-2006 16:17:02 16.9 C 34 % 0.96 C
1971 28-04-2006 16:27:02 15.5 C 35 % 0.12 C
1972 28-04-2006 16:37:02 15 C 33 % -1.12 C
1973 28-04-2006 16:47:02 16.8 C 33 % 0.46 C
1974 28-04-2006 16:57:02 16.1 C 31 % -1.01 C
1975 28-04-2006 17:07:02 15.7 C 31 % -1.36 C
Sensor: Nr:Datum:Temp:Feuchte:Taupunkt:
Aussen-T/F 1976 28-04-2006 17:17:02 15.2 C 31 % -1.79 C
1977 28-04-2006 17:27:02 14.9 C 33 % -1.21 C
1978 28-04-2006 17:37:03 14.5 C 33 % -1.56 C
1979 28-04-2006 17:47:03 14.8 C 33 % -1.3 C
1980 28-04-2006 17:57:03 14.7 C 31 % -2.23 C
1981 28-04-2006 18:07:03 14.7 C 31 % -2.23 C
1982 28-04-2006 18:17:02 14.8 C 33 % -1.3 C
1983 28-04-2006 18:27:03 16.3 C 28 % -2.22 C
1984 28-04-2006 18:37:02 16.3 C 23 % -4.84 C
1985 28-04-2006 18:47:02 15 C 25 % -4.84 C
1986 28-04-2006 18:57:02 15.2 C 27 % -3.65 C
1987 28-04-2006 19:07:02 15.7 C 26 % -3.73 C
1988 28-04-2006 19:17:02 14.8 C 30 % -2.58 C
1989 28-04-2006 19:27:02 14.4 C 32 % -2.06 C
1990 28-04-2006 19:37:02 13.7 C 33 % -2.26 C
1991 28-04-2006 19:47:02 13.7 C 34 % -1.86 C
1992 28-04-2006 19:57:02 13.5 C 35 % -1.64 C
1993 28-04-2006 20:07:02 13.2 C 35 % -1.91 C
1994 28-04-2006 20:17:02 13.1 C 36 % -1.61 C
1995 28-04-2006 20:27:02 12.9 C 37 % -1.42 C
1996 28-04-2006 20:37:02 12.7 C 38 % -1.23 C
1997 28-04-2006 20:47:01 12.5 C 40 % -0.71 C
1998 28-04-2006 20:57:01 12.5 C 43 % 0.28 C
1999 28-04-2006 21:07:01 12.3 C 45 % 0.72 C
2000 28-04-2006 21:17:01 12.2 C 48 % 1.53 C
Sensor: Nr:Datum:Temp:Feuchte:Taupunkt:
Aussen-T/F 2001 28-04-2006 21:27:01 11.4 C 52 % 1.91 C
2002 28-04-2006 21:37:02 10.8 C 52 % 1.35 C
2003 28-04-2006 21:47:02 10.8 C 50 % 0.81 C
2004 28-04-2006 21:57:03 10.7 C 47 % -0.14 C
2005 28-04-2006 22:07:02 10.5 C 47 % -0.32 C
2006 28-04-2006 22:17:02 10.3 C 47 % -0.5 C
2007 28-04-2006 22:27:02 9.9 C 46 % -1.16 C
2008 28-04-2006 22:37:03 9.7 C 46 % -1.34 C
2009 28-04-2006 22:47:02 9.7 C 46 % -1.34 C
2010 28-04-2006 22:57:02 9.6 C 47 % -1.14 C
2011 28-04-2006 23:07:02 9.4 C 49 % -0.76 C
2012 28-04-2006 23:17:01 9.2 C 50 % -0.67 C
2013 28-04-2006 23:27:02 9 C 52 % -0.31 C
2014 28-04-2006 23:37:01 8.8 C 54 % 0.02 C
2015 28-04-2006 23:47:02 8.6 C 56 % 0.33 C
2016 28-04-2006 23:57:03 8.4 C 58 % 0.63 C
2017 29-04-2006 00:07:02 8.3 C 60 % 1 C
2018 29-04-2006 00:17:02 8.4 C 61 % 1.33 C
2019 29-04-2006 00:27:02 8.5 C 62 % 1.65 C
2020 29-04-2006 00:37:01 8.4 C 62 % 1.55 C
2021 29-04-2006 00:47:02 8.3 C 62 % 1.46 C
2022 29-04-2006 00:57:02 8.3 C 62 % 1.46 C
2023 29-04-2006 01:07:02 8.4 C 61 % 1.33 C
2024 29-04-2006 01:17:02 8.4 C 61 % 1.33 C
2025 29-04-2006 01:27:02 8.2 C 62 % 1.37 C
Sensor: Nr:Datum:Temp:Feuchte:Taupunkt:
Aussen-T/F 2026 29-04-2006 01:37:02 8.2 C 59 % 0.68 C
2027 29-04-2006 01:47:02 8.1 C 58 % 0.35 C
2028 29-04-2006 01:57:02 7.9 C 58 % 0.16 C
2029 29-04-2006 02:07:02 7.8 C 59 % 0.3 C
2030 29-04-2006 02:17:01 7.8 C 60 % 0.53 C
2031 29-04-2006 02:27:01 7.6 C 58 % -0.12 C
2032 29-04-2006 02:37:02 7.4 C 55 % -1.03 C
2033 29-04-2006 02:48:04 6.8 C 55 % -1.59 C
2034 29-04-2006 02:58:04 6.6 C 56 % -1.54 C
2035 29-04-2006 03:08:04 6.4 C 55 % -1.97 C
2036 29-04-2006 03:18:04 6.3 C 56 % -1.82 C
2037 29-04-2006 03:28:04 6.3 C 55 % -2.06 C
2038 29-04-2006 03:38:02 6.2 C 55 % -2.15 C
2039 29-04-2006 03:48:02 6 C 54 % -2.59 C
2040 29-04-2006 03:58:02 5.7 C 54 % -2.87 C
2041 29-04-2006 04:08:03 5.7 C 54 % -2.87 C
2042 29-04-2006 04:18:02 5.5 C 55 % -2.81 C
2043 29-04-2006 04:28:02 5.3 C 58 % -2.28 C
2044 29-04-2006 04:38:02 5 C 62 % -1.66 C
2045 29-04-2006 04:48:02 4.8 C 64 % -1.42 C
2046 29-04-2006 04:58:02 4.6 C 64 % -1.61 C
2047 29-04-2006 05:08:02 4.7 C 64 % -1.51 C
2048 29-04-2006 05:18:02 4.7 C 63 % -1.73 C
2049 29-04-2006 05:28:02 4.6 C 64 % -1.61 C
2050 29-04-2006 05:38:02 4.7 C 64 % -1.51 C
Sensor: Nr:Datum:Temp:Feuchte:Taupunkt:
Aussen-T/F 2051 29-04-2006 05:48:02 4.8 C 64 % -1.42 C
2052 29-04-2006 05:58:02 4.9 C 64 % -1.32 C
2053 29-04-2006 06:08:02 5.1 C 63 % -1.35 C
2054 29-04-2006 06:18:01 5.1 C 63 % -1.35 C
2055 29-04-2006 06:28:02 5.1 C 64 % -1.13 C
2056 29-04-2006 06:38:01 5.1 C 64 % -1.13 C
2057 29-04-2006 06:48:02 5.2 C 64 % -1.04 C
2058 29-04-2006 06:58:02 5.3 C 64 % -0.94 C
2059 29-04-2006 07:08:01 5.4 C 63 % -1.06 C
2060 29-04-2006 07:18:01 5.4 C 63 % -1.06 C
2061 29-04-2006 07:28:01 5.6 C 63 % -0.87 C
2062 29-04-2006 07:38:02 5.6 C 63 % -0.87 C
2063 29-04-2006 07:48:02 5.7 C 63 % -0.78 C
2064 29-04-2006 07:58:02 5.7 C 63 % -0.78 C
2065 29-04-2006 08:08:01 5.7 C 62 % -1 C
2066 29-04-2006 08:18:01 5.8 C 62 % -0.9 C
2067 29-04-2006 08:28:01 5.8 C 61 % -1.13 C
2068 29-04-2006 08:38:01 5.9 C 60 % -1.26 C
2069 29-04-2006 08:48:02 6 C 59 % -1.39 C
2070 29-04-2006 08:58:02 6.3 C 57 % -1.58 C
2071 29-04-2006 09:08:01 6.4 C 56 % -1.72 C
2072 29-04-2006 09:18:01 6.7 C 55 % -1.69 C
2073 29-04-2006 09:28:01 6.9 C 52 % -2.26 C
2074 29-04-2006 09:38:01 6.8 C 52 % -2.35 C
2075 29-04-2006 09:48:02 6.5 C 50 % -3.16 C
Sensor: Nr:Datum:Temp:Feuchte:Taupunkt:
Aussen-T/F 2076 29-04-2006 09:58:02 7.3 C 49 % -2.69 C
2077 29-04-2006 10:08:02 7.2 C 47 % -3.34 C
2078 29-04-2006 10:18:02 7.8 C 46 % -3.08 C
2079 29-04-2006 10:28:02 7.7 C 46 % -3.17 C
2080 29-04-2006 10:38:02 7.8 C 45 % -3.37 C
2081 29-04-2006 10:48:02 8.2 C 42 % -3.93 C
2082 29-04-2006 10:58:02 8.4 C 42 % -3.75 C
2083 29-04-2006 11:08:02 8.5 C 40 % -4.31 C
2084 29-04-2006 11:18:03 9 C 40 % -3.86 C
2085 29-04-2006 11:28:03 8.9 C 41 % -3.62 C
2086 29-04-2006 11:38:02 8.8 C 45 % -2.46 C
2087 29-04-2006 11:48:02 8.5 C 45 % -2.73 C
2088 29-04-2006 11:58:02 8.4 C 45 % -2.83 C
2089 29-04-2006 12:08:02 9.8 C 44 % -1.86 C
2090 29-04-2006 12:18:02 9.8 C 39 % -3.48 C
2091 29-04-2006 12:28:02 8.7 C 35 % -5.88 C
2092 29-04-2006 12:38:02 9.5 C 37 % -4.44 C
2093 29-04-2006 12:48:02 9.7 C 32 % -6.17 C
2094 29-04-2006 12:58:02 10.5 C 33 % -5.07 C
2095 29-04-2006 13:08:03 8.6 C 40 % -4.22 C
2096 29-04-2006 13:18:02 10 C 38 % -3.64 C
2097 29-04-2006 13:28:02 10.2 C 36 % -4.18 C
2098 29-04-2006 13:38:02 10.5 C 32 % -5.47 C
2099 29-04-2006 13:48:02 11.3 C 30 % -5.62 C
2100 29-04-2006 13:58:02 11 C 29 % -6.32 C
Sensor: Nr:Datum:Temp:Feuchte:Taupunkt:
Aussen-T/F 2101 29-04-2006 14:08:02 10.8 C 33 % -4.81 C
2102 29-04-2006 14:18:02 12.1 C 31 % -4.49 C
2103 29-04-2006 14:28:02 12.3 C 26 % -6.63 C
2104 29-04-2006 14:38:03 12.2 C 25 % -7.22 C
2105 29-04-2006 14:48:02 11.5 C 27 % -6.82 C
2106 29-04-2006 14:58:02 11.8 C 29 % -5.63 C
2107 29-04-2006 15:08:02 10.4 C 38 % -3.29 C
2108 29-04-2006 15:18:02 9.5 C 40 % -3.41 C
2109 29-04-2006 15:28:02 9.5 C 41 % -3.08 C
2110 29-04-2006 15:38:03 11.5 C 36 % -3.03 C
2111 29-04-2006 15:48:02 10.6 C 40 % -2.42 C
2112 29-04-2006 15:58:03 11 C 42 % -1.4 C
2113 29-04-2006 16:08:02 11.6 C 40 % -1.52 C
2114 29-04-2006 16:18:02 10.8 C 38 % -2.93 C
2115 29-04-2006 16:28:02 11.1 C 35 % -3.76 C
2116 29-04-2006 16:38:03 11.4 C 34 % -3.88 C
2117 29-04-2006 16:48:02 11.3 C 37 % -2.84 C
2118 29-04-2006 16:58:02 11 C 38 % -2.75 C
2119 29-04-2006 17:08:02 10.9 C 41 % -1.82 C
2120 29-04-2006 17:18:02 9.2 C 50 % -0.67 C
2121 29-04-2006 17:28:02 8.8 C 54 % 0.02 C
2122 29-04-2006 17:38:02 8.6 C 55 % 0.08 C
2123 29-04-2006 17:48:02 9.1 C 55 % 0.55 C
2124 29-04-2006 17:58:02 9.3 C 54 % 0.48 C
2125 29-04-2006 18:08:02 9.9 C 49 % -0.3 C
Sensor: Nr:Datum:Temp:Feuchte:Taupunkt:
Aussen-T/F 2126 29-04-2006 18:18:02 9.8 C 49 % -0.39 C
2127 29-04-2006 18:28:02 9.2 C 50 % -0.67 C
2128 29-04-2006 18:38:02 9 C 49 % -1.13 C
2129 29-04-2006 18:48:02 8.9 C 51 % -0.67 C
2130 29-04-2006 18:58:02 8.8 C 52 % -0.5 C
2131 29-04-2006 19:08:02 8.8 C 53 % -0.24 C
2132 29-04-2006 19:18:02 8.9 C 54 % 0.11 C
2133 29-04-2006 19:28:02 8.7 C 54 % -0.07 C
2134 29-04-2006 19:38:03 7.1 C 63 % 0.55 C
2135 29-04-2006 19:48:02 6.5 C 78 % 2.95 C
2136 29-04-2006 19:58:02 7.6 C 83 % 4.9 C
2137 29-04-2006 20:08:02 7.3 C 80 % 4.09 C
2138 29-04-2006 20:18:02 6.8 C 82 % 3.95 C
2139 29-04-2006 20:28:02 6.7 C 84 % 4.19 C
2140 29-04-2006 20:38:03 6.3 C 84 % 3.8 C
2141 29-04-2006 20:48:02 5.6 C 85 % 3.28 C
2142 29-04-2006 20:58:03 5.3 C 85 % 2.99 C
2143 29-04-2006 21:08:02 5 C 86 % 2.86 C
2144 29-04-2006 21:18:02 4.9 C 87 % 2.92 C
2145 29-04-2006 21:28:02 5.1 C 87 % 3.12 C
2146 29-04-2006 21:38:03 5.2 C 87 % 3.22 C
2147 29-04-2006 21:48:02 5.1 C 86 % 2.96 C
2148 29-04-2006 21:58:02 5.1 C 86 % 2.96 C
2149 29-04-2006 22:08:02 5.1 C 86 % 2.96 C
2150 29-04-2006 22:18:02 5.1 C 86 % 2.96 C
Sensor: Nr:Datum:Temp:Feuchte:Taupunkt:
Aussen-T/F 2151 29-04-2006 22:28:02 4.8 C 87 % 2.82 C
2152 29-04-2006 22:38:03 4.7 C 87 % 2.73 C
2153 29-04-2006 22:48:02 4.8 C 87 % 2.82 C
2154 29-04-2006 22:58:03 4.7 C 87 % 2.73 C
2155 29-04-2006 23:08:02 4.7 C 87 % 2.73 C
2156 29-04-2006 23:18:02 4.7 C 87 % 2.73 C
2157 29-04-2006 23:28:02 4.6 C 87 % 2.63 C
2158 29-04-2006 23:38:03 4.7 C 88 % 2.89 C
2159 29-04-2006 23:48:02 4.9 C 88 % 3.08 C
2160 29-04-2006 23:58:02 5.1 C 87 % 3.12 C
2161 30-04-2006 00:08:02 5.2 C 87 % 3.22 C
2162 30-04-2006 00:18:02 5.1 C 86 % 2.96 C
2163 30-04-2006 00:28:03 4.7 C 87 % 2.73 C
2164 30-04-2006 00:38:02 4.6 C 88 % 2.79 C
2165 30-04-2006 00:48:03 4.6 C 88 % 2.79 C
2166 30-04-2006 00:58:03 4.6 C 88 % 2.79 C
2167 30-04-2006 01:08:03 4.6 C 88 % 2.79 C
2168 30-04-2006 01:18:03 4.7 C 88 % 2.89 C
2169 30-04-2006 01:28:03 4.7 C 88 % 2.89 C
2170 30-04-2006 01:38:02 4.5 C 88 % 2.69 C
2171 30-04-2006 01:48:03 4.4 C 88 % 2.59 C
2172 30-04-2006 01:58:03 4.2 C 88 % 2.39 C
2173 30-04-2006 02:08:03 4.1 C 89 % 2.45 C
2174 30-04-2006 02:18:03 4 C 89 % 2.36 C
2175 30-04-2006 02:28:03 3.9 C 90 % 2.41 C
Sensor: Nr:Datum:Temp:Feuchte:Taupunkt:
Aussen-T/F 2176 30-04-2006 02:38:03 3.8 C 90 % 2.31 C
2177 30-04-2006 02:49:04 3.8 C 90 % 2.31 C
2178 30-04-2006 02:59:04 3.7 C 90 % 2.22 C
2179 30-04-2006 03:09:04 3.8 C 90 % 2.31 C
2180 30-04-2006 03:19:04 4 C 89 % 2.36 C
2181 30-04-2006 03:29:04 4.1 C 88 % 2.3 C
2182 30-04-2006 03:39:02 4.1 C 87 % 2.14 C
2183 30-04-2006 03:49:02 4.1 C 87 % 2.14 C
2184 30-04-2006 03:59:02 4.1 C 87 % 2.14 C
2185 30-04-2006 04:09:02 4 C 88 % 2.2 C
2186 30-04-2006 04:19:02 4 C 88 % 2.2 C
2187 30-04-2006 04:29:02 3.9 C 89 % 2.26 C
2188 30-04-2006 04:39:02 4 C 88 % 2.2 C
2189 30-04-2006 04:49:02 4.1 C 88 % 2.3 C
2190 30-04-2006 04:59:02 4.2 C 88 % 2.39 C
2191 30-04-2006 05:09:01 4.1 C 88 % 2.3 C
2192 30-04-2006 05:19:02 4.1 C 88 % 2.3 C
2193 30-04-2006 05:29:02 4.1 C 88 % 2.3 C
2194 30-04-2006 05:39:02 4.2 C 88 % 2.39 C
2195 30-04-2006 05:49:02 4.3 C 89 % 2.65 C
2196 30-04-2006 05:59:02 4.1 C 89 % 2.45 C
2197 30-04-2006 06:09:03 4.1 C 89 % 2.45 C
2198 30-04-2006 06:19:02 4.2 C 89 % 2.55 C
2199 30-04-2006 06:29:02 4.3 C 89 % 2.65 C
2200 30-04-2006 06:39:02 4.2 C 89 % 2.55 C
Sensor: Nr:Datum:Temp:Feuchte:Taupunkt:
Aussen-T/F 2201 30-04-2006 06:49:02 4.2 C 88 % 2.39 C
2202 30-04-2006 06:59:03 4.1 C 88 % 2.3 C
2203 30-04-2006 07:09:02 4 C 88 % 2.2 C
2204 30-04-2006 07:19:01 4.2 C 89 % 2.55 C
2205 30-04-2006 07:29:01 4.3 C 89 % 2.65 C
2206 30-04-2006 07:39:01 4.6 C 89 % 2.95 C
2207 30-04-2006 07:49:02 4.5 C 88 % 2.69 C
2208 30-04-2006 07:59:02 3.8 C 86 % 1.68 C
2209 30-04-2006 08:09:02 3.3 C 86 % 1.19 C
2210 30-04-2006 08:19:01 3.3 C 86 % 1.19 C
2211 30-04-2006 08:29:01 3.5 C 85 % 1.22 C
2212 30-04-2006 08:39:01 3.8 C 84 % 1.35 C
2213 30-04-2006 08:49:02 4.2 C 82 % 1.41 C
2214 30-04-2006 08:59:03 4.5 C 80 % 1.36 C
2215 30-04-2006 09:09:02 4.5 C 79 % 1.18 C
2216 30-04-2006 09:19:01 4.4 C 79 % 1.09 C
2217 30-04-2006 09:29:01 4.4 C 80 % 1.26 C
2218 30-04-2006 09:39:01 4.5 C 81 % 1.53 C
2219 30-04-2006 09:49:02 4.9 C 80 % 1.75 C
2220 30-04-2006 09:59:02 5.5 C 77 % 1.8 C
2221 30-04-2006 10:09:02 5.7 C 76 % 1.81 C
2222 30-04-2006 10:19:02 6 C 74 % 1.73 C
2223 30-04-2006 10:29:02 5.9 C 73 % 1.44 C
2224 30-04-2006 10:39:02 6 C 72 % 1.35 C
2225 30-04-2006 10:49:02 6.4 C 70 % 1.34 C
Sensor: Nr:Datum:Temp:Feuchte:Taupunkt:
Aussen-T/F 2226 30-04-2006 10:59:02 7 C 60 % -0.22 C
2227 30-04-2006 11:09:02 7.5 C 61 % 0.48 C
2228 30-04-2006 11:19:02 7 C 58 % -0.68 C
2229 30-04-2006 11:29:02 8.2 C 53 % -0.8 C
2230 30-04-2006 11:39:02 8.5 C 48 % -1.86 C
2231 30-04-2006 11:49:02 9.2 C 49 % -0.94 C
2232 30-04-2006 11:59:03 9.9 C 46 % -1.16 C
2233 30-04-2006 12:09:02 9.6 C 44 % -2.04 C
2234 30-04-2006 12:19:02 10.2 C 41 % -2.45 C
2235 30-04-2006 12:29:02 9.9 C 41 % -2.72 C
2236 30-04-2006 12:39:02 9.9 C 45 % -1.46 C
2237 30-04-2006 12:49:02 9.2 C 46 % -1.8 C
2238 30-04-2006 12:59:02 9.1 C 47 % -1.6 C
2239 30-04-2006 13:09:02 9.5 C 50 % -0.39 C
2240 30-04-2006 13:19:02 9.1 C 48 % -1.31 C
2241 30-04-2006 13:29:02 9 C 51 % -0.58 C
2242 30-04-2006 13:39:02 10 C 45 % -1.37 C
2243 30-04-2006 13:49:02 10.6 C 45 % -0.82 C
2244 30-04-2006 13:59:02 10.3 C 44 % -1.4 C
2245 30-04-2006 14:09:02 10.2 C 43 % -1.8 C
2246 30-04-2006 14:19:02 10.8 C 41 % -1.91 C
2247 30-04-2006 14:29:02 11.1 C 41 % -1.64 C
2248 30-04-2006 14:39:02 11 C 40 % -2.06 C
2249 30-04-2006 14:49:03 11.2 C 36 % -3.3 C
2250 30-04-2006 14:59:03 11.8 C 37 % -2.4 C
Sensor: Nr:Datum:Temp:Feuchte:Taupunkt:
Aussen-T/F 2251 30-04-2006 15:09:02 11.7 C 35 % -3.23 C
2252 30-04-2006 15:19:02 12.1 C 35 % -2.88 C
2253 30-04-2006 15:29:02 12 C 35 % -2.97 C
2254 30-04-2006 15:39:02 11.4 C 35 % -3.5 C
2255 30-04-2006 15:49:02 12.1 C 34 % -3.27 C
2256 30-04-2006 15:59:02 12.4 C 34 % -3 C
2257 30-04-2006 16:09:02 12.1 C 33 % -3.66 C
2258 30-04-2006 16:19:02 11.7 C 35 % -3.23 C
2259 30-04-2006 16:29:02 11.3 C 37 % -2.84 C
2260 30-04-2006 16:39:02 10.9 C 39 % -2.49 C
2261 30-04-2006 16:49:02 10.6 C 40 % -2.42 C
2262 30-04-2006 16:59:02 10.1 C 45 % -1.28 C
2263 30-04-2006 17:09:02 10.1 C 46 % -0.98 C
2264 30-04-2006 17:19:02 9.7 C 47 % -1.05 C
2265 30-04-2006 17:29:02 9.7 C 51 % 0.07 C
2266 30-04-2006 17:39:02 9 C 56 % 0.71 C
2267 30-04-2006 17:49:03 8.3 C 63 % 1.68 C
2268 30-04-2006 17:59:03 8.1 C 63 % 1.49 C
2269 30-04-2006 18:09:02 8 C 64 % 1.62 C
2270 30-04-2006 18:19:02 7.7 C 67 % 1.97 C
2271 30-04-2006 18:29:02 7.7 C 67 % 1.97 C
2272 30-04-2006 18:39:02 7.8 C 68 % 2.27 C
2273 30-04-2006 18:49:02 7.6 C 67 % 1.88 C
2274 30-04-2006 18:59:02 7.4 C 70 % 2.3 C
2275 30-04-2006 19:09:02 6.4 C 79 % 3.03 C
Sensor: Nr:Datum:Temp:Feuchte:Taupunkt:
Aussen-T/F 2276 30-04-2006 19:19:02 6.5 C 83 % 3.83 C
2277 30-04-2006 19:29:02 6.5 C 83 % 3.83 C
2278 30-04-2006 19:39:02 6.5 C 84 % 4 C
2279 30-04-2006 19:49:03 6.5 C 85 % 4.17 C
2280 30-04-2006 19:59:03 6.3 C 86 % 4.14 C
2281 30-04-2006 20:09:02 6.4 C 87 % 4.4 C
2282 30-04-2006 20:19:02 6.3 C 87 % 4.3 C
2283 30-04-2006 20:29:02 6.3 C 88 % 4.46 C
2284 30-04-2006 20:39:02 6.4 C 89 % 4.72 C
2285 30-04-2006 20:49:02 6.4 C 89 % 4.72 C
2286 30-04-2006 20:59:02 6.4 C 90 % 4.88 C
2287 30-04-2006 21:09:02 6.3 C 90 % 4.78 C
2288 30-04-2006 21:19:02 6.2 C 90 % 4.69 C
2289 30-04-2006 21:29:02 6.3 C 90 % 4.78 C
2290 30-04-2006 21:39:02 6.2 C 90 % 4.69 C
2291 30-04-2006 21:49:03 6 C 91 % 4.65 C
2292 30-04-2006 21:59:03 5.8 C 91 % 4.45 C
2293 30-04-2006 22:09:03 5.7 C 89 % 4.03 C
2294 30-04-2006 22:19:03 5.7 C 89 % 4.03 C
2295 30-04-2006 22:29:04 5.7 C 88 % 3.87 C
2296 30-04-2006 22:39:02 5.6 C 87 % 3.61 C
2297 30-04-2006 22:49:02 5.5 C 87 % 3.51 C
2298 30-04-2006 22:59:02 5.1 C 86 % 2.96 C
2299 30-04-2006 23:09:02 4.6 C 88 % 2.79 C
2300 30-04-2006 23:19:02 4.3 C 89 % 2.65 C
Sensor: Nr:Datum:Temp:Feuchte:Taupunkt:
Aussen-T/F 2301 30-04-2006 23:29:02 4.4 C 90 % 2.91 C
2302 30-04-2006 23:39:02 4.6 C 91 % 3.26 C
2303 30-04-2006 23:49:02 4.9 C 91 % 3.56 C
2304 30-04-2006 23:59:02 5.1 C 91 % 3.76 C
2305 01-05-2006 00:09:01 5.1 C 90 % 3.6 C
2306 01-05-2006 00:19:02 4.7 C 90 % 3.2 C
2307 01-05-2006 00:29:02 4.6 C 90 % 3.1 C
2308 01-05-2006 00:39:02 4.7 C 89 % 3.05 C
2309 01-05-2006 00:49:02 4.7 C 89 % 3.05 C
2310 01-05-2006 00:59:02 4.6 C 89 % 2.95 C
2311 01-05-2006 01:09:02 4.7 C 88 % 2.89 C
2312 01-05-2006 01:19:02 4.7 C 88 % 2.89 C
2313 01-05-2006 01:29:02 4.8 C 88 % 2.99 C
2314 01-05-2006 01:39:02 4.8 C 88 % 2.99 C
2315 01-05-2006 01:49:02 5 C 86 % 2.86 C
2316 01-05-2006 01:59:02 4.9 C 87 % 2.92 C
2317 01-05-2006 02:09:02 4.8 C 88 % 2.99 C
2318 01-05-2006 02:19:02 4.8 C 88 % 2.99 C
2319 01-05-2006 02:29:02 4.7 C 88 % 2.89 C
2320 01-05-2006 02:39:02 4.8 C 88 % 2.99 C
2321 01-05-2006 02:50:03 4.9 C 87 % 2.92 C
2322 01-05-2006 03:00:03 5 C 86 % 2.86 C
2323 01-05-2006 03:10:04 5.1 C 86 % 2.96 C
2324 01-05-2006 03:20:04 4.9 C 87 % 2.92 C
2325 01-05-2006 03:30:04 4.7 C 87 % 2.73 C
Sensor: Nr:Datum:Temp:Feuchte:Taupunkt:
Aussen-T/F 2326 01-05-2006 03:40:02 4.3 C 87 % 2.33 C
2327 01-05-2006 03:50:02 4.1 C 87 % 2.14 C
2328 01-05-2006 04:00:02 3.8 C 88 % 2 C
2329 01-05-2006 04:10:02 3.6 C 88 % 1.8 C
2330 01-05-2006 04:20:02 3.5 C 88 % 1.7 C
2331 01-05-2006 04:30:02 3.2 C 88 % 1.41 C
2332 01-05-2006 04:40:02 3.1 C 88 % 1.31 C
2333 01-05-2006 04:50:02 2.8 C 89 % 1.17 C
2334 01-05-2006 05:00:02 2.8 C 89 % 1.17 C
2335 01-05-2006 05:10:02 2.7 C 90 % 1.23 C
2336 01-05-2006 05:20:02 2.7 C 91 % 1.38 C
2337 01-05-2006 05:30:02 2.4 C 91 % 1.08 C
2338 01-05-2006 05:40:02 2.2 C 91 % 0.89 C
2339 01-05-2006 05:50:02 2.1 C 91 % 0.79 C
2340 01-05-2006 06:00:02 2 C 91 % 0.69 C
2341 01-05-2006 06:10:02 1.9 C 92 % 0.74 C
2342 01-05-2006 06:20:02 1.7 C 93 % 0.69 C
2343 01-05-2006 06:30:02 1.8 C 93 % 0.79 C
2344 01-05-2006 06:40:03 1.8 C 93 % 0.79 C
2345 01-05-2006 06:50:02 1.8 C 93 % 0.79 C
2346 01-05-2006 07:00:02 1.8 C 93 % 0.79 C
2347 01-05-2006 07:10:02 2 C 92 % 0.84 C
2348 01-05-2006 07:20:02 2.1 C 93 % 1.09 C
2349 01-05-2006 07:30:02 2.2 C 93 % 1.19 C
2350 01-05-2006 07:40:02 2.5 C 93 % 1.49 C
Sensor: Nr:Datum:Temp:Feuchte:Taupunkt:
Aussen-T/F 2351 01-05-2006 07:50:02 2.8 C 94 % 1.93 C
2352 01-05-2006 08:00:02 3 C 93 % 1.98 C
2353 01-05-2006 08:10:02 3.1 C 94 % 2.23 C
2354 01-05-2006 08:20:01 3.4 C 94 % 2.53 C
2355 01-05-2006 08:30:01 3.5 C 94 % 2.63 C
2356 01-05-2006 08:40:02 3.6 C 94 % 2.73 C
2357 01-05-2006 08:50:02 3.8 C 94 % 2.93 C
2358 01-05-2006 09:00:02 4.1 C 93 % 3.07 C
2359 01-05-2006 09:10:02 4.7 C 93 % 3.67 C
2360 01-05-2006 09:20:02 5.1 C 92 % 3.91 C
2361 01-05-2006 09:30:03 5.7 C 90 % 4.19 C
2362 01-05-2006 09:40:02 6.7 C 86 % 4.53 C
2363 01-05-2006 09:50:02 7.5 C 82 % 4.63 C
2364 01-05-2006 10:00:02 7.8 C 77 % 4.03 C
2365 01-05-2006 10:10:02 8 C 75 % 3.85 C
2366 01-05-2006 10:20:02 8.5 C 74 % 4.14 C
2367 01-05-2006 10:30:02 9.1 C 70 % 3.93 C
2368 01-05-2006 10:40:02 9.6 C 67 % 3.78 C
2369 01-05-2006 10:50:03 10.2 C 67 % 4.36 C
2370 01-05-2006 11:00:03 10.7 C 65 % 4.4 C
2371 01-05-2006 11:10:03 11.4 C 62 % 4.39 C
2372 01-05-2006 11:20:02 11.5 C 58 % 3.54 C
2373 01-05-2006 11:30:02 12.2 C 57 % 3.94 C
2374 01-05-2006 11:40:02 12.8 C 51 % 2.93 C
2375 01-05-2006 11:50:02 13.1 C 50 % 2.93 C
Sensor: Nr:Datum:Temp:Feuchte:Taupunkt:
Aussen-T/F 2376 01-05-2006 12:00:03 13.6 C 50 % 3.39 C
2377 01-05-2006 12:10:02 12.9 C 50 % 2.74 C
2378 01-05-2006 12:20:02 12.3 C 51 % 2.47 C
2379 01-05-2006 12:30:02 12.8 C 52 % 3.2 C
2380 01-05-2006 12:40:01 12.5 C 52 % 2.92 C
2381 01-05-2006 12:50:02 13 C 51 % 3.11 C
2382 01-05-2006 13:00:02 12.5 C 53 % 3.19 C
2383 01-05-2006 13:10:02 12.6 C 53 % 3.29 C
2384 01-05-2006 13:20:02 12.4 C 53 % 3.1 C
2385 01-05-2006 13:30:02 12.2 C 55 % 3.44 C
2386 01-05-2006 13:40:02 12.4 C 54 % 3.36 C
2387 01-05-2006 13:50:02 13 C 55 % 4.18 C
2388 01-05-2006 14:00:02 13.5 C 51 % 3.57 C
2389 01-05-2006 14:10:02 14.1 C 48 % 3.27 C
2390 01-05-2006 14:20:02 14.4 C 47 % 3.25 C
2391 01-05-2006 14:30:02 14.2 C 46 % 2.76 C
2392 01-05-2006 14:40:03 13.5 C 52 % 3.85 C
2393 01-05-2006 14:50:02 13.5 C 51 % 3.57 C
2394 01-05-2006 15:00:02 13.5 C 53 % 4.12 C
2395 01-05-2006 15:10:02 13.5 C 53 % 4.12 C
2396 01-05-2006 15:20:02 13.1 C 56 % 4.53 C
2397 01-05-2006 15:30:02 12.5 C 65 % 6.11 C
2398 01-05-2006 15:40:03 12.4 C 65 % 6.01 C
2399 01-05-2006 15:50:02 12.3 C 68 % 6.57 C
2400 01-05-2006 16:00:02 12.1 C 69 % 6.59 C
Sensor: Nr:Datum:Temp:Feuchte:Taupunkt:
Aussen-T/F 2401 01-05-2006 16:10:02 12.2 C 68 % 6.48 C
2402 01-05-2006 16:20:03 12.8 C 67 % 6.83 C
2403 01-05-2006 16:30:03 13.4 C 64 % 6.74 C
2404 01-05-2006 16:40:03 13.6 C 62 % 6.47 C
2405 01-05-2006 16:50:01 13.8 C 62 % 6.65 C
2406 01-05-2006 17:00:01 13.7 C 64 % 7.02 C
2407 01-05-2006 17:10:02 13.4 C 66 % 7.19 C
2408 01-05-2006 17:20:02 12.8 C 68 % 7.05 C
2409 01-05-2006 17:30:02 12.2 C 70 % 6.9 C
2410 01-05-2006 17:40:02 11.7 C 77 % 7.81 C
2411 01-05-2006 17:50:03 11.1 C 81 % 7.97 C
2412 01-05-2006 18:00:03 11.1 C 83 % 8.33 C
2413 01-05-2006 18:10:03 11.2 C 85 % 8.77 C
2414 01-05-2006 18:20:02 11.3 C 86 % 9.05 C
2415 01-05-2006 18:30:02 11.2 C 87 % 9.12 C
2416 01-05-2006 18:40:03 11.3 C 86 % 9.05 C
2417 01-05-2006 18:50:02 11.4 C 87 % 9.32 C
2418 01-05-2006 19:00:02 11.3 C 87 % 9.22 C
2419 01-05-2006 19:10:03 11.2 C 84 % 8.6 C
2420 01-05-2006 19:20:03 11.3 C 85 % 8.87 C
2421 01-05-2006 19:30:03 11.2 C 86 % 8.95 C
2422 01-05-2006 19:40:02 11.1 C 86 % 8.85 C
2423 01-05-2006 19:50:02 10.9 C 88 % 8.99 C
2424 01-05-2006 20:00:02 10.8 C 88 % 8.89 C
2425 01-05-2006 20:10:03 10.8 C 89 % 9.06 C
Sensor: Nr:Datum:Temp:Feuchte:Taupunkt:
Aussen-T/F 2426 01-05-2006 20:20:02 10.7 C 88 % 8.8 C
2427 01-05-2006 20:30:02 10.7 C 88 % 8.8 C
2428 01-05-2006 20:40:03 10.5 C 88 % 8.6 C
2429 01-05-2006 20:50:02 10.4 C 87 % 8.33 C
2430 01-05-2006 21:00:02 10.4 C 87 % 8.33 C
2431 01-05-2006 21:10:03 10.3 C 87 % 8.23 C
2432 01-05-2006 21:20:02 10.3 C 86 % 8.06 C
2433 01-05-2006 21:30:02 10.2 C 84 % 7.62 C
2434 01-05-2006 21:40:03 10.3 C 82 % 7.37 C
2435 01-05-2006 21:50:02 10.2 C 81 % 7.09 C
2436 01-05-2006 22:00:02 10.3 C 80 % 7.01 C
2437 01-05-2006 22:10:02 10.2 C 80 % 6.91 C
2438 01-05-2006 22:20:02 10.1 C 80 % 6.81 C
2439 01-05-2006 22:30:02 10 C 81 % 6.89 C
2440 01-05-2006 22:40:03 9.8 C 83 % 7.05 C
2441 01-05-2006 22:50:02 9.6 C 84 % 7.03 C
2442 01-05-2006 23:00:02 9.7 C 84 % 7.13 C
2443 01-05-2006 23:10:02 9.6 C 84 % 7.03 C
2444 01-05-2006 23:20:02 9.6 C 84 % 7.03 C
2445 01-05-2006 23:30:02 9.6 C 85 % 7.21 C
2446 01-05-2006 23:40:03 9.5 C 86 % 7.28 C
2447 01-05-2006 23:50:02 9.4 C 87 % 7.35 C
2448 02-05-2006 00:00:02 9.5 C 87 % 7.45 C
2449 02-05-2006 00:10:02 9.4 C 87 % 7.35 C
2450 02-05-2006 00:20:02 9.5 C 86 % 7.28 C
Sensor: Nr:Datum:Temp:Feuchte:Taupunkt:
Aussen-T/F 2451 02-05-2006 00:30:02 9.6 C 85 % 7.21 C
2452 02-05-2006 00:40:02 9.7 C 83 % 6.96 C
2453 02-05-2006 00:50:02 9.9 C 80 % 6.62 C
2454 02-05-2006 01:00:03 9.8 C 80 % 6.52 C
2455 02-05-2006 01:10:02 9.8 C 81 % 6.7 C
2456 02-05-2006 01:20:02 9.8 C 80 % 6.52 C
2457 02-05-2006 01:30:02 9.9 C 79 % 6.43 C
2458 02-05-2006 01:40:02 10 C 77 % 6.16 C
2459 02-05-2006 01:50:02 10.1 C 76 % 6.07 C
2460 02-05-2006 02:00:02 10 C 77 % 6.16 C
2461 02-05-2006 02:10:02 9.9 C 78 % 6.25 C
2462 02-05-2006 02:20:02 9.9 C 78 % 6.25 C
2463 02-05-2006 02:30:02 9.6 C 78 % 5.96 C
2464 02-05-2006 02:40:02 9.4 C 79 % 5.95 C
2465 02-05-2006 02:51:03 9.2 C 80 % 5.94 C
2466 02-05-2006 03:01:03 9.2 C 81 % 6.11 C
2467 02-05-2006 03:11:03 9.2 C 82 % 6.29 C
2468 02-05-2006 03:21:04 9.3 C 81 % 6.21 C
2469 02-05-2006 03:31:02 9.3 C 82 % 6.39 C
2470 02-05-2006 03:41:02 9.3 C 81 % 6.21 C
2471 02-05-2006 03:51:02 9.1 C 82 % 6.19 C
2472 02-05-2006 04:01:02 8.9 C 83 % 6.17 C
2473 02-05-2006 04:11:02 8.7 C 83 % 5.98 C
2474 02-05-2006 04:21:02 8.5 C 84 % 5.96 C
2475 02-05-2006 04:31:02 8.1 C 84 % 5.56 C
Sensor: Nr:Datum:Temp:Feuchte:Taupunkt:
Aussen-T/F 2476 02-05-2006 04:41:02 7.9 C 87 % 5.87 C
2477 02-05-2006 04:51:02 7.7 C 87 % 5.68 C
2478 02-05-2006 05:01:02 7.5 C 88 % 5.64 C
2479 02-05-2006 05:11:02 7.4 C 89 % 5.71 C
2480 02-05-2006 05:21:02 7.4 C 89 % 5.71 C
2481 02-05-2006 05:31:02 7.4 C 89 % 5.71 C
2482 02-05-2006 05:41:03 7.3 C 90 % 5.77 C
2483 02-05-2006 05:51:02 7.3 C 90 % 5.77 C
2484 02-05-2006 06:01:02 7.3 C 90 % 5.77 C
2485 02-05-2006 06:11:02 7.6 C 91 % 6.23 C
2486 02-05-2006 06:21:01 7.7 C 91 % 6.33 C
2487 02-05-2006 06:31:02 7.8 C 91 % 6.43 C
2488 02-05-2006 06:41:02 7.9 C 91 % 6.52 C
2489 02-05-2006 06:51:03 8 C 89 % 6.3 C
2490 02-05-2006 07:01:03 7.9 C 90 % 6.36 C
2491 02-05-2006 07:11:03 7.9 C 90 % 6.36 C
2492 02-05-2006 07:21:02 8.1 C 89 % 6.4 C
2493 02-05-2006 07:31:02 8.4 C 89 % 6.7 C
2494 02-05-2006 07:41:02 8.5 C 87 % 6.46 C
2495 02-05-2006 07:51:02 8.5 C 87 % 6.46 C
2496 02-05-2006 08:01:02 8.5 C 87 % 6.46 C
2497 02-05-2006 08:11:02 8.7 C 88 % 6.83 C
2498 02-05-2006 08:21:02 8.7 C 88 % 6.83 C
2499 02-05-2006 08:31:01 8.8 C 88 % 6.93 C
2500 02-05-2006 08:41:01 9.1 C 87 % 7.05 C
Sensor: Nr:Datum:Temp:Feuchte:Taupunkt:
Aussen-T/F 2501 02-05-2006 08:51:02 9.3 C 86 % 7.08 C
2502 02-05-2006 09:01:02 9.9 C 86 % 7.67 C
2503 02-05-2006 09:11:02 10.2 C 83 % 7.45 C
2504 02-05-2006 09:21:01 11.4 C 82 % 8.44 C
2505 02-05-2006 09:31:02 11.8 C 76 % 7.71 C
2506 02-05-2006 09:41:02 12.4 C 72 % 7.5 C
2507 02-05-2006 09:51:02 13.1 C 63 % 6.22 C
2508 02-05-2006 10:01:01 13.5 C 60 % 5.9 C
2509 02-05-2006 10:11:01 14.1 C 58 % 5.97 C
2510 02-05-2006 10:21:01 14.1 C 58 % 5.97 C
2511 02-05-2006 10:31:02 14.1 C 58 % 5.97 C
2512 02-05-2006 10:41:02 14.3 C 58 % 6.16 C
2513 02-05-2006 10:51:01 15 C 56 % 6.3 C
2514 02-05-2006 11:01:01 15.4 C 55 % 6.42 C
2515 02-05-2006 11:11:01 16.1 C 52 % 6.25 C
2516 02-05-2006 11:21:01 16 C 51 % 5.88 C
2517 02-05-2006 11:31:02 15.9 C 52 % 6.07 C
2518 02-05-2006 11:41:02 15.5 C 52 % 5.7 C
2519 02-05-2006 11:51:02 15.7 C 52 % 5.88 C
2520 02-05-2006 12:01:02 16 C 52 % 6.16 C
2521 02-05-2006 12:11:02 16.9 C 52 % 6.99 C
2522 02-05-2006 12:21:02 17.1 C 50 % 6.6 C
2523 02-05-2006 12:31:03 17.1 C 48 % 6.01 C
2524 02-05-2006 12:41:03 17.2 C 49 % 6.4 C
2525 02-05-2006 12:51:02 17 C 46 % 5.31 C
Sensor: Nr:Datum:Temp:Feuchte:Taupunkt:
Aussen-T/F 2526 02-05-2006 13:01:02 17.6 C 46 % 5.86 C
2527 02-05-2006 13:11:02 18.8 C 41 % 5.28 C
2528 02-05-2006 13:21:02 19.1 C 39 % 4.84 C
2529 02-05-2006 13:31:02 19.8 C 37 % 4.7 C
2530 02-05-2006 13:41:02 19.2 C 36 % 3.78 C
2531 02-05-2006 13:51:02 19.3 C 36 % 3.87 C
2532 02-05-2006 14:01:02 20 C 35 % 4.09 C
2533 02-05-2006 14:11:02 20.6 C 33 % 3.78 C
2534 02-05-2006 14:21:01 20.5 C 34 % 4.12 C
2535 02-05-2006 14:31:02 20.1 C 32 % 2.91 C
2536 02-05-2006 14:41:02 21.8 C 30 % 3.47 C
2537 02-05-2006 14:51:02 21.5 C 30 % 3.21 C
2538 02-05-2006 15:01:02 21.8 C 30 % 3.47 C
2539 02-05-2006 15:11:02 22.8 C 28 % 3.36 C
2540 02-05-2006 15:21:01 22.8 C 29 % 3.85 C
2541 02-05-2006 15:31:02 22.2 C 27 % 2.33 C
2542 02-05-2006 15:41:02 23.8 C 26 % 3.16 C
2543 02-05-2006 15:51:02 25 C 24 % 3.05 C
2544 02-05-2006 16:01:01 24.2 C 23 % 1.78 C
2545 02-05-2006 16:11:01 24.4 C 24 % 2.54 C
2546 02-05-2006 16:21:01 23.8 C 25 % 2.61 C
2547 02-05-2006 16:31:02 23.7 C 25 % 2.53 C
2548 02-05-2006 16:41:02 23.9 C 25 % 2.69 C
2549 02-05-2006 16:51:02 23.9 C 25 % 2.69 C
2550 02-05-2006 17:01:02 24.1 C 25 % 2.86 C
Sensor: Nr:Datum:Temp:Feuchte:Taupunkt:
Aussen-T/F 2551 02-05-2006 17:11:02 24.1 C 24 % 2.29 C
2552 02-05-2006 17:21:02 23.8 C 25 % 2.61 C
2553 02-05-2006 17:31:01 24.5 C 24 % 2.63 C
2554 02-05-2006 17:41:01 24.7 C 24 % 2.79 C
2555 02-05-2006 17:51:02 25.2 C 22 % 1.99 C
2556 02-05-2006 18:01:02 25.3 C 22 % 2.07 C
2557 02-05-2006 18:11:02 24.5 C 23 % 2.03 C
2558 02-05-2006 18:21:02 24.5 C 25 % 3.2 C
2559 02-05-2006 18:31:02 24.2 C 26 % 3.5 C
2560 02-05-2006 18:41:02 24.4 C 25 % 3.12 C
2561 02-05-2006 18:51:02 24.2 C 26 % 3.5 C
2562 02-05-2006 19:01:02 23.8 C 27 % 3.7 C
2563 02-05-2006 19:11:02 23.3 C 28 % 3.78 C
2564 02-05-2006 19:21:02 22.4 C 30 % 3.99 C
2565 02-05-2006 19:31:03 22 C 32 % 4.56 C
2566 02-05-2006 19:41:03 22.1 C 34 % 5.52 C
2567 02-05-2006 19:51:02 22.1 C 33 % 5.09 C
2568 02-05-2006 20:01:03 21.6 C 34 % 5.08 C
2569 02-05-2006 20:11:03 21.1 C 36 % 5.46 C
2570 02-05-2006 20:21:02 20.6 C 39 % 6.17 C
2571 02-05-2006 20:31:02 19.8 C 41 % 6.18 C
2572 02-05-2006 20:41:02 19.2 C 43 % 6.33 C
2573 02-05-2006 20:51:02 18.5 C 44 % 6.03 C
2574 02-05-2006 21:01:02 17.5 C 47 % 6.07 C
2575 02-05-2006 21:11:03 16.9 C 48 % 5.83 C
Sensor: Nr:Datum:Temp:Feuchte:Taupunkt:
Aussen-T/F 2576 02-05-2006 21:21:02 16.7 C 49 % 5.95 C
2577 02-05-2006 21:31:02 16.4 C 51 % 6.25 C
2578 02-05-2006 21:41:02 16.1 C 51 % 5.97 C
2579 02-05-2006 21:51:01 16 C 51 % 5.88 C
2580 02-05-2006 22:01:02 15.8 C 52 % 5.97 C
2581 02-05-2006 22:11:02 15.4 C 53 % 5.88 C
2582 02-05-2006 22:21:02 15.3 C 54 % 6.06 C
2583 02-05-2006 22:31:02 15.2 C 53 % 5.69 C
2584 02-05-2006 22:41:02 14.9 C 54 % 5.69 C
2585 02-05-2006 22:51:02 14.9 C 55 % 5.95 C
2586 02-05-2006 23:01:02 14.7 C 54 % 5.5 C
2587 02-05-2006 23:11:03 14.6 C 56 % 5.93 C
2588 02-05-2006 23:21:02 14.5 C 55 % 5.58 C
2589 02-05-2006 23:31:02 14.6 C 55 % 5.67 C
2590 02-05-2006 23:41:02 14.9 C 52 % 5.14 C
2591 02-05-2006 23:51:02 14.7 C 55 % 5.76 C
2592 03-05-2006 00:01:02 14.5 C 54 % 5.31 C
2593 03-05-2006 00:11:02 14.6 C 52 % 4.87 C
2594 03-05-2006 00:21:02 14.4 C 53 % 4.95 C
2595 03-05-2006 00:31:02 14.1 C 54 % 4.94 C
2596 03-05-2006 00:41:02 13.8 C 57 % 5.44 C
2597 03-05-2006 00:51:02 13.6 C 57 % 5.25 C
2598 03-05-2006 01:01:02 13.3 C 59 % 5.47 C
2599 03-05-2006 01:11:03 13.1 C 59 % 5.28 C
2600 03-05-2006 01:21:02 13 C 59 % 5.19 C
Sensor: Nr:Datum:Temp:Feuchte:Taupunkt:
Aussen-T/F 2601 03-05-2006 01:31:02 12.8 C 61 % 5.48 C
2602 03-05-2006 01:41:02 12.6 C 61 % 5.29 C
2603 03-05-2006 01:51:01 12.4 C 62 % 5.33 C
2604 03-05-2006 02:01:02 12.2 C 63 % 5.37 C
2605 03-05-2006 02:11:02 12.1 C 64 % 5.51 C
2606 03-05-2006 02:21:01 12 C 64 % 5.41 C
2607 03-05-2006 02:31:02 11.8 C 66 % 5.66 C
2608 03-05-2006 02:41:02 11.6 C 67 % 5.69 C
2609 03-05-2006 02:52:03 11.5 C 68 % 5.81 C
2610 03-05-2006 03:02:03 11.3 C 69 % 5.83 C
2611 03-05-2006 03:12:04 11 C 70 % 5.75 C
2612 03-05-2006 03:22:05 10.8 C 71 % 5.76 C
2613 03-05-2006 03:32:02 10.6 C 71 % 5.57 C
2614 03-05-2006 03:42:02 10.4 C 72 % 5.58 C
2615 03-05-2006 03:52:03 10.3 C 73 % 5.68 C
2616 03-05-2006 04:02:02 10 C 73 % 5.39 C
2617 03-05-2006 04:12:02 9.9 C 75 % 5.68 C
2618 03-05-2006 04:22:03 9.8 C 75 % 5.59 C
2619 03-05-2006 04:32:03 9.6 C 76 % 5.58 C
2620 03-05-2006 04:42:03 9.6 C 76 % 5.58 C
2621 03-05-2006 04:52:02 9.4 C 77 % 5.58 C
2622 03-05-2006 05:02:02 9.3 C 78 % 5.67 C
2623 03-05-2006 05:12:02 9.1 C 78 % 5.47 C
2624 03-05-2006 05:22:02 9 C 79 % 5.56 C
2625 03-05-2006 05:32:02 8.7 C 82 % 5.8 C
Sensor: Nr:Datum:Temp:Feuchte:Taupunkt:
Aussen-T/F 2626 03-05-2006 05:42:02 8.7 C 82 % 5.8 C
2627 03-05-2006 05:52:02 8.5 C 82 % 5.61 C
2628 03-05-2006 06:02:02 8.5 C 82 % 5.61 C
2629 03-05-2006 06:12:02 8.4 C 82 % 5.51 C
2630 03-05-2006 06:22:02 8.5 C 82 % 5.61 C
2631 03-05-2006 06:32:01 8.4 C 83 % 5.69 C
2632 03-05-2006 06:42:01 8.5 C 83 % 5.78 C
2633 03-05-2006 06:52:02 8.5 C 83 % 5.78 C
2634 03-05-2006 07:02:03 8.6 C 83 % 5.88 C
2635 03-05-2006 07:12:03 8.7 C 83 % 5.98 C
2636 03-05-2006 07:22:02 8.8 C 83 % 6.08 C
2637 03-05-2006 07:32:02 8.9 C 83 % 6.17 C
2638 03-05-2006 07:42:02 9 C 82 % 6.1 C
2639 03-05-2006 07:52:02 9.2 C 82 % 6.29 C
2640 03-05-2006 08:02:02 9.3 C 82 % 6.39 C
2641 03-05-2006 08:12:02 9.6 C 82 % 6.68 C
2642 03-05-2006 08:22:02 9.8 C 80 % 6.52 C
2643 03-05-2006 08:32:01 9.9 C 80 % 6.62 C
2644 03-05-2006 08:42:01 10.3 C 78 % 6.64 C
2645 03-05-2006 08:52:02 10.7 C 76 % 6.65 C
2646 03-05-2006 09:02:02 11.1 C 75 % 6.84 C
2647 03-05-2006 09:12:02 11.9 C 71 % 6.82 C
2648 03-05-2006 09:22:01 12.4 C 68 % 6.67 C
2649 03-05-2006 09:32:02 13 C 66 % 6.8 C
2650 03-05-2006 09:42:02 13.9 C 63 % 6.98 C
Sensor: Nr:Datum:Temp:Feuchte:Taupunkt:
Aussen-T/F 2651 03-05-2006 09:52:02 14.2 C 63 % 7.27 C
2652 03-05-2006 10:02:02 14.8 C 64 % 8.06 C
2653 03-05-2006 10:12:02 15.8 C 59 % 7.81 C
2654 03-05-2006 10:22:01 16.8 C 55 % 7.72 C
2655 03-05-2006 10:32:02 17 C 51 % 6.8 C
2656 03-05-2006 10:42:02 17.7 C 52 % 7.73 C
2657 03-05-2006 10:52:02 18.7 C 48 % 7.48 C
2658 03-05-2006 11:02:01 19.1 C 44 % 6.57 C
2659 03-05-2006 11:12:01 19.4 C 45 % 7.17 C
2660 03-05-2006 11:22:01 20.3 C 41 % 6.63 C
2661 03-05-2006 11:32:02 20.4 C 41 % 6.72 C
2662 03-05-2006 11:42:02 21.2 C 40 % 7.08 C
2663 03-05-2006 11:52:02 21.8 C 40 % 7.61 C
2664 03-05-2006 12:02:02 22.4 C 37 % 7.01 C
2665 03-05-2006 12:12:02 22.8 C 36 % 6.96 C
2666 03-05-2006 12:22:01 23.3 C 35 % 6.99 C
2667 03-05-2006 12:32:01 23.5 C 35 % 7.17 C
2668 03-05-2006 12:42:01 23.5 C 32 % 5.87 C
2669 03-05-2006 12:52:02 24.2 C 30 % 5.54 C
2670 03-05-2006 13:02:01 25.2 C 28 % 5.41 C
2671 03-05-2006 13:12:01 25.5 C 27 % 5.14 C
2672 03-05-2006 13:22:01 25.6 C 26 % 4.69 C
2673 03-05-2006 13:32:02 26.1 C 26 % 5.11 C
2674 03-05-2006 13:42:02 26.4 C 26 % 5.37 C
2675 03-05-2006 13:52:02 26.4 C 25 % 4.8 C
Sensor: Nr:Datum:Temp:Feuchte:Taupunkt:
Aussen-T/F 2676 03-05-2006 14:02:02 26.6 C 27 % 6.08 C
2677 03-05-2006 14:12:02 27.4 C 25 % 5.65 C
2678 03-05-2006 14:22:02 28.3 C 25 % 6.4 C
2679 03-05-2006 14:32:03 28.6 C 23 % 5.45 C
2680 03-05-2006 14:42:03 28.7 C 23 % 5.53 C
2681 03-05-2006 14:52:02 28.8 C 24 % 6.23 C
2682 03-05-2006 15:02:02 28.9 C 25 % 6.91 C
2683 03-05-2006 15:12:02 29.3 C 22 % 5.39 C
2684 03-05-2006 15:22:02 29.7 C 22 % 5.73 C
2685 03-05-2006 15:32:02 29.7 C 24 % 6.99 C
2686 03-05-2006 15:42:02 29.8 C 24 % 7.07 C
2687 03-05-2006 15:52:02 29.5 C 24 % 6.82 C
2688 03-05-2006 16:02:02 28.8 C 25 % 6.82 C
2689 03-05-2006 16:12:02 28.9 C 25 % 6.91 C
2690 03-05-2006 16:22:02 29 C 24 % 6.4 C
2691 03-05-2006 16:32:01 28.9 C 25 % 6.91 C
2692 03-05-2006 16:42:01 28.6 C 25 % 6.66 C
2693 03-05-2006 16:52:02 29 C 24 % 6.4 C
2694 03-05-2006 17:02:02 29.3 C 23 % 6.03 C
2695 03-05-2006 17:12:02 29.1 C 23 % 5.87 C
2696 03-05-2006 17:22:01 29.2 C 23 % 5.95 C
2697 03-05-2006 17:32:02 29.2 C 21 % 4.64 C
2698 03-05-2006 17:42:02 29.2 C 22 % 5.31 C
2699 03-05-2006 17:52:02 29.1 C 24 % 6.48 C
2700 03-05-2006 18:02:03 28.8 C 25 % 6.82 C
Sensor: Nr:Datum:Temp:Feuchte:Taupunkt:
Aussen-T/F 2701 03-05-2006 18:12:03 28.8 C 25 % 6.82 C
2702 03-05-2006 18:22:03 28.2 C 26 % 6.89 C
2703 03-05-2006 18:32:02 28.1 C 27 % 7.35 C
2704 03-05-2006 18:42:02 27.4 C 27 % 6.76 C
2705 03-05-2006 18:52:02 27.2 C 30 % 8.13 C
2706 03-05-2006 19:02:02 26.6 C 31 % 8.09 C
2707 03-05-2006 19:12:02 26.5 C 35 % 9.8 C
2708 03-05-2006 19:22:01 25.9 C 37 % 10.1 C
2709 03-05-2006 19:32:02 25 C 39 % 10.09 C
2710 03-05-2006 19:42:02 24.6 C 40 % 10.11 C
2711 03-05-2006 19:52:02 24 C 42 % 10.3 C
2712 03-05-2006 20:02:01 23.6 C 43 % 10.3 C
2713 03-05-2006 20:12:01 23.1 C 44 % 10.19 C
2714 03-05-2006 20:22:01 22.7 C 44 % 9.83 C
2715 03-05-2006 20:32:02 22.3 C 44 % 9.47 C
2716 03-05-2006 20:42:02 21.7 C 45 % 9.26 C
2717 03-05-2006 20:52:02 21.4 C 46 % 9.31 C
2718 03-05-2006 21:02:01 21 C 46 % 8.95 C
2719 03-05-2006 21:12:01 20.6 C 48 % 9.21 C
2720 03-05-2006 21:22:01 20.3 C 50 % 9.54 C
2721 03-05-2006 21:32:01 20.2 C 50 % 9.45 C
2722 03-05-2006 21:42:01 19.8 C 52 % 9.67 C
2723 03-05-2006 21:52:02 19.6 C 52 % 9.48 C
2724 03-05-2006 22:02:01 19.3 C 53 % 9.49 C
2725 03-05-2006 22:12:01 19.1 C 53 % 9.3 C
Sensor: Nr:Datum:Temp:Feuchte:Taupunkt:
Aussen-T/F 2726 03-05-2006 22:22:01 19 C 53 % 9.21 C
2727 03-05-2006 22:32:02 18.7 C 54 % 9.21 C
2728 03-05-2006 22:42:02 18.5 C 55 % 9.3 C
2729 03-05-2006 22:52:02 18.3 C 55 % 9.11 C
2730 03-05-2006 23:02:01 18.2 C 56 % 9.29 C
2731 03-05-2006 23:12:01 17.9 C 58 % 9.53 C
2732 03-05-2006 23:22:01 17.7 C 58 % 9.34 C
2733 03-05-2006 23:32:02 17.4 C 59 % 9.31 C
2734 03-05-2006 23:42:02 17.2 C 60 % 9.37 C
2735 03-05-2006 23:52:02 17 C 61 % 9.43 C
2736 04-05-2006 00:02:02 16.7 C 63 % 9.63 C
2737 04-05-2006 00:12:03 16.5 C 64 % 9.67 C
2738 04-05-2006 00:22:02 16.3 C 65 % 9.71 C
2739 04-05-2006 00:32:02 16.2 C 66 % 9.85 C
2740 04-05-2006 00:42:03 16 C 66 % 9.66 C
2741 04-05-2006 00:52:03 15.8 C 67 % 9.69 C
2742 04-05-2006 01:02:03 15.7 C 67 % 9.6 C
2743 04-05-2006 01:12:03 15.7 C 68 % 9.82 C
2744 04-05-2006 01:22:03 15.5 C 68 % 9.63 C
2745 04-05-2006 01:32:03 15.2 C 69 % 9.56 C
2746 04-05-2006 01:42:03 15.1 C 70 % 9.67 C
2747 04-05-2006 01:52:03 14.9 C 71 % 9.69 C
2748 04-05-2006 02:02:02 14.8 C 71 % 9.6 C
2749 04-05-2006 02:12:02 14.7 C 72 % 9.71 C
2750 04-05-2006 02:22:03 14.6 C 72 % 9.61 C
Sensor: Nr:Datum:Temp:Feuchte:Taupunkt:
Aussen-T/F 2751 04-05-2006 02:32:02 14.4 C 73 % 9.63 C
2752 04-05-2006 02:42:02 14.1 C 73 % 9.34 C
2753 04-05-2006 02:53:04 14.1 C 73 % 9.34 C
2754 04-05-2006 03:03:04 14 C 73 % 9.24 C
2755 04-05-2006 03:13:03 13.7 C 74 % 9.15 C
2756 04-05-2006 03:23:03 13.5 C 75 % 9.16 C
2757 04-05-2006 03:33:02 13.4 C 75 % 9.06 C
2758 04-05-2006 03:43:03 13.3 C 76 % 9.16 C
2759 04-05-2006 03:53:03 13.1 C 76 % 8.97 C
2760 04-05-2006 04:03:02 13 C 76 % 8.87 C
2761 04-05-2006 04:13:02 13 C 76 % 8.87 C
2762 04-05-2006 04:23:03 12.8 C 77 % 8.87 C
2763 04-05-2006 04:33:03 12.6 C 77 % 8.68 C
2764 04-05-2006 04:43:03 12.5 C 78 % 8.77 C
2765 04-05-2006 04:53:02 12.4 C 78 % 8.68 C
2766 04-05-2006 05:03:02 12.3 C 79 % 8.77 C
2767 04-05-2006 05:13:02 12.1 C 80 % 8.76 C
2768 04-05-2006 05:23:02 12 C 81 % 8.84 C
2769 04-05-2006 05:33:02 11.7 C 81 % 8.55 C
2770 04-05-2006 05:43:02 11.6 C 81 % 8.45 C
2771 04-05-2006 05:53:02 11.5 C 82 % 8.54 C
2772 04-05-2006 06:03:02 11.4 C 83 % 8.62 C
2773 04-05-2006 06:13:02 11.3 C 83 % 8.52 C
2774 04-05-2006 06:23:01 11.3 C 83 % 8.52 C
2775 04-05-2006 06:33:02 11.4 C 83 % 8.62 C
Sensor: Nr:Datum:Temp:Feuchte:Taupunkt:
Aussen-T/F 2776 04-05-2006 06:43:02 11.3 C 83 % 8.52 C
2777 04-05-2006 06:53:02 11.4 C 83 % 8.62 C
2778 04-05-2006 07:03:02 11.4 C 84 % 8.8 C
2779 04-05-2006 07:13:02 11.5 C 84 % 8.89 C
2780 04-05-2006 07:23:01 11.7 C 84 % 9.09 C
2781 04-05-2006 07:33:01 12 C 83 % 9.21 C
2782 04-05-2006 07:43:01 12.3 C 82 % 9.32 C
2783 04-05-2006 07:53:02 12.5 C 81 % 9.33 C
2784 04-05-2006 08:03:01 12.7 C 80 % 9.34 C
2785 04-05-2006 08:13:01 12.9 C 80 % 9.54 C
2786 04-05-2006 08:23:01 13 C 78 % 9.26 C
2787 04-05-2006 08:33:02 13.2 C 77 % 9.26 C
2788 04-05-2006 08:43:02 13.5 C 76 % 9.36 C
2789 04-05-2006 08:53:02 13.9 C 77 % 9.94 C
2790 04-05-2006 09:03:01 14.5 C 75 % 10.13 C
2791 04-05-2006 09:13:01 15 C 73 % 10.2 C
2792 04-05-2006 09:23:01 15.5 C 72 % 10.48 C
2793 04-05-2006 09:33:02 16.3 C 68 % 10.39 C
2794 04-05-2006 09:43:02 17.1 C 61 % 9.53 C
2795 04-05-2006 09:53:02 17.8 C 58 % 9.43 C
2796 04-05-2006 10:03:02 18.3 C 51 % 8 C
2797 04-05-2006 10:13:02 18.9 C 45 % 6.72 C
2798 04-05-2006 10:23:02 19.5 C 42 % 6.26 C
2799 04-05-2006 10:33:03 19.8 C 42 % 6.53 C
2800 04-05-2006 10:43:03 20.5 C 41 % 6.81 C
Sensor: Nr:Datum:Temp:Feuchte:Taupunkt:
Aussen-T/F 2801 04-05-2006 10:53:02 20.7 C 41 % 6.99 C
2802 04-05-2006 11:03:02 21.1 C 39 % 6.62 C
2803 04-05-2006 11:13:02 21.5 C 36 % 5.81 C
2804 04-05-2006 11:23:02 22 C 36 % 6.26 C
2805 04-05-2006 11:33:02 22.5 C 35 % 6.29 C
2806 04-05-2006 11:43:02 22.5 C 33 % 5.44 C
2807 04-05-2006 11:53:02 22.5 C 33 % 5.44 C
2808 04-05-2006 12:03:02 23 C 31 % 4.98 C
2809 04-05-2006 12:13:02 23.4 C 30 % 4.85 C
2810 04-05-2006 12:23:01 23.3 C 30 % 4.77 C
2811 04-05-2006 12:33:02 23.9 C 29 % 4.8 C
2812 04-05-2006 12:43:02 24.3 C 28 % 4.64 C
2813 04-05-2006 12:53:02 24.6 C 28 % 4.9 C
2814 04-05-2006 13:03:01 25.1 C 27 % 4.8 C
2815 04-05-2006 13:13:01 25.4 C 25 % 3.96 C
2816 04-05-2006 13:23:01 25.7 C 25 % 4.21 C
2817 04-05-2006 13:33:02 26 C 23 % 3.28 C
2818 04-05-2006 13:43:02 26 C 22 % 2.66 C
2819 04-05-2006 13:53:02 26.2 C 21 % 2.17 C
2820 04-05-2006 14:03:01 26.2 C 21 % 2.17 C
2821 04-05-2006 14:13:01 26.6 C 21 % 2.5 C
2822 04-05-2006 14:23:01 26.5 C 20 % 1.74 C
2823 04-05-2006 14:33:02 27 C 20 % 2.15 C
2824 04-05-2006 14:43:02 27.2 C 20 % 2.31 C
2825 04-05-2006 14:53:02 27.4 C 20 % 2.47 C
Sensor: Nr:Datum:Temp:Feuchte:Taupunkt:
Aussen-T/F 2826 04-05-2006 15:03:02 27.6 C 20 % 2.64 C
2827 04-05-2006 15:13:02 27.9 C 20 % 2.88 C
2828 04-05-2006 15:23:02 27.9 C 20 % 2.88 C
2829 04-05-2006 15:33:03 28.1 C 20 % 3.05 C
2830 04-05-2006 15:43:03 28.1 C 20 % 3.05 C
2831 04-05-2006 15:53:02 28.2 C 20 % 3.13 C
2832 04-05-2006 16:03:02 28.3 C 20 % 3.21 C
2833 04-05-2006 16:13:02 28.6 C 20 % 3.46 C
2834 04-05-2006 16:23:02 28.4 C 20 % 3.29 C
2835 04-05-2006 16:33:02 28.4 C 20 % 3.29 C
2836 04-05-2006 16:43:02 28.1 C 20 % 3.05 C
2837 04-05-2006 16:53:02 28.1 C 20 % 3.05 C
2838 04-05-2006 17:03:02 27.8 C 20 % 2.8 C
2839 04-05-2006 17:13:02 27.7 C 20 % 2.72 C
2840 04-05-2006 17:23:02 27.7 C 20 % 2.72 C
2841 04-05-2006 17:33:02 27.6 C 20 % 2.64 C
2842 04-05-2006 17:43:02 27.4 C 20 % 2.47 C
2843 04-05-2006 17:53:02 27.2 C 20 % 2.31 C
2844 04-05-2006 18:03:02 26.9 C 20 % 2.06 C
2845 04-05-2006 18:13:02 27 C 20 % 2.15 C
2846 04-05-2006 18:23:02 26.9 C 20 % 2.06 C
2847 04-05-2006 18:33:02 26.9 C 20 % 2.06 C
2848 04-05-2006 18:43:02 26.9 C 25 % 5.22 C
2849 04-05-2006 18:53:02 26.5 C 26 % 5.45 C
2850 04-05-2006 19:03:01 26.2 C 26 % 5.2 C
Sensor: Nr:Datum:Temp:Feuchte:Taupunkt:
Aussen-T/F 2851 04-05-2006 19:13:01 25.7 C 27 % 5.31 C
2852 04-05-2006 19:23:01 25.1 C 27 % 4.8 C
2853 04-05-2006 19:33:02 24.5 C 28 % 4.81 C
2854 04-05-2006 19:43:02 23.8 C 29 % 4.71 C
2855 04-05-2006 19:53:02 23.3 C 30 % 4.77 C
2856 04-05-2006 20:03:01 22.8 C 31 % 4.8 C
2857 04-05-2006 20:13:01 22.1 C 32 % 4.65 C
2858 04-05-2006 20:23:01 21.8 C 33 % 4.83 C
2859 04-05-2006 20:33:02 21.2 C 33 % 4.3 C
2860 04-05-2006 20:43:02 20.7 C 35 % 4.7 C
2861 04-05-2006 20:53:02 20.3 C 35 % 4.35 C
2862 04-05-2006 21:03:02 19.9 C 36 % 4.4 C
2863 04-05-2006 21:13:02 19.5 C 36 % 4.05 C
2864 04-05-2006 21:23:02 19.3 C 36 % 3.87 C
2865 04-05-2006 21:33:03 19.2 C 36 % 3.78 C
2866 04-05-2006 21:43:03 19.1 C 36 % 3.7 C
2867 04-05-2006 21:53:02 18.7 C 39 % 4.48 C
2868 04-05-2006 22:03:02 18.6 C 40 % 4.75 C
2869 04-05-2006 22:13:02 18.3 C 40 % 4.48 C
2870 04-05-2006 22:23:02 18 C 41 % 4.57 C
2871 04-05-2006 22:33:03 17.8 C 42 % 4.73 C
2872 04-05-2006 22:43:03 17.7 C 43 % 4.98 C
2873 04-05-2006 22:53:02 17.6 C 45 % 5.54 C
2874 04-05-2006 23:03:02 17.4 C 46 % 5.67 C
2875 04-05-2006 23:13:02 17 C 45 % 4.99 C
Sensor: Nr:Datum:Temp:Feuchte:Taupunkt:
Aussen-T/F 2876 04-05-2006 23:23:02 16.9 C 46 % 5.22 C
2877 04-05-2006 23:33:02 16.7 C 46 % 5.04 C
2878 04-05-2006 23:43:02 16.6 C 46 % 4.95 C
2879 04-05-2006 23:53:02 16.7 C 45 % 4.72 C
2880 05-05-2006 00:03:02 16.7 C 44 % 4.4 C
2881 05-05-2006 00:13:02 16.7 C 45 % 4.72 C
2882 05-05-2006 00:23:03 16.7 C 45 % 4.72 C
2883 05-05-2006 00:33:02 16.7 C 44 % 4.4 C
2884 05-05-2006 00:43:02 16.6 C 46 % 4.95 C
2885 05-05-2006 00:53:02 16.6 C 44 % 4.31 C
2886 05-05-2006 01:03:02 16.6 C 44 % 4.31 C
2887 05-05-2006 01:13:02 16.5 C 44 % 4.22 C
2888 05-05-2006 01:23:02 16.4 C 44 % 4.13 C
2889 05-05-2006 01:33:01 16.4 C 43 % 3.8 C
2890 05-05-2006 01:43:01 16.4 C 42 % 3.47 C
2891 05-05-2006 01:53:02 16.8 C 42 % 3.83 C
2892 05-05-2006 02:03:03 16.8 C 42 % 3.83 C
2893 05-05-2006 02:13:03 16.5 C 42 % 3.56 C
2894 05-05-2006 02:23:02 16.3 C 43 % 3.71 C
2895 05-05-2006 02:33:02 16 C 45 % 4.09 C
2896 05-05-2006 02:43:02 15.6 C 47 % 4.34 C
2897 05-05-2006 02:54:03 15.5 C 47 % 4.25 C
2898 05-05-2006 03:04:03 15.5 C 47 % 4.25 C
2899 05-05-2006 03:14:04 15.1 C 48 % 4.18 C
2900 05-05-2006 03:24:04 14.8 C 49 % 4.2 C
Sensor: Nr:Datum:Temp:Feuchte:Taupunkt:
Aussen-T/F 2901 05-05-2006 03:34:03 14.7 C 50 % 4.4 C
2902 05-05-2006 03:44:03 14.3 C 51 % 4.31 C
2903 05-05-2006 03:54:03 14.1 C 53 % 4.68 C
2904 05-05-2006 04:04:03 14.1 C 53 % 4.68 C
2905 05-05-2006 04:14:03 13.9 C 55 % 5.02 C
2906 05-05-2006 04:24:02 13.7 C 56 % 5.09 C
2907 05-05-2006 04:34:03 13.5 C 57 % 5.16 C
2908 05-05-2006 04:44:03 13.4 C 60 % 5.8 C
2909 05-05-2006 04:54:02 13.1 C 59 % 5.28 C
2910 05-05-2006 05:04:02 12.8 C 61 % 5.48 C
2911 05-05-2006 05:14:02 12.6 C 62 % 5.52 C
2912 05-05-2006 05:24:02 12.4 C 65 % 6.01 C
2913 05-05-2006 05:34:02 12.2 C 65 % 5.82 C
2914 05-05-2006 05:44:02 12.1 C 66 % 5.95 C
2915 05-05-2006 05:54:02 12 C 67 % 6.07 C
2916 05-05-2006 06:04:02 11.8 C 70 % 6.51 C
2917 05-05-2006 06:14:02 11.7 C 69 % 6.21 C
2918 05-05-2006 06:24:02 11.6 C 71 % 6.53 C
2919 05-05-2006 06:34:03 11.5 C 72 % 6.63 C
2920 05-05-2006 06:44:03 11.6 C 72 % 6.73 C
2921 05-05-2006 06:54:03 11.8 C 72 % 6.92 C
2922 05-05-2006 07:04:02 11.9 C 71 % 6.82 C
2923 05-05-2006 07:14:02 12.3 C 70 % 6.99 C
2924 05-05-2006 07:24:02 12.6 C 69 % 7.07 C
2925 05-05-2006 07:34:02 13.2 C 67 % 7.21 C
Sensor: Nr:Datum:Temp:Feuchte:Taupunkt:
Aussen-T/F 2926 05-05-2006 07:44:02 13.5 C 66 % 7.28 C
2927 05-05-2006 07:54:02 13.7 C 64 % 7.02 C
2928 05-05-2006 08:04:01 14.2 C 61 % 6.8 C
2929 05-05-2006 08:14:01 14.5 C 60 % 6.84 C
2930 05-05-2006 08:24:01 14.7 C 58 % 6.53 C
2931 05-05-2006 08:34:02 14.9 C 57 % 6.47 C
2932 05-05-2006 08:44:02 15.2 C 57 % 6.75 C
2933 05-05-2006 08:54:01 15.9 C 55 % 6.88 C
2934 05-05-2006 09:04:01 16.3 C 49 % 5.58 C
2935 05-05-2006 09:14:01 16.7 C 47 % 5.34 C
2936 05-05-2006 09:24:01 17 C 46 % 5.31 C
2937 05-05-2006 09:34:02 17.2 C 45 % 5.18 C
2938 05-05-2006 09:44:02 17.7 C 46 % 5.95 C
2939 05-05-2006 09:54:02 17.8 C 45 % 5.72 C
2940 05-05-2006 10:04:02 17.9 C 45 % 5.81 C
2941 05-05-2006 10:14:02 18.1 C 45 % 5.99 C
2942 05-05-2006 10:24:02 18.5 C 43 % 5.7 C
2943 05-05-2006 10:34:03 18.9 C 43 % 6.06 C
2944 05-05-2006 10:44:03 19.2 C 43 % 6.33 C
2945 05-05-2006 10:54:02 19.5 C 41 % 5.91 C
2946 05-05-2006 11:04:02 19.9 C 41 % 6.27 C
2947 05-05-2006 11:14:02 20.1 C 39 % 5.73 C
2948 05-05-2006 11:24:02 20.8 C 40 % 6.72 C
2949 05-05-2006 11:34:02 20.9 C 39 % 6.44 C
2950 05-05-2006 11:44:02 21.3 C 37 % 6.03 C
Sensor: Nr:Datum:Temp:Feuchte:Taupunkt:
Aussen-T/F 2951 05-05-2006 11:54:02 22 C 37 % 6.65 C
2952 05-05-2006 12:04:02 22.5 C 35 % 6.29 C
2953 05-05-2006 12:14:02 23.1 C 33 % 5.96 C
2954 05-05-2006 12:24:01 23.3 C 33 % 6.14 C
2955 05-05-2006 12:34:02 23.3 C 33 % 6.14 C
2956 05-05-2006 12:44:02 23.7 C 32 % 6.04 C
2957 05-05-2006 12:54:02 24.1 C 30 % 5.46 C
2958 05-05-2006 13:04:02 24.9 C 29 % 5.66 C
2959 05-05-2006 13:14:02 25 C 26 % 4.18 C
2960 05-05-2006 13:24:02 25.5 C 26 % 4.6 C
2961 05-05-2006 13:34:02 26.2 C 25 % 4.63 C
2962 05-05-2006 13:44:02 26.2 C 24 % 4.05 C
2963 05-05-2006 13:54:02 26.9 C 25 % 5.22 C
2964 05-05-2006 14:04:02 27.1 C 25 % 5.39 C
2965 05-05-2006 14:14:02 27.3 C 25 % 5.56 C
2966 05-05-2006 14:24:02 27.5 C 24 % 5.14 C
2967 05-05-2006 14:34:01 27.8 C 23 % 4.78 C
2968 05-05-2006 14:44:01 28 C 21 % 3.66 C
2969 05-05-2006 14:54:02 28.1 C 21 % 3.74 C
2970 05-05-2006 15:04:02 28.3 C 22 % 4.57 C
2971 05-05-2006 15:14:02 27.7 C 23 % 4.7 C
2972 05-05-2006 15:24:02 27.9 C 23 % 4.87 C
2973 05-05-2006 15:34:01 28.2 C 22 % 4.48 C
2974 05-05-2006 15:44:01 28.2 C 20 % 3.13 C
2975 05-05-2006 15:54:02 28.7 C 21 % 4.23 C
Sensor: Nr:Datum:Temp:Feuchte:Taupunkt:
Aussen-T/F 2976 05-05-2006 16:04:02 29.7 C 20 % 4.36 C
2977 05-05-2006 16:14:02 30 C 20 % 4.61 C
2978 05-05-2006 16:24:02 30.1 C 20 % 4.69 C
2979 05-05-2006 16:34:02 30.2 C 20 % 4.77 C
2980 05-05-2006 16:44:02 30.4 C 20 % 4.93 C
2981 05-05-2006 16:54:02 30.5 C 20 % 5.01 C
2982 05-05-2006 17:04:01 30.7 C 20 % 5.18 C
2983 05-05-2006 17:14:01 30.6 C 20 % 5.1 C
2984 05-05-2006 17:24:01 30.7 C 20 % 5.18 C
2985 05-05-2006 17:34:02 30.1 C 20 % 4.69 C
2986 05-05-2006 17:44:02 29.4 C 20 % 4.11 C
2987 05-05-2006 17:54:02 28.3 C 20 % 3.21 C
2988 05-05-2006 18:04:01 28 C 20 % 2.97 C
2989 05-05-2006 18:14:01 27.6 C 20 % 2.64 C
2990 05-05-2006 18:24:01 28.1 C 20 % 3.05 C
2991 05-05-2006 18:34:02 28.5 C 20 % 3.38 C
2992 05-05-2006 18:44:02 28.4 C 20 % 3.29 C
2993 05-05-2006 18:54:02 28 C 20 % 2.97 C
2994 05-05-2006 19:04:02 28.2 C 20 % 3.13 C
2995 05-05-2006 19:14:02 28.2 C 20 % 3.13 C
2996 05-05-2006 19:24:02 27.9 C 20 % 2.88 C
2997 05-05-2006 19:34:03 27.4 C 20 % 2.47 C
2998 05-05-2006 19:44:03 27 C 21 % 2.83 C
2999 05-05-2006 19:54:02 26.7 C 21 % 2.58 C
3000 05-05-2006 20:04:02 25.8 C 25 % 4.3 C
Sensor: Nr:Datum:Temp:Feuchte:Taupunkt:
Aussen-T/F 3001 05-05-2006 20:14:02 24.6 C 26 % 3.84 C
3002 05-05-2006 20:24:02 23.7 C 29 % 4.63 C
3003 05-05-2006 20:34:02 22.9 C 31 % 4.89 C
3004 05-05-2006 20:44:02 22.3 C 31 % 4.37 C
3005 05-05-2006 20:54:02 21.4 C 33 % 4.48 C
3006 05-05-2006 21:04:02 20.9 C 35 % 4.88 C
3007 05-05-2006 21:14:02 20.2 C 35 % 4.26 C
3008 05-05-2006 21:24:02 19.8 C 36 % 4.31 C
3009 05-05-2006 21:34:02 19.3 C 37 % 4.26 C
3010 05-05-2006 21:44:02 19.1 C 38 % 4.46 C
3011 05-05-2006 21:54:02 18.8 C 39 % 4.57 C
3012 05-05-2006 22:04:02 18.5 C 40 % 4.66 C
3013 05-05-2006 22:14:02 18.3 C 40 % 4.48 C
3014 05-05-2006 22:24:02 18 C 41 % 4.57 C
3015 05-05-2006 22:34:01 17.9 C 42 % 4.82 C
3016 05-05-2006 22:44:01 17.9 C 43 % 5.16 C
3017 05-05-2006 22:54:01 17.9 C 44 % 5.49 C
3018 05-05-2006 23:04:02 17.7 C 45 % 5.63 C
3019 05-05-2006 23:14:02 17.5 C 45 % 5.45 C
3020 05-05-2006 23:24:02 17.1 C 47 % 5.71 C
3021 05-05-2006 23:34:02 17 C 47 % 5.62 C
3022 05-05-2006 23:44:02 16.9 C 48 % 5.83 C
3023 05-05-2006 23:54:02 16.6 C 49 % 5.85 C
3024 06-05-2006 00:04:02 16.2 C 50 % 5.78 C
3025 06-05-2006 00:14:02 15.6 C 53 % 6.06 C
Sensor: Nr:Datum:Temp:Feuchte:Taupunkt:
Aussen-T/F 3026 06-05-2006 00:24:03 15.6 C 53 % 6.06 C
3027 06-05-2006 00:34:03 15.4 C 52 % 5.61 C
3028 06-05-2006 00:44:03 15.4 C 53 % 5.88 C
3029 06-05-2006 00:54:02 15.1 C 55 % 6.14 C
3030 06-05-2006 01:04:01 14.9 C 55 % 5.95 C
3031 06-05-2006 01:14:01 14.7 C 56 % 6.02 C
3032 06-05-2006 01:24:02 14.7 C 57 % 6.28 C
3033 06-05-2006 01:34:02 14.2 C 58 % 6.06 C
3034 06-05-2006 01:44:02 14.2 C 58 % 6.06 C
3035 06-05-2006 01:54:03 14 C 58 % 5.88 C
3036 06-05-2006 02:04:03 13.8 C 60 % 6.18 C
3037 06-05-2006 02:14:03 13.8 C 60 % 6.18 C
3038 06-05-2006 02:24:03 13.5 C 60 % 5.9 C
3039 06-05-2006 02:34:03 13.4 C 61 % 6.04 C
3040 06-05-2006 02:44:03 13.2 C 62 % 6.09 C
3041 06-05-2006 02:55:03 12.9 C 63 % 6.04 C
3042 06-05-2006 03:05:03 12.8 C 64 % 6.17 C
3043 06-05-2006 03:15:03 12.7 C 64 % 6.07 C
3044 06-05-2006 03:25:03 12.4 C 64 % 5.79 C
3045 06-05-2006 03:35:02 12.2 C 66 % 6.04 C
3046 06-05-2006 03:45:02 12 C 66 % 5.85 C
3047 06-05-2006 03:55:02 11.9 C 68 % 6.19 C
3048 06-05-2006 04:05:02 11.8 C 69 % 6.31 C
3049 06-05-2006 04:15:03 11.6 C 70 % 6.32 C
3050 06-05-2006 04:25:03 11.4 C 70 % 6.13 C
Sensor: Nr:Datum:Temp:Feuchte:Taupunkt:
Aussen-T/F 3051 06-05-2006 04:35:02 11.3 C 71 % 6.24 C
3052 06-05-2006 04:45:02 11.2 C 72 % 6.35 C
3053 06-05-2006 04:55:02 11.1 C 72 % 6.25 C
3054 06-05-2006 05:05:02 11 C 72 % 6.15 C
3055 06-05-2006 05:15:02 10.7 C 74 % 6.26 C
3056 06-05-2006 05:25:02 10.7 C 75 % 6.46 C
3057 06-05-2006 05:35:02 10.6 C 75 % 6.36 C
3058 06-05-2006 05:45:03 10.4 C 75 % 6.17 C
3059 06-05-2006 05:55:03 10.3 C 76 % 6.26 C
3060 06-05-2006 06:05:03 10.2 C 76 % 6.16 C
3061 06-05-2006 06:15:02 10.1 C 76 % 6.07 C
3062 06-05-2006 06:25:02 10.1 C 76 % 6.07 C
3063 06-05-2006 06:35:02 10.1 C 77 % 6.26 C
3064 06-05-2006 06:45:02 10.2 C 77 % 6.35 C
3065 06-05-2006 06:55:03 10.3 C 77 % 6.45 C
3066 06-05-2006 07:05:01 10.5 C 78 % 6.83 C
3067 06-05-2006 07:15:01 10.7 C 77 % 6.84 C
3068 06-05-2006 07:25:01 11.3 C 76 % 7.23 C
3069 06-05-2006 07:35:02 11.5 C 74 % 7.03 C
3070 06-05-2006 07:45:02 11.8 C 74 % 7.32 C
3071 06-05-2006 07:55:02 12.3 C 72 % 7.4 C
3072 06-05-2006 08:05:02 12.7 C 69 % 7.17 C
3073 06-05-2006 08:15:02 13.2 C 65 % 6.77 C
3074 06-05-2006 08:25:02 13.6 C 62 % 6.47 C
3075 06-05-2006 08:35:03 13.8 C 59 % 5.94 C
Sensor: Nr:Datum:Temp:Feuchte:Taupunkt:
Aussen-T/F 3076 06-05-2006 08:45:02 14.1 C 57 % 5.72 C
3077 06-05-2006 08:55:02 14.2 C 55 % 5.3 C
3078 06-05-2006 09:05:02 15.4 C 50 % 5.04 C
3079 06-05-2006 09:15:02 15.9 C 46 % 4.31 C
3080 06-05-2006 09:25:02 16.5 C 41 % 3.22 C
3081 06-05-2006 09:35:02 16.9 C 40 % 3.23 C
3082 06-05-2006 09:45:02 17.2 C 39 % 3.14 C
3083 06-05-2006 09:55:02 17.8 C 38 % 3.31 C
3084 06-05-2006 10:05:03 18.1 C 36 % 2.81 C
3085 06-05-2006 10:15:02 18.5 C 35 % 2.77 C
3086 06-05-2006 10:25:02 18.8 C 35 % 3.03 C
3087 06-05-2006 10:35:02 19.1 C 34 % 2.89 C
3088 06-05-2006 10:45:02 19.5 C 34 % 3.24 C
3089 06-05-2006 10:55:02 19.9 C 33 % 3.17 C
3090 06-05-2006 11:05:02 20.3 C 32 % 3.08 C
3091 06-05-2006 11:15:01 20.8 C 30 % 2.61 C
3092 06-05-2006 11:25:01 21.2 C 30 % 2.95 C
3093 06-05-2006 11:35:01 21.6 C 28 % 2.33 C
3094 06-05-2006 11:45:02 22 C 23 % -0.06 C
3095 06-05-2006 11:55:02 22.2 C 20 % -1.8 C
3096 06-05-2006 12:05:01 22.7 C 20 % -1.39 C
3097 06-05-2006 12:15:01 23.3 C 20 % -0.9 C
3098 06-05-2006 12:25:01 23.2 C 20 % -0.98 C
3099 06-05-2006 12:35:02 23.9 C 20 % -0.4 C
3100 06-05-2006 12:45:02 23.6 C 20 % -0.65 C
Sensor: Nr:Datum:Temp:Feuchte:Taupunkt:
Aussen-T/F 3101 06-05-2006 12:55:02 24.4 C 20 % 0.01 C
3102 06-05-2006 13:05:03 25 C 20 % 0.5 C
3103 06-05-2006 13:15:02 25.3 C 20 % 0.75 C
3104 06-05-2006 13:25:02 25.5 C 20 % 0.91 C
3105 06-05-2006 13:35:02 25.5 C 20 % 0.91 C
3106 06-05-2006 13:45:02 25.3 C 20 % 0.75 C
3107 06-05-2006 13:55:02 25.5 C 20 % 0.91 C
3108 06-05-2006 14:05:03 25.2 C 20 % 0.67 C
3109 06-05-2006 14:15:02 25.9 C 20 % 1.24 C
3110 06-05-2006 14:25:02 26.3 C 20 % 1.57 C
3111 06-05-2006 14:35:01 26.6 C 20 % 1.82 C
3112 06-05-2006 14:45:03 26.4 C 20 % 1.65 C
3113 06-05-2006 14:55:03 27 C 20 % 2.15 C
3114 06-05-2006 15:05:02 27.4 C 20 % 2.47 C
3115 06-05-2006 15:15:03 27.1 C 20 % 2.23 C
3116 06-05-2006 15:25:03 26.8 C 20 % 1.98 C
3117 06-05-2006 15:35:02 26.9 C 20 % 2.06 C
3118 06-05-2006 15:45:02 27.1 C 20 % 2.23 C
3119 06-05-2006 15:55:02 27.7 C 20 % 2.72 C
3120 06-05-2006 16:05:02 28.2 C 20 % 3.13 C
3121 06-05-2006 16:15:02 28.6 C 20 % 3.46 C
3122 06-05-2006 16:25:02 28.9 C 20 % 3.7 C
3123 06-05-2006 16:35:03 28.9 C 20 % 3.7 C
3124 06-05-2006 16:45:02 28.9 C 20 % 3.7 C
3125 06-05-2006 16:55:03 28.7 C 20 % 3.54 C
Sensor: Nr:Datum:Temp:Feuchte:Taupunkt:
Aussen-T/F 3126 06-05-2006 17:05:02 28.6 C 20 % 3.46 C
3127 06-05-2006 17:15:02 28.6 C 20 % 3.46 C
3128 06-05-2006 17:25:02 28.4 C 20 % 3.29 C
3129 06-05-2006 17:35:02 28.1 C 20 % 3.05 C
3130 06-05-2006 17:45:02 28.4 C 20 % 3.29 C
3131 06-05-2006 17:55:03 28.3 C 20 % 3.21 C
3132 06-05-2006 18:05:02 28 C 20 % 2.97 C
3133 06-05-2006 18:15:01 27.8 C 20 % 2.8 C
3134 06-05-2006 18:25:01 27.4 C 20 % 2.47 C
3135 06-05-2006 18:35:02 26.6 C 20 % 1.82 C
3136 06-05-2006 18:45:02 26.6 C 20 % 1.82 C
3137 06-05-2006 18:55:02 26.4 C 20 % 1.65 C
3138 06-05-2006 19:05:01 26.2 C 20 % 1.49 C
3139 06-05-2006 19:15:02 25.7 C 20 % 1.08 C
3140 06-05-2006 19:25:02 25.2 C 20 % 0.67 C
3141 06-05-2006 19:35:02 24.4 C 20 % 0.01 C
3142 06-05-2006 19:45:01 23.7 C 20 % -0.57 C
3143 06-05-2006 19:55:01 23.4 C 20 % -0.81 C
3144 06-05-2006 20:05:01 22.9 C 20 % -1.22 C
3145 06-05-2006 20:15:01 22.1 C 20 % -1.88 C
3146 06-05-2006 20:25:01 21.6 C 20 % -2.3 C
3147 06-05-2006 20:35:02 20.7 C 20 % -3.04 C
3148 06-05-2006 20:45:02 20.2 C 20 % -3.45 C
3149 06-05-2006 20:55:02 19.6 C 21 % -3.29 C
3150 06-05-2006 21:05:02 19.1 C 21 % -3.71 C
Sensor: Nr:Datum:Temp:Feuchte:Taupunkt:
Aussen-T/F 3151 06-05-2006 21:15:03 18.7 C 24 % -2.25 C
3152 06-05-2006 21:25:03 18.4 C 25 % -1.96 C
3153 06-05-2006 21:35:03 18.2 C 25 % -2.13 C
3154 06-05-2006 21:45:02 17.9 C 25 % -2.38 C
3155 06-05-2006 21:55:02 17.7 C 26 % -2.02 C
3156 06-05-2006 22:05:02 17.5 C 29 % -0.71 C
3157 06-05-2006 22:15:02 17.2 C 29 % -0.97 C
3158 06-05-2006 22:25:02 17 C 30 % -0.68 C
3159 06-05-2006 22:35:02 16.8 C 30 % -0.85 C
3160 06-05-2006 22:45:02 16.5 C 30 % -1.11 C
3161 06-05-2006 22:55:02 16.3 C 32 % -0.4 C
3162 06-05-2006 23:05:02 16.3 C 32 % -0.4 C
3163 06-05-2006 23:15:01 16.1 C 31 % -1.01 C
3164 06-05-2006 23:25:01 16.1 C 30 % -1.46 C
3165 06-05-2006 23:35:01 16.2 C 30 % -1.37 C
3166 06-05-2006 23:45:02 16.1 C 31 % -1.01 C
3167 06-05-2006 23:55:02 15.8 C 33 % -0.42 C
3168 07-05-2006 00:05:02 15.4 C 33 % -0.77 C
3169 07-05-2006 00:15:02 15.2 C 33 % -0.95 C
3170 07-05-2006 00:25:02 14.9 C 35 % -0.41 C
3171 07-05-2006 00:35:02 15.1 C 32 % -1.45 C
3172 07-05-2006 00:45:02 15 C 33 % -1.12 C
3173 07-05-2006 00:55:02 14.8 C 34 % -0.89 C
3174 07-05-2006 01:05:02 14.4 C 36 % -0.46 C
3175 07-05-2006 01:15:02 14.4 C 36 % -0.46 C
Sensor: Nr:Datum:Temp:Feuchte:Taupunkt:
Aussen-T/F 3176 07-05-2006 01:25:02 14.2 C 35 % -1.02 C
3177 07-05-2006 01:35:02 14 C 36 % -0.82 C
3178 07-05-2006 01:45:02 13.8 C 37 % -0.62 C
3179 07-05-2006 01:55:03 13.7 C 36 % -1.08 C
3180 07-05-2006 02:05:02 13.5 C 38 % -0.52 C
3181 07-05-2006 02:15:02 13.4 C 38 % -0.61 C
3182 07-05-2006 02:25:02 13.4 C 37 % -0.97 C
3183 07-05-2006 02:35:02 13.4 C 37 % -0.97 C
3184 07-05-2006 02:46:03 13.2 C 39 % -0.43 C
3185 07-05-2006 02:56:03 13.2 C 38 % -0.79 C
3186 07-05-2006 03:06:03 13.1 C 38 % -0.88 C
3187 07-05-2006 03:16:04 13 C 39 % -0.61 C
3188 07-05-2006 03:26:04 12.8 C 41 % -0.11 C
3189 07-05-2006 03:36:02 12.7 C 41 % -0.2 C
3190 07-05-2006 03:46:02 12.6 C 40 % -0.62 C
3191 07-05-2006 03:56:02 12.5 C 41 % -0.38 C
3192 07-05-2006 04:06:02 12.3 C 42 % -0.23 C
3193 07-05-2006 04:16:02 12.4 C 42 % -0.14 C
3194 07-05-2006 04:26:02 12.2 C 42 % -0.32 C
3195 07-05-2006 04:36:01 12 C 43 % -0.17 C
3196 07-05-2006 04:46:02 11.9 C 45 % 0.36 C
3197 07-05-2006 04:56:03 11.8 C 45 % 0.27 C
3198 07-05-2006 05:06:02 11.7 C 45 % 0.18 C
3199 07-05-2006 05:16:03 11.6 C 46 % 0.39 C
3200 07-05-2006 05:26:03 11.7 C 46 % 0.48 C
Sensor: Nr:Datum:Temp:Feuchte:Taupunkt:
Aussen-T/F 3201 07-05-2006 05:36:02 11.6 C 47 % 0.69 C
3202 07-05-2006 05:46:02 11.6 C 47 % 0.69 C
3203 07-05-2006 05:56:02 11.6 C 46 % 0.39 C
3204 07-05-2006 06:06:02 11.6 C 46 % 0.39 C
3205 07-05-2006 06:16:02 11.6 C 46 % 0.39 C
3206 07-05-2006 06:26:02 11.8 C 46 % 0.57 C
3207 07-05-2006 06:36:02 11.8 C 46 % 0.57 C
3208 07-05-2006 06:46:02 11.8 C 46 % 0.57 C
3209 07-05-2006 06:56:03 12 C 45 % 0.45 C
3210 07-05-2006 07:06:02 12.2 C 45 % 0.63 C
3211 07-05-2006 07:16:02 12.1 C 47 % 1.14 C
3212 07-05-2006 07:26:02 12.1 C 49 % 1.72 C
3213 07-05-2006 07:36:03 12.2 C 52 % 2.65 C
3214 07-05-2006 07:46:02 12.4 C 53 % 3.1 C
3215 07-05-2006 07:56:03 12.4 C 51 % 2.56 C
3216 07-05-2006 08:06:02 12.7 C 51 % 2.84 C
3217 07-05-2006 08:16:02 13 C 50 % 2.83 C
3218 07-05-2006 08:26:02 13.4 C 48 % 2.63 C
3219 07-05-2006 08:36:03 13.7 C 48 % 2.9 C
3220 07-05-2006 08:46:02 13.9 C 46 % 2.49 C
3221 07-05-2006 08:56:02 14.5 C 45 % 2.72 C
3222 07-05-2006 09:06:02 15.1 C 41 % 1.96 C
3223 07-05-2006 09:16:02 15.4 C 40 % 1.89 C
3224 07-05-2006 09:26:02 15.9 C 39 % 1.98 C
3225 07-05-2006 09:36:02 16.3 C 38 % 1.97 C
Sensor: Nr:Datum:Temp:Feuchte:Taupunkt:
Aussen-T/F 3226 07-05-2006 09:46:02 16.8 C 37 % 2.04 C
3227 07-05-2006 09:56:03 17.2 C 35 % 1.62 C
3228 07-05-2006 10:06:02 17.5 C 36 % 2.28 C
3229 07-05-2006 10:16:03 18.1 C 35 % 2.42 C
3230 07-05-2006 10:26:03 18.5 C 35 % 2.77 C
3231 07-05-2006 10:36:02 18.9 C 34 % 2.71 C
3232 07-05-2006 10:46:02 19.3 C 33 % 2.64 C
3233 07-05-2006 10:56:03 19.8 C 33 % 3.08 C
3234 07-05-2006 11:06:02 20.2 C 33 % 3.43 C
3235 07-05-2006 11:16:02 20.3 C 32 % 3.08 C
3236 07-05-2006 11:26:02 20.8 C 31 % 3.07 C
3237 07-05-2006 11:36:02 21.2 C 30 % 2.95 C
3238 07-05-2006 11:46:02 21.6 C 30 % 3.3 C
3239 07-05-2006 11:56:02 22 C 26 % 1.63 C
3240 07-05-2006 12:06:02 22.5 C 26 % 2.06 C
3241 07-05-2006 12:16:02 22.7 C 26 % 2.23 C
3242 07-05-2006 12:26:02 23 C 25 % 1.93 C
3243 07-05-2006 12:36:03 23.4 C 25 % 2.27 C
3244 07-05-2006 12:46:02 23.5 C 23 % 1.19 C
3245 07-05-2006 12:56:03 24.3 C 24 % 2.46 C
3246 07-05-2006 13:06:02 24.7 C 21 % 0.93 C
3247 07-05-2006 13:16:02 24.8 C 20 % 0.34 C
3248 07-05-2006 13:26:02 25 C 20 % 0.5 C
3249 07-05-2006 13:36:03 25.4 C 20 % 0.83 C
3250 07-05-2006 13:46:02 25.4 C 20 % 0.83 C
Sensor: Nr:Datum:Temp:Feuchte:Taupunkt:
Aussen-T/F 3251 07-05-2006 13:56:02 25.1 C 20 % 0.59 C
3252 07-05-2006 14:06:02 25.1 C 20 % 0.59 C
3253 07-05-2006 14:16:02 25 C 20 % 0.5 C
3254 07-05-2006 14:26:02 25.5 C 20 % 0.91 C
3255 07-05-2006 14:36:02 25.8 C 20 % 1.16 C
3256 07-05-2006 14:46:03 26.2 C 20 % 1.49 C
3257 07-05-2006 14:56:03 26.5 C 20 % 1.74 C
3258 07-05-2006 15:06:02 26.2 C 20 % 1.49 C
3259 07-05-2006 15:16:03 26.8 C 20 % 1.98 C
3260 07-05-2006 15:26:03 27.8 C 20 % 2.8 C
3261 07-05-2006 15:36:03 28 C 20 % 2.97 C
3262 07-05-2006 15:46:02 27.4 C 20 % 2.47 C
3263 07-05-2006 15:56:02 28.1 C 20 % 3.05 C
3264 07-05-2006 16:06:02 28.9 C 20 % 3.7 C
3265 07-05-2006 16:16:02 29.1 C 20 % 3.87 C
3266 07-05-2006 16:26:02 28.8 C 20 % 3.62 C
3267 07-05-2006 16:36:03 29.4 C 20 % 4.11 C
3268 07-05-2006 16:46:02 29.4 C 20 % 4.11 C
3269 07-05-2006 16:56:02 29.6 C 20 % 4.28 C
3270 07-05-2006 17:06:02 29.1 C 20 % 3.87 C
3271 07-05-2006 17:16:02 28.8 C 20 % 3.62 C
3272 07-05-2006 17:26:02 28 C 20 % 2.97 C
3273 07-05-2006 17:36:03 28.3 C 20 % 3.21 C
3274 07-05-2006 17:46:02 28.7 C 20 % 3.54 C
3275 07-05-2006 17:56:02 28.4 C 20 % 3.29 C
Sensor: Nr:Datum:Temp:Feuchte:Taupunkt:
Aussen-T/F 3276 07-05-2006 18:06:02 28.4 C 20 % 3.29 C
3277 07-05-2006 18:16:02 28.5 C 20 % 3.38 C
3278 07-05-2006 18:26:02 28.6 C 20 % 3.46 C
3279 07-05-2006 18:36:02 28.2 C 20 % 3.13 C
3280 07-05-2006 18:46:03 28.7 C 20 % 3.54 C
3281 07-05-2006 18:56:03 28.6 C 20 % 3.46 C
3282 07-05-2006 19:06:03 27.5 C 20 % 2.56 C
3283 07-05-2006 19:16:02 27.5 C 20 % 2.56 C
3284 07-05-2006 19:26:02 27.3 C 20 % 2.39 C
3285 07-05-2006 19:36:02 26.8 C 20 % 1.98 C
3286 07-05-2006 19:46:02 26.6 C 20 % 1.82 C
3287 07-05-2006 19:56:02 26.1 C 20 % 1.41 C
3288 07-05-2006 20:06:02 25.7 C 20 % 1.08 C
3289 07-05-2006 20:16:01 24.7 C 22 % 1.58 C
3290 07-05-2006 20:26:01 24 C 24 % 2.21 C
3291 07-05-2006 20:36:02 23.6 C 26 % 2.99 C
3292 07-05-2006 20:46:01 22.7 C 28 % 3.27 C
3293 07-05-2006 20:56:01 21.7 C 31 % 3.85 C
3294 07-05-2006 21:06:02 21.1 C 31 % 3.33 C
3295 07-05-2006 21:16:02 20.6 C 33 % 3.78 C
3296 07-05-2006 21:26:02 20.2 C 35 % 4.26 C
3297 07-05-2006 21:36:02 19.9 C 35 % 4 C
3298 07-05-2006 21:46:02 19.5 C 36 % 4.05 C
3299 07-05-2006 21:56:02 19.3 C 36 % 3.87 C
3300 07-05-2006 22:06:02 19.2 C 37 % 4.17 C
Sensor: Nr:Datum:Temp:Feuchte:Taupunkt:
Aussen-T/F 3301 07-05-2006 22:16:02 18.9 C 37 % 3.91 C
3302 07-05-2006 22:26:02 18.7 C 37 % 3.73 C
3303 07-05-2006 22:36:03 18.5 C 38 % 3.93 C
3304 07-05-2006 22:46:02 18.3 C 39 % 4.12 C
3305 07-05-2006 22:56:02 18 C 39 % 3.85 C
3306 07-05-2006 23:06:02 18 C 40 % 4.21 C
3307 07-05-2006 23:16:02 17.8 C 40 % 4.03 C
3308 07-05-2006 23:26:02 17.6 C 40 % 3.86 C
3309 07-05-2006 23:36:03 17.5 C 41 % 4.12 C
3310 07-05-2006 23:46:02 17.3 C 41 % 3.94 C
3311 07-05-2006 23:56:02 17 C 42 % 4.01 C
3312 08-05-2006 00:06:02 16.9 C 42 % 3.92 C
3313 08-05-2006 00:16:03 16.6 C 44 % 4.31 C
3314 08-05-2006 00:26:03 16.5 C 44 % 4.22 C
3315 08-05-2006 00:36:03 16.3 C 43 % 3.71 C
3316 08-05-2006 00:46:02 16 C 45 % 4.09 C
3317 08-05-2006 00:56:02 16 C 44 % 3.77 C
3318 08-05-2006 01:06:02 15.8 C 46 % 4.22 C
3319 08-05-2006 01:16:02 15.5 C 46 % 3.94 C
3320 08-05-2006 01:26:02 15.3 C 45 % 3.45 C
3321 08-05-2006 01:36:02 15.4 C 45 % 3.54 C
3322 08-05-2006 01:46:02 15.1 C 45 % 3.27 C
3323 08-05-2006 01:56:02 14.9 C 47 % 3.7 C
3324 08-05-2006 02:06:02 14.7 C 47 % 3.52 C
3325 08-05-2006 02:16:02 14.4 C 47 % 3.25 C
Sensor: Nr:Datum:Temp:Feuchte:Taupunkt:
Aussen-T/F 3326 08-05-2006 02:26:02 14.3 C 48 % 3.45 C
3327 08-05-2006 02:36:02 14.1 C 48 % 3.27 C
3328 08-05-2006 02:47:04 14 C 48 % 3.18 C
3329 08-05-2006 02:57:04 13.6 C 49 % 3.1 C
3330 08-05-2006 03:07:04 13.6 C 48 % 2.81 C
3331 08-05-2006 03:17:03 13.5 C 50 % 3.29 C
3332 08-05-2006 03:27:03 13.3 C 50 % 3.11 C
3333 08-05-2006 03:37:02 13 C 50 % 2.83 C
3334 08-05-2006 03:47:02 12.8 C 51 % 2.93 C
3335 08-05-2006 03:57:02 12.8 C 52 % 3.2 C
3336 08-05-2006 04:07:02 12.6 C 53 % 3.29 C
3337 08-05-2006 04:17:02 12.3 C 52 % 2.74 C
3338 08-05-2006 04:27:03 12.2 C 52 % 2.65 C
3339 08-05-2006 04:37:02 12.1 C 53 % 2.82 C
3340 08-05-2006 04:47:02 12 C 53 % 2.73 C
3341 08-05-2006 04:57:02 11.9 C 54 % 2.9 C
3342 08-05-2006 05:07:02 11.8 C 54 % 2.81 C
3343 08-05-2006 05:17:02 11.7 C 55 % 2.97 C
3344 08-05-2006 05:27:02 11.5 C 56 % 3.04 C
3345 08-05-2006 05:37:02 11.3 C 56 % 2.85 C
3346 08-05-2006 05:47:03 11.2 C 57 % 3.01 C
3347 08-05-2006 05:57:03 11.1 C 57 % 2.92 C
3348 08-05-2006 06:07:03 11 C 57 % 2.82 C
3349 08-05-2006 06:17:02 11.1 C 57 % 2.92 C
3350 08-05-2006 06:27:02 11 C 59 % 3.31 C
Sensor: Nr:Datum:Temp:Feuchte:Taupunkt:
Aussen-T/F 3351 08-05-2006 06:37:02 11.1 C 58 % 3.16 C
3352 08-05-2006 06:47:02 11.1 C 59 % 3.4 C
3353 08-05-2006 06:57:02 11.1 C 59 % 3.4 C
3354 08-05-2006 07:07:02 11.2 C 61 % 3.97 C
3355 08-05-2006 07:17:02 11.4 C 61 % 4.16 C
3356 08-05-2006 07:27:03 11.4 C 62 % 4.39 C
3357 08-05-2006 07:37:02 11.7 C 60 % 4.2 C
3358 08-05-2006 07:47:02 11.8 C 61 % 4.53 C
3359 08-05-2006 07:57:02 12 C 60 % 4.49 C
3360 08-05-2006 08:07:02 12.2 C 59 % 4.43 C
3361 08-05-2006 08:17:02 12.5 C 59 % 4.72 C
3362 08-05-2006 08:27:02 12.8 C 57 % 4.5 C
3363 08-05-2006 08:37:02 13 C 55 % 4.18 C
3364 08-05-2006 08:47:02 13.4 C 55 % 4.55 C
3365 08-05-2006 08:57:02 13.7 C 54 % 4.57 C
3366 08-05-2006 09:07:02 14.4 C 53 % 4.95 C
3367 08-05-2006 09:17:02 15 C 51 % 4.96 C
3368 08-05-2006 09:27:02 15.6 C 45 % 3.72 C
3369 08-05-2006 09:37:02 16.4 C 46 % 4.76 C
3370 08-05-2006 09:47:02 16.8 C 46 % 5.13 C
3371 08-05-2006 09:57:02 17.3 C 42 % 4.28 C
3372 08-05-2006 10:07:02 18 C 40 % 4.21 C
3373 08-05-2006 10:17:02 18.6 C 36 % 3.25 C
3374 08-05-2006 10:27:02 19.6 C 29 % 1.1 C
3375 08-05-2006 10:37:03 20 C 27 % 0.45 C
Sensor: Nr:Datum:Temp:Feuchte:Taupunkt:
Aussen-T/F 3376 08-05-2006 10:47:02 20.3 C 24 % -0.91 C
3377 08-05-2006 10:57:02 20.8 C 25 % 0.07 C
3378 08-05-2006 11:07:02 21.2 C 22 % -1.34 C
3379 08-05-2006 11:17:02 21.8 C 24 % 0.36 C
3380 08-05-2006 11:27:02 21.8 C 21 % -1.47 C
3381 08-05-2006 11:37:02 21.7 C 20 % -2.21 C
3382 08-05-2006 11:47:02 22.1 C 20 % -1.88 C
3383 08-05-2006 11:57:02 22.3 C 20 % -1.72 C
3384 08-05-2006 12:07:02 22.6 C 20 % -1.47 C
3385 08-05-2006 12:17:02 22.7 C 20 % -1.39 C
3386 08-05-2006 12:27:02 22.8 C 20 % -1.31 C
3387 08-05-2006 12:37:02 23.5 C 20 % -0.73 C
3388 08-05-2006 12:47:02 23.7 C 20 % -0.57 C
3389 08-05-2006 12:57:02 24.2 C 20 % -0.15 C
3390 08-05-2006 13:07:02 24.8 C 20 % 0.34 C
3391 08-05-2006 13:17:02 24.9 C 20 % 0.42 C
3392 08-05-2006 13:27:02 25.9 C 20 % 1.24 C
3393 08-05-2006 13:37:02 25.2 C 20 % 0.67 C
3394 08-05-2006 13:47:02 25.9 C 20 % 1.24 C
3395 08-05-2006 13:57:02 25.9 C 20 % 1.24 C
3396 08-05-2006 14:07:02 26.2 C 20 % 1.49 C
3397 08-05-2006 14:17:01 26.1 C 20 % 1.41 C
3398 08-05-2006 14:27:01 25.6 C 20 % 1 C
3399 08-05-2006 14:37:01 25.3 C 20 % 0.75 C
3400 08-05-2006 14:47:02 24.8 C 20 % 0.34 C
Sensor: Nr:Datum:Temp:Feuchte:Taupunkt:
Aussen-T/F 3401 08-05-2006 14:57:02 24.3 C 20 % -0.07 C
3402 08-05-2006 15:07:01 23.9 C 20 % -0.4 C
3403 08-05-2006 15:17:01 24.3 C 20 % -0.07 C
3404 08-05-2006 15:27:01 24.8 C 20 % 0.34 C
3405 08-05-2006 15:37:01 25.5 C 20 % 0.91 C
3406 08-05-2006 15:47:02 25.7 C 20 % 1.08 C
3407 08-05-2006 15:57:03 27.4 C 20 % 2.47 C
3408 08-05-2006 16:07:01 27.7 C 20 % 2.72 C
3409 08-05-2006 16:17:01 27.3 C 20 % 2.39 C
3410 08-05-2006 16:27:01 26.9 C 20 % 2.06 C
3411 08-05-2006 16:37:02 26.5 C 20 % 1.74 C
3412 08-05-2006 16:47:02 25.6 C 20 % 1 C
3413 08-05-2006 16:57:02 26.2 C 20 % 1.49 C
3414 08-05-2006 17:07:03 26.3 C 20 % 1.57 C
3415 08-05-2006 17:17:03 25.7 C 20 % 1.08 C
3416 08-05-2006 17:27:03 25.7 C 20 % 1.08 C
3417 08-05-2006 17:37:04 25.5 C 20 % 0.91 C
3418 08-05-2006 17:47:02 25.4 C 20 % 0.83 C
3419 08-05-2006 17:57:02 25.2 C 20 % 0.67 C
3420 08-05-2006 18:07:03 25 C 20 % 0.5 C
3421 08-05-2006 18:17:02 25.1 C 20 % 0.59 C
3422 08-05-2006 18:27:02 25 C 20 % 0.5 C
3423 08-05-2006 18:37:03 24.9 C 20 % 0.42 C
3424 08-05-2006 18:47:02 24.5 C 25 % 3.2 C
3425 08-05-2006 18:57:02 24.2 C 22 % 1.16 C
Sensor: Nr:Datum:Temp:Feuchte:Taupunkt:
Aussen-T/F 3426 08-05-2006 19:07:02 23.8 C 20 % -0.48 C
3427 08-05-2006 19:17:02 23.5 C 25 % 2.36 C
3428 08-05-2006 19:27:02 23.1 C 25 % 2.02 C
3429 08-05-2006 19:37:01 22.6 C 26 % 2.14 C
3430 08-05-2006 19:47:02 22.2 C 27 % 2.33 C
3431 08-05-2006 19:57:02 21.6 C 28 % 2.33 C
3432 08-05-2006 20:07:02 21.3 C 27 % 1.56 C
3433 08-05-2006 20:17:01 20.9 C 27 % 1.22 C
3434 08-05-2006 20:27:01 20.4 C 28 % 1.3 C
3435 08-05-2006 20:37:02 20 C 36 % 4.49 C
3436 08-05-2006 20:47:02 19.2 C 46 % 7.31 C
3437 08-05-2006 20:57:02 18.7 C 49 % 7.78 C
3438 08-05-2006 21:07:02 18.5 C 50 % 7.89 C
3439 08-05-2006 21:17:01 18.4 C 51 % 8.09 C
3440 08-05-2006 21:27:01 18.2 C 50 % 7.62 C
3441 08-05-2006 21:37:01 18 C 52 % 8.01 C
3442 08-05-2006 21:47:02 18 C 52 % 8.01 C
3443 08-05-2006 21:57:02 17.7 C 54 % 8.28 C
3444 08-05-2006 22:07:02 17.6 C 55 % 8.46 C
3445 08-05-2006 22:17:01 17.5 C 55 % 8.37 C
3446 08-05-2006 22:27:01 17.4 C 56 % 8.54 C
3447 08-05-2006 22:37:01 17.2 C 57 % 8.62 C
3448 08-05-2006 22:47:02 17.1 C 57 % 8.52 C
3449 08-05-2006 22:57:03 16.9 C 56 % 8.07 C
3450 08-05-2006 23:07:01 16.7 C 52 % 6.81 C
Sensor: Nr:Datum:Temp:Feuchte:Taupunkt:
Aussen-T/F 3451 08-05-2006 23:17:01 16.6 C 48 % 5.56 C
3452 08-05-2006 23:27:01 16.5 C 47 % 5.16 C
3453 08-05-2006 23:37:02 16.5 C 50 % 6.05 C
3454 08-05-2006 23:47:02 16.3 C 53 % 6.71 C
3455 08-05-2006 23:57:03 16.4 C 56 % 7.61 C
3456 09-05-2006 00:07:02 16.2 C 57 % 7.68 C
3457 09-05-2006 00:17:02 16 C 57 % 7.49 C
3458 09-05-2006 00:27:02 15.8 C 57 % 7.31 C
3459 09-05-2006 00:37:02 15.7 C 61 % 8.21 C
3460 09-05-2006 00:47:02 15.6 C 60 % 7.87 C
3461 09-05-2006 00:57:02 15.4 C 60 % 7.68 C
3462 09-05-2006 01:07:03 15.3 C 56 % 6.58 C
3463 09-05-2006 01:17:03 15.2 C 57 % 6.75 C
3464 09-05-2006 01:27:03 15 C 55 % 6.04 C
3465 09-05-2006 01:37:02 14.8 C 54 % 5.59 C
3466 09-05-2006 01:47:02 14.7 C 49 % 4.11 C
3467 09-05-2006 01:57:02 14.4 C 46 % 2.94 C
3468 09-05-2006 02:07:02 14.2 C 43 % 1.81 C
3469 09-05-2006 02:17:03 14.1 C 43 % 1.72 C
3470 09-05-2006 02:27:03 14 C 45 % 2.27 C
3471 09-05-2006 02:37:02 13.8 C 45 % 2.09 C
3472 09-05-2006 02:48:03 13.8 C 46 % 2.4 C
3473 09-05-2006 02:58:03 13.7 C 47 % 2.61 C
3474 09-05-2006 03:08:03 13.6 C 48 % 2.81 C
3475 09-05-2006 03:18:04 13.5 C 47 % 2.42 C
Sensor: Nr:Datum:Temp:Feuchte:Taupunkt:
Aussen-T/F 3476 09-05-2006 03:28:04 13.4 C 46 % 2.03 C
3477 09-05-2006 03:38:03 13.3 C 46 % 1.94 C
3478 09-05-2006 03:48:03 13.1 C 46 % 1.76 C
3479 09-05-2006 03:58:03 13 C 46 % 1.67 C
3480 09-05-2006 04:08:03 12.7 C 50 % 2.56 C
3481 09-05-2006 04:18:02 12.4 C 51 % 2.56 C
3482 09-05-2006 04:28:02 12.2 C 52 % 2.65 C
3483 09-05-2006 04:38:02 12.3 C 53 % 3.01 C
3484 09-05-2006 04:48:02 11.9 C 55 % 3.16 C
3485 09-05-2006 04:58:02 11.8 C 54 % 2.81 C
3486 09-05-2006 05:08:03 11.6 C 54 % 2.62 C
3487 09-05-2006 05:18:02 11.6 C 54 % 2.62 C
3488 09-05-2006 05:28:02 11.4 C 54 % 2.44 C
3489 09-05-2006 05:38:02 11.2 C 55 % 2.51 C
3490 09-05-2006 05:48:02 11.2 C 55 % 2.51 C
3491 09-05-2006 05:58:02 11 C 55 % 2.32 C
3492 09-05-2006 06:08:02 11.1 C 55 % 2.41 C
3493 09-05-2006 06:18:02 11.1 C 56 % 2.67 C
3494 09-05-2006 06:28:02 11.1 C 57 % 2.92 C
3495 09-05-2006 06:38:02 11.1 C 58 % 3.16 C
3496 09-05-2006 06:48:02 11 C 59 % 3.31 C
3497 09-05-2006 06:58:02 11 C 59 % 3.31 C
3498 09-05-2006 07:08:01 11 C 60 % 3.55 C
3499 09-05-2006 07:18:01 11.3 C 61 % 4.06 C
3500 09-05-2006 07:28:01 11.4 C 61 % 4.16 C
Sensor: Nr:Datum:Temp:Feuchte:Taupunkt:
Aussen-T/F 3501 09-05-2006 07:38:02 11.7 C 61 % 4.44 C
3502 09-05-2006 07:48:02 12.1 C 59 % 4.34 C
3503 09-05-2006 07:58:03 12.5 C 60 % 4.96 C
3504 09-05-2006 08:08:02 12.7 C 59 % 4.9 C
3505 09-05-2006 08:18:02 12.9 C 60 % 5.33 C
3506 09-05-2006 08:28:02 13 C 59 % 5.19 C
3507 09-05-2006 08:38:03 13.4 C 58 % 5.32 C
3508 09-05-2006 08:48:02 13.7 C 56 % 5.09 C
3509 09-05-2006 08:58:02 14.5 C 51 % 4.5 C
3510 09-05-2006 09:08:02 14.8 C 53 % 5.32 C
3511 09-05-2006 09:18:02 15.2 C 53 % 5.69 C
3512 09-05-2006 09:28:02 15.8 C 51 % 5.69 C
3513 09-05-2006 09:38:02 16.4 C 43 % 3.8 C
3514 09-05-2006 09:48:02 17.2 C 41 % 3.85 C
3515 09-05-2006 09:58:03 17.6 C 39 % 3.5 C
3516 09-05-2006 10:08:02 18 C 38 % 3.49 C
3517 09-05-2006 10:18:01 18.5 C 37 % 3.55 C
3518 09-05-2006 10:28:01 18.9 C 35 % 3.12 C
3519 09-05-2006 10:38:02 19.3 C 35 % 3.47 C
3520 09-05-2006 10:48:02 19.8 C 33 % 3.08 C
3521 09-05-2006 10:58:02 20 C 32 % 2.82 C
3522 09-05-2006 11:08:01 20.3 C 33 % 3.52 C
3523 09-05-2006 11:18:01 20.9 C 31 % 3.16 C
3524 09-05-2006 11:28:01 21.2 C 30 % 2.95 C
3525 09-05-2006 11:38:02 21.4 C 31 % 3.59 C
Sensor: Nr:Datum:Temp:Feuchte:Taupunkt:
Aussen-T/F 3526 09-05-2006 11:48:02 22 C 29 % 3.17 C
3527 09-05-2006 11:58:02 22.3 C 28 % 2.93 C
3528 09-05-2006 12:08:01 22.5 C 26 % 2.06 C
3529 09-05-2006 12:18:01 22.8 C 26 % 2.31 C
3530 09-05-2006 12:28:01 23.3 C 25 % 2.19 C
3531 09-05-2006 12:38:02 23.9 C 25 % 2.69 C
3532 09-05-2006 12:48:02 24.3 C 23 % 1.86 C
3533 09-05-2006 12:58:02 24.3 C 22 % 1.24 C
3534 09-05-2006 13:08:02 25.1 C 21 % 1.26 C
3535 09-05-2006 13:18:02 26.5 C 20 % 1.74 C
3536 09-05-2006 13:28:02 25.4 C 20 % 0.83 C
3537 09-05-2006 13:38:03 23.9 C 24 % 2.12 C
3538 09-05-2006 13:48:02 25.1 C 22 % 1.91 C
3539 09-05-2006 13:58:02 25.2 C 20 % 0.67 C
3540 09-05-2006 14:08:02 25.1 C 21 % 1.26 C
3541 09-05-2006 14:18:02 25.6 C 20 % 1 C
3542 09-05-2006 14:28:02 25.2 C 22 % 1.99 C
3543 09-05-2006 14:38:03 25.4 C 21 % 1.51 C
3544 09-05-2006 14:48:02 24.9 C 22 % 1.74 C
3545 09-05-2006 14:58:03 24.6 C 23 % 2.11 C
3546 09-05-2006 15:08:02 25.8 C 20 % 1.16 C
3547 09-05-2006 15:18:02 26.6 C 20 % 1.82 C
3548 09-05-2006 15:28:02 27.7 C 20 % 2.72 C
3549 09-05-2006 15:38:02 27.2 C 20 % 2.31 C
3550 09-05-2006 15:48:02 27.5 C 20 % 2.56 C
Sensor: Nr:Datum:Temp:Feuchte:Taupunkt:
Aussen-T/F 3551 09-05-2006 15:58:03 28.5 C 20 % 3.38 C
3552 09-05-2006 16:08:02 28.8 C 20 % 3.62 C
3553 09-05-2006 16:18:02 29.2 C 20 % 3.95 C
3554 09-05-2006 16:28:02 29.5 C 20 % 4.2 C
3555 09-05-2006 16:38:02 29.2 C 20 % 3.95 C
3556 09-05-2006 16:48:02 28.7 C 20 % 3.54 C
3557 09-05-2006 16:58:02 29.2 C 20 % 3.95 C
3558 09-05-2006 17:08:02 29.8 C 20 % 4.44 C
3559 09-05-2006 17:18:01 28.7 C 20 % 3.54 C
3560 09-05-2006 17:28:01 27.7 C 20 % 2.72 C
3561 09-05-2006 17:38:02 19 C 20 % -4.44 C
3562 09-05-2006 17:48:42 19.4 C 55 % 10.13 C
3563 09-05-2006 17:58:02 21 C 56 % 11.89 C
3564 09-05-2006 18:08:02 23.1 C 45 % 10.53 C
3565 09-05-2006 18:18:02 24.6 C 31 % 6.36 C
3566 09-05-2006 18:28:02 26.6 C 24 % 4.39 C
3567 09-05-2006 18:38:02 25.2 C 26 % 4.35 C
3568 09-05-2006 18:48:02 24.1 C 26 % 3.42 C
3569 09-05-2006 18:58:02 23.8 C 27 % 3.7 C
3570 09-05-2006 19:08:02 22.8 C 28 % 3.36 C
3571 09-05-2006 19:18:01 21.7 C 31 % 3.85 C
3572 09-05-2006 19:28:01 20.7 C 39 % 6.26 C
3573 09-05-2006 19:38:02 18.3 C 43 % 5.52 C
3574 09-05-2006 19:48:02 18.3 C 42 % 5.18 C
3575 09-05-2006 19:58:02 18.7 C 41 % 5.19 C
Sensor: Nr:Datum:Temp:Feuchte:Taupunkt:
Aussen-T/F 3576 09-05-2006 20:08:01 18.9 C 39 % 4.66 C
3577 09-05-2006 20:18:01 19 C 40 % 5.11 C
3578 09-05-2006 20:28:01 18.9 C 42 % 5.72 C
3579 09-05-2006 20:38:02 18.2 C 43 % 5.43 C
3580 09-05-2006 20:48:01 18.1 C 43 % 5.34 C
3581 09-05-2006 20:58:01 18 C 41 % 4.57 C
3582 09-05-2006 21:08:02 17.7 C 44 % 5.31 C
3583 09-05-2006 21:18:02 17.6 C 45 % 5.54 C
3584 09-05-2006 21:28:02 17.1 C 47 % 5.71 C
3585 09-05-2006 21:38:02 16.8 C 49 % 6.04 C
3586 09-05-2006 21:48:02 16.6 C 49 % 5.85 C
3587 09-05-2006 21:58:02 16.6 C 50 % 6.15 C
3588 09-05-2006 22:08:02 16.7 C 50 % 6.24 C
3589 09-05-2006 22:19:03 16.8 C 52 % 6.9 C
3590 09-05-2006 22:29:03 16.8 C 52 % 6.9 C
3591 09-05-2006 22:39:03 15.5 C 68 % 9.63 C
3592 09-05-2006 22:49:03 14.5 C 77 % 10.52 C
3593 09-05-2006 22:59:03 14 C 79 % 10.42 C
3594 09-05-2006 23:09:03 14.1 C 79 % 10.52 C
3595 09-05-2006 23:19:03 14.5 C 77 % 10.52 C
3596 09-05-2006 23:29:03 14.5 C 77 % 10.52 C
3597 09-05-2006 23:39:03 14.1 C 81 % 10.89 C
3598 09-05-2006 23:49:03 13.6 C 83 % 10.77 C
3599 09-05-2006 23:59:03 13.3 C 84 % 10.66 C
3600 10-05-2006 00:09:03 13.3 C 85 % 10.83 C
Sensor: Nr:Datum:Temp:Feuchte:Taupunkt:
Aussen-T/F 3601 10-05-2006 00:19:04 13.3 C 86 % 11.01 C
3602 10-05-2006 00:29:04 13.1 C 85 % 10.64 C
3603 10-05-2006 00:39:04 12.9 C 86 % 10.62 C
3604 10-05-2006 00:49:04 12.7 C 86 % 10.42 C
3605 10-05-2006 00:59:04 12.8 C 86 % 10.52 C
3606 10-05-2006 01:09:04 12.9 C 86 % 10.62 C
3607 10-05-2006 01:19:04 12.9 C 86 % 10.62 C
3608 10-05-2006 01:29:04 12.8 C 86 % 10.52 C
3609 10-05-2006 01:39:04 12.5 C 86 % 10.22 C
3610 10-05-2006 01:49:04 12.5 C 86 % 10.22 C
3611 10-05-2006 01:59:04 12.6 C 86 % 10.32 C
3612 10-05-2006 02:09:04 12.5 C 86 % 10.22 C
3613 10-05-2006 02:19:04 12.5 C 87 % 10.4 C
3614 10-05-2006 02:29:04 12.4 C 87 % 10.3 C
3615 10-05-2006 02:39:04 12.4 C 87 % 10.3 C
3616 10-05-2006 02:49:04 12.4 C 86 % 10.13 C
3617 10-05-2006 02:59:05 12.5 C 86 % 10.22 C
3618 10-05-2006 03:09:05 12.2 C 86 % 9.93 C
3619 10-05-2006 03:19:05 12.2 C 86 % 9.93 C
3620 10-05-2006 03:29:05 12.2 C 86 % 9.93 C
3621 10-05-2006 03:39:05 12.1 C 86 % 9.83 C
3622 10-05-2006 03:49:05 12 C 86 % 9.73 C
3623 10-05-2006 03:59:05 11.9 C 87 % 9.81 C
3624 10-05-2006 04:09:05 11.8 C 87 % 9.71 C
3625 10-05-2006 04:19:05 11.6 C 87 % 9.51 C
Sensor: Nr:Datum:Temp:Feuchte:Taupunkt:
Aussen-T/F 3626 10-05-2006 04:29:05 11.4 C 87 % 9.32 C
3627 10-05-2006 04:39:05 11.2 C 86 % 8.95 C
3628 10-05-2006 04:49:05 11.1 C 86 % 8.85 C
3629 10-05-2006 04:59:05 11 C 87 % 8.92 C
3630 10-05-2006 05:09:05 11 C 87 % 8.92 C
3631 10-05-2006 05:19:05 11.1 C 87 % 9.02 C
3632 10-05-2006 05:29:05 11.1 C 87 % 9.02 C
3633 10-05-2006 05:39:06 11.2 C 87 % 9.12 C
3634 10-05-2006 05:49:06 11.3 C 87 % 9.22 C
3635 10-05-2006 05:59:06 11.3 C 86 % 9.05 C
3636 10-05-2006 06:09:06 11.3 C 85 % 8.87 C
3637 10-05-2006 06:19:06 11.5 C 85 % 9.07 C
3638 10-05-2006 06:29:06 11.6 C 85 % 9.17 C
3639 10-05-2006 06:39:06 11.8 C 84 % 9.19 C
3640 10-05-2006 06:49:06 11.9 C 83 % 9.11 C
3641 10-05-2006 06:59:06 11.9 C 83 % 9.11 C
3642 10-05-2006 07:09:06 12.1 C 82 % 9.12 C
3643 10-05-2006 07:19:02 12.3 C 81 % 9.14 C
3644 10-05-2006 07:29:02 12.7 C 80 % 9.34 C
3645 10-05-2006 07:39:02 12.5 C 80 % 9.15 C
3646 10-05-2006 07:49:02 12.7 C 79 % 9.16 C
3647 10-05-2006 07:59:02 12.8 C 79 % 9.25 C
3648 10-05-2006 08:09:03 13 C 78 % 9.26 C
3649 10-05-2006 08:19:03 13.4 C 76 % 9.26 C
3650 10-05-2006 08:29:03 13.2 C 76 % 9.07 C
Sensor: Nr:Datum:Temp:Feuchte:Taupunkt:
Aussen-T/F 3651 10-05-2006 08:39:02 13.5 C 76 % 9.36 C
3652 10-05-2006 08:49:02 13.9 C 74 % 9.35 C
3653 10-05-2006 08:59:02 14.3 C 72 % 9.33 C
3654 10-05-2006 09:09:02 14.5 C 70 % 9.1 C
3655 10-05-2006 09:19:02 14.8 C 70 % 9.39 C
3656 10-05-2006 09:29:02 14.7 C 69 % 9.08 C
3657 10-05-2006 09:39:01 14.7 C 69 % 9.08 C
3658 10-05-2006 09:49:02 15 C 68 % 9.15 C
3659 10-05-2006 09:59:02 15 C 67 % 8.93 C
3660 10-05-2006 10:09:02 15.5 C 68 % 9.63 C
3661 10-05-2006 10:19:01 15.9 C 67 % 9.79 C
3662 10-05-2006 10:29:01 16.2 C 65 % 9.62 C
3663 10-05-2006 10:39:01 16.6 C 64 % 9.77 C
3664 10-05-2006 10:49:02 17 C 61 % 9.43 C
3665 10-05-2006 10:59:02 17.3 C 58 % 8.97 C
3666 10-05-2006 11:09:01 17.5 C 58 % 9.15 C
3667 10-05-2006 11:19:01 17.7 C 56 % 8.82 C
3668 10-05-2006 11:29:01 17.8 C 55 % 8.65 C
3669 10-05-2006 11:39:01 18.4 C 52 % 8.38 C
3670 10-05-2006 11:49:02 18.7 C 51 % 8.37 C
3671 10-05-2006 11:59:02 19.1 C 48 % 7.84 C
3672 10-05-2006 12:09:02 19.4 C 47 % 7.81 C
3673 10-05-2006 12:19:01 20.4 C 44 % 7.75 C
3674 10-05-2006 12:29:01 21.1 C 41 % 7.35 C
3675 10-05-2006 12:39:01 21.3 C 39 % 6.8 C
Sensor: Nr:Datum:Temp:Feuchte:Taupunkt:
Aussen-T/F 3676 10-05-2006 12:49:02 22 C 35 % 5.85 C
3677 10-05-2006 12:59:03 22.4 C 33 % 5.35 C
3678 10-05-2006 13:09:01 23.3 C 31 % 5.24 C
3679 10-05-2006 13:19:01 23.9 C 28 % 4.3 C
3680 10-05-2006 13:29:01 24.1 C 25 % 2.86 C
3681 10-05-2006 13:39:02 24.5 C 24 % 2.63 C
3682 10-05-2006 13:49:02 24.5 C 21 % 0.76 C
3683 10-05-2006 13:59:03 24.5 C 21 % 0.76 C
3684 10-05-2006 14:09:01 24.4 C 21 % 0.68 C
3685 10-05-2006 14:19:01 24.7 C 21 % 0.93 C
3686 10-05-2006 14:29:01 24.6 C 20 % 0.17 C
3687 10-05-2006 14:39:02 25.3 C 21 % 1.43 C
3688 10-05-2006 14:49:02 26.1 C 20 % 1.41 C
3689 10-05-2006 14:59:02 26.7 C 21 % 2.58 C
3690 10-05-2006 15:09:02 26.8 C 20 % 1.98 C
3691 10-05-2006 15:19:02 26.9 C 20 % 2.06 C
3692 10-05-2006 15:29:02 27.3 C 20 % 2.39 C
3693 10-05-2006 15:39:03 28 C 20 % 2.97 C
3694 10-05-2006 15:49:02 28.1 C 20 % 3.05 C
3695 10-05-2006 15:59:02 28.5 C 20 % 3.38 C
3696 10-05-2006 16:09:02 28.7 C 20 % 3.54 C
3697 10-05-2006 16:19:02 28.7 C 20 % 3.54 C
3698 10-05-2006 16:29:02 28.8 C 20 % 3.62 C
3699 10-05-2006 16:39:03 28.8 C 20 % 3.62 C
3700 10-05-2006 16:49:02 29.2 C 20 % 3.95 C
Sensor: Nr:Datum:Temp:Feuchte:Taupunkt:
Aussen-T/F 3701 10-05-2006 16:59:03 29.5 C 20 % 4.2 C
3702 10-05-2006 17:09:02 29.8 C 20 % 4.44 C
3703 10-05-2006 17:19:02 29.6 C 20 % 4.28 C
3704 10-05-2006 17:29:02 29.8 C 20 % 4.44 C
3705 10-05-2006 17:39:03 30.1 C 20 % 4.69 C
3706 10-05-2006 17:49:02 30.1 C 20 % 4.69 C
3707 10-05-2006 17:59:02 30.1 C 20 % 4.69 C
3708 10-05-2006 18:09:02 30.1 C 20 % 4.69 C
3709 10-05-2006 18:19:02 30 C 20 % 4.61 C
3710 10-05-2006 18:29:02 30.1 C 20 % 4.69 C
3711 10-05-2006 18:39:02 30.4 C 20 % 4.93 C
3712 10-05-2006 18:49:02 30.2 C 20 % 4.77 C
3713 10-05-2006 18:59:02 29.4 C 20 % 4.11 C
3714 10-05-2006 19:09:02 29 C 20 % 3.79 C
3715 10-05-2006 19:19:01 29.2 C 20 % 3.95 C
3716 10-05-2006 19:29:01 28.7 C 20 % 3.54 C
3717 10-05-2006 19:39:02 28.5 C 20 % 3.38 C
3718 10-05-2006 19:49:02 27.5 C 20 % 2.56 C
3719 10-05-2006 19:59:02 26.9 C 20 % 2.06 C
3720 10-05-2006 20:09:01 26.1 C 20 % 1.41 C
3721 10-05-2006 20:19:02 25.3 C 20 % 0.75 C
3722 10-05-2006 20:29:02 24.5 C 20 % 0.09 C
3723 10-05-2006 20:39:02 23.5 C 22 % 0.58 C
3724 10-05-2006 20:49:03 22.3 C 23 % 0.19 C
3725 10-05-2006 20:59:03 21.2 C 26 % 0.95 C
Sensor: Nr:Datum:Temp:Feuchte:Taupunkt:
Aussen-T/F 3726 10-05-2006 21:09:03 20.6 C 28 % 1.47 C
3727 10-05-2006 21:19:02 20.2 C 28 % 1.13 C
3728 10-05-2006 21:29:03 19.7 C 30 % 1.66 C
3729 10-05-2006 21:39:02 19.3 C 31 % 1.77 C
3730 10-05-2006 21:49:02 19 C 31 % 1.51 C
3731 10-05-2006 21:59:03 18.8 C 32 % 1.78 C
3732 10-05-2006 22:09:01 18.3 C 32 % 1.34 C
3733 10-05-2006 22:19:01 18.1 C 33 % 1.59 C
3734 10-05-2006 22:29:01 17.8 C 34 % 1.75 C
3735 10-05-2006 22:39:02 17.6 C 35 % 1.98 C
3736 10-05-2006 22:49:02 17.2 C 37 % 2.4 C
3737 10-05-2006 22:59:02 16.6 C 40 % 2.96 C
3738 10-05-2006 23:09:02 16.5 C 41 % 3.22 C
3739 10-05-2006 23:19:01 16 C 41 % 2.77 C
3740 10-05-2006 23:29:01 15.8 C 43 % 3.26 C
3741 10-05-2006 23:39:02 15.6 C 44 % 3.4 C
3742 10-05-2006 23:49:02 15.2 C 45 % 3.36 C
3743 10-05-2006 23:59:03 15.1 C 44 % 2.95 C
3744 11-05-2006 00:09:02 14.8 C 46 % 3.31 C
3745 11-05-2006 00:19:02 14.4 C 46 % 2.94 C
3746 11-05-2006 00:29:03 14.5 C 46 % 3.03 C
3747 11-05-2006 00:39:02 13.9 C 49 % 3.38 C
3748 11-05-2006 00:49:02 13.4 C 50 % 3.2 C
3749 11-05-2006 00:59:02 13.4 C 51 % 3.48 C
3750 11-05-2006 01:09:02 13.3 C 51 % 3.39 C
Sensor: Nr:Datum:Temp:Feuchte:Taupunkt:
Aussen-T/F 3751 11-05-2006 01:19:02 13.4 C 53 % 4.03 C
3752 11-05-2006 01:29:03 13.2 C 53 % 3.84 C
3753 11-05-2006 01:39:02 13 C 54 % 3.92 C
3754 11-05-2006 01:49:02 12.9 C 56 % 4.35 C
3755 11-05-2006 01:59:02 12.4 C 57 % 4.13 C
3756 11-05-2006 02:09:02 12.4 C 58 % 4.38 C
3757 11-05-2006 02:19:02 12.1 C 59 % 4.34 C
3758 11-05-2006 02:29:02 11.8 C 61 % 4.53 C
3759 11-05-2006 02:39:02 11.6 C 62 % 4.58 C
3760 11-05-2006 02:50:04 11.2 C 64 % 4.65 C
3761 11-05-2006 03:00:04 11.1 C 65 % 4.78 C
3762 11-05-2006 03:10:03 10.8 C 67 % 4.93 C
3763 11-05-2006 03:20:03 10.6 C 67 % 4.74 C
3764 11-05-2006 03:30:03 10.7 C 67 % 4.83 C
3765 11-05-2006 03:40:02 10.7 C 66 % 4.62 C
3766 11-05-2006 03:50:02 10.5 C 66 % 4.43 C
3767 11-05-2006 04:00:02 10.4 C 67 % 4.55 C
3768 11-05-2006 04:10:02 10.3 C 67 % 4.45 C
3769 11-05-2006 04:20:02 10.1 C 68 % 4.47 C
3770 11-05-2006 04:30:02 10.1 C 69 % 4.68 C
3771 11-05-2006 04:40:02 9.9 C 69 % 4.49 C
3772 11-05-2006 04:50:02 9.8 C 70 % 4.6 C
3773 11-05-2006 05:00:02 9.6 C 70 % 4.41 C
3774 11-05-2006 05:10:02 9.5 C 71 % 4.51 C
3775 11-05-2006 05:20:02 9.3 C 72 % 4.52 C
Sensor: Nr:Datum:Temp:Feuchte:Taupunkt:
Aussen-T/F 3776 11-05-2006 05:30:02 9.2 C 72 % 4.42 C
3777 11-05-2006 05:40:02 9.1 C 72 % 4.33 C
3778 11-05-2006 05:50:02 9 C 73 % 4.43 C
3779 11-05-2006 06:00:03 8.9 C 75 % 4.72 C
3780 11-05-2006 06:10:02 8.9 C 76 % 4.91 C
3781 11-05-2006 06:20:02 8.7 C 76 % 4.71 C
3782 11-05-2006 06:30:02 8.5 C 77 % 4.71 C
3783 11-05-2006 06:40:02 8.7 C 78 % 5.08 C
3784 11-05-2006 06:50:02 8.7 C 77 % 4.9 C
3785 11-05-2006 07:00:02 8.6 C 77 % 4.8 C
3786 11-05-2006 07:10:02 8.7 C 77 % 4.9 C
3787 11-05-2006 07:20:02 8.7 C 78 % 5.08 C
3788 11-05-2006 07:30:03 8.9 C 76 % 4.91 C
3789 11-05-2006 07:40:02 9.1 C 74 % 4.72 C
3790 11-05-2006 07:50:02 9.2 C 74 % 4.81 C
3791 11-05-2006 08:00:02 9.4 C 74 % 5.01 C
3792 11-05-2006 08:10:02 9.8 C 74 % 5.39 C
3793 11-05-2006 08:20:02 10 C 72 % 5.19 C
3794 11-05-2006 08:30:02 10.3 C 70 % 5.08 C
3795 11-05-2006 08:40:02 10.7 C 69 % 5.25 C
3796 11-05-2006 08:50:02 11.1 C 66 % 5 C
3797 11-05-2006 09:00:02 11.6 C 64 % 5.03 C
3798 11-05-2006 09:10:02 12 C 62 % 4.96 C
3799 11-05-2006 09:20:02 12.7 C 63 % 5.85 C
3800 11-05-2006 09:30:02 13.2 C 60 % 5.61 C
Sensor: Nr:Datum:Temp:Feuchte:Taupunkt:
Aussen-T/F 3801 11-05-2006 09:40:03 13.6 C 59 % 5.75 C
3802 11-05-2006 09:50:02 14.1 C 58 % 5.97 C
3803 11-05-2006 10:00:02 14.9 C 58 % 6.72 C
3804 11-05-2006 10:10:02 15.5 C 54 % 6.24 C
3805 11-05-2006 10:20:02 16.3 C 53 % 6.71 C
3806 11-05-2006 10:30:02 17.1 C 50 % 6.6 C
3807 11-05-2006 10:40:03 17.6 C 48 % 6.47 C
3808 11-05-2006 10:50:02 18.3 C 44 % 5.85 C
3809 11-05-2006 11:00:03 19 C 42 % 5.81 C
3810 11-05-2006 11:10:02 19.7 C 40 % 5.73 C
3811 11-05-2006 11:20:02 20.1 C 38 % 5.35 C
3812 11-05-2006 11:30:02 20.7 C 39 % 6.26 C
3813 11-05-2006 11:40:02 21.2 C 36 % 5.55 C
3814 11-05-2006 11:50:02 21.8 C 34 % 5.26 C
3815 11-05-2006 12:00:03 22.3 C 27 % 2.42 C
3816 11-05-2006 12:10:02 22.6 C 26 % 2.14 C
3817 11-05-2006 12:20:02 23.4 C 25 % 2.27 C
3818 11-05-2006 12:30:02 23.1 C 21 % -0.39 C
3819 11-05-2006 12:40:02 23.1 C 21 % -0.39 C
3820 11-05-2006 12:50:02 23.7 C 20 % -0.57 C
3821 11-05-2006 13:00:03 24.9 C 20 % 0.42 C
3822 11-05-2006 13:10:02 25.4 C 20 % 0.83 C
3823 11-05-2006 13:20:01 25.6 C 20 % 1 C
3824 11-05-2006 13:30:01 25.9 C 20 % 1.24 C
3825 11-05-2006 13:40:02 25.4 C 20 % 0.83 C
Sensor: Nr:Datum:Temp:Feuchte:Taupunkt:
Aussen-T/F 3826 11-05-2006 13:50:01 25.4 C 20 % 0.83 C
3827 11-05-2006 14:00:01 25.7 C 20 % 1.08 C
3828 11-05-2006 14:10:01 26.1 C 20 % 1.41 C
3829 11-05-2006 14:20:02 26.8 C 20 % 1.98 C
3830 11-05-2006 14:30:02 27.6 C 20 % 2.64 C
3831 11-05-2006 14:40:02 28.1 C 20 % 3.05 C
3832 11-05-2006 14:50:02 28.7 C 20 % 3.54 C
3833 11-05-2006 15:00:03 29.1 C 20 % 3.87 C
3834 11-05-2006 15:10:02 29.3 C 20 % 4.03 C
3835 11-05-2006 15:20:02 29.7 C 20 % 4.36 C
3836 11-05-2006 15:30:02 29.6 C 20 % 4.28 C
3837 11-05-2006 15:40:03 30 C 20 % 4.61 C
3838 11-05-2006 15:50:02 30.4 C 20 % 4.93 C
3839 11-05-2006 16:00:02 30.8 C 20 % 5.26 C
3840 11-05-2006 16:10:02 30.3 C 20 % 4.85 C
3841 11-05-2006 16:20:02 30.7 C 20 % 5.18 C
3842 11-05-2006 16:30:02 30.7 C 20 % 5.18 C
3843 11-05-2006 16:40:02 30.9 C 20 % 5.34 C
3844 11-05-2006 16:50:02 31.3 C 20 % 5.67 C
3845 11-05-2006 17:00:02 31.2 C 20 % 5.59 C
3846 11-05-2006 17:10:02 31.2 C 20 % 5.59 C
3847 11-05-2006 17:20:02 30.7 C 20 % 5.18 C
3848 11-05-2006 17:30:02 31 C 20 % 5.42 C
3849 11-05-2006 17:40:02 31.4 C 20 % 5.75 C
3850 11-05-2006 17:50:02 31.6 C 20 % 5.91 C
Sensor: Nr:Datum:Temp:Feuchte:Taupunkt:
Aussen-T/F 3851 11-05-2006 18:00:02 31.5 C 20 % 5.83 C
3852 11-05-2006 18:10:02 31.4 C 20 % 5.75 C
3853 11-05-2006 18:20:02 31.3 C 20 % 5.67 C
3854 11-05-2006 18:30:02 31.3 C 20 % 5.67 C
3855 11-05-2006 18:40:02 31.2 C 20 % 5.59 C
3856 11-05-2006 18:50:03 31.2 C 20 % 5.59 C
3857 11-05-2006 19:00:03 31 C 20 % 5.42 C
3858 11-05-2006 19:10:03 30.7 C 20 % 5.18 C
3859 11-05-2006 19:20:02 30.6 C 20 % 5.1 C
3860 11-05-2006 19:30:03 30.5 C 20 % 5.01 C
3861 11-05-2006 19:40:02 30.3 C 20 % 4.85 C
3862 11-05-2006 19:50:02 29.5 C 20 % 4.2 C
3863 11-05-2006 20:00:03 28.8 C 20 % 3.62 C
3864 11-05-2006 20:10:01 27.4 C 20 % 2.47 C
3865 11-05-2006 20:20:01 26.5 C 20 % 1.74 C
3866 11-05-2006 20:30:01 25.5 C 20 % 0.91 C
3867 11-05-2006 20:40:02 24.1 C 20 % -0.24 C
3868 11-05-2006 20:50:01 23.1 C 20 % -1.06 C
3869 11-05-2006 21:00:02 22 C 20 % -1.97 C
3870 11-05-2006 21:10:01 21 C 21 % -2.13 C
3871 11-05-2006 21:20:01 20.5 C 22 % -1.92 C
3872 11-05-2006 21:30:01 20.3 C 20 % -3.37 C
3873 11-05-2006 21:40:01 20 C 21 % -2.96 C
3874 11-05-2006 21:50:01 19.5 C 21 % -3.38 C
3875 11-05-2006 22:00:02 19.1 C 22 % -3.09 C
Sensor: Nr:Datum:Temp:Feuchte:Taupunkt:
Aussen-T/F 3876 11-05-2006 22:10:01 19.1 C 23 % -2.49 C
3877 11-05-2006 22:20:01 18.6 C 23 % -2.91 C
3878 11-05-2006 22:30:02 18.5 C 25 % -1.87 C
3879 11-05-2006 22:40:02 18.2 C 25 % -2.13 C
3880 11-05-2006 22:50:02 17.8 C 26 % -1.94 C
3881 11-05-2006 23:00:02 17.5 C 28 % -1.19 C
3882 11-05-2006 23:10:02 17.2 C 30 % -0.51 C
3883 11-05-2006 23:20:02 16.5 C 34 % 0.6 C
3884 11-05-2006 23:30:02 16.4 C 33 % 0.11 C
3885 11-05-2006 23:40:02 16 C 34 % 0.17 C
3886 11-05-2006 23:50:02 15.7 C 33 % -0.51 C
3887 12-05-2006 00:00:02 15.5 C 35 % 0.12 C
3888 12-05-2006 00:10:02 15.3 C 36 % 0.34 C
3889 12-05-2006 00:20:02 15.1 C 37 % 0.54 C
3890 12-05-2006 00:30:02 14.9 C 38 %